<?xml version="1.0" encoding="UTF-8" standalone="no" ?>
<gpx xmlns="http://www.topografix.com/GPX/1/1" xmlns:xsi="http://www.w3.org/2001/XMLSchema-instance" xsi:schemaLocation="http://www.topografix.com/GPX/1/1 http://www.topografix.com/GPX/1/1/gpx.xsd" version="1.1" creator="VisuGPX - https://www.visugpx.com">
  <metadata>
    <name>Mini Trail Roses</name>
    <desc><![CDATA[Petit parcours passant par les Dolmens]]></desc>
  </metadata>
  <trk>
    <name><![CDATA[Dolmens]]></name>
    <trkseg>
      <trkpt lat="42.26434" lon="3.18333">
        <ele>46.200000762939</ele>
        <time>2015-05-02T08:12:10Z</time>
      </trkpt>
      <trkpt lat="42.26435" lon="3.18333">
        <ele>46.200000762939</ele>
        <time>2015-05-02T08:12:11Z</time>
      </trkpt>
      <trkpt lat="42.2644" lon="3.18332">
        <ele>46.200000762939</ele>
        <time>2015-05-02T08:12:14Z</time>
      </trkpt>
      <trkpt lat="42.26445" lon="3.1833">
        <ele>45.599998474121</ele>
        <time>2015-05-02T08:12:16Z</time>
      </trkpt>
      <trkpt lat="42.26452" lon="3.18332">
        <ele>45.799999237061</ele>
        <time>2015-05-02T08:12:18Z</time>
      </trkpt>
      <trkpt lat="42.26458" lon="3.18335">
        <ele>45.599998474121</ele>
        <time>2015-05-02T08:12:20Z</time>
      </trkpt>
      <trkpt lat="42.26461" lon="3.18338">
        <ele>45.599998474121</ele>
        <time>2015-05-02T08:12:22Z</time>
      </trkpt>
      <trkpt lat="42.26463" lon="3.1834">
        <ele>45.400001525879</ele>
        <time>2015-05-02T08:12:23Z</time>
      </trkpt>
      <trkpt lat="42.26466" lon="3.18343">
        <ele>45.400001525879</ele>
        <time>2015-05-02T08:12:25Z</time>
      </trkpt>
      <trkpt lat="42.26471" lon="3.18347">
        <ele>45</ele>
        <time>2015-05-02T08:12:28Z</time>
      </trkpt>
      <trkpt lat="42.2648" lon="3.18356">
        <ele>44.400001525879</ele>
        <time>2015-05-02T08:12:33Z</time>
      </trkpt>
      <trkpt lat="42.26485" lon="3.18359">
        <ele>44</ele>
        <time>2015-05-02T08:12:35Z</time>
      </trkpt>
      <trkpt lat="42.26488" lon="3.1836">
        <ele>44</ele>
        <time>2015-05-02T08:12:36Z</time>
      </trkpt>
      <trkpt lat="42.26501" lon="3.1837">
        <ele>43.200000762939</ele>
        <time>2015-05-02T08:12:42Z</time>
      </trkpt>
      <trkpt lat="42.26508" lon="3.18376">
        <ele>42.799999237061</ele>
        <time>2015-05-02T08:12:45Z</time>
      </trkpt>
      <trkpt lat="42.26511" lon="3.18381">
        <ele>42.400001525879</ele>
        <time>2015-05-02T08:12:47Z</time>
      </trkpt>
      <trkpt lat="42.26524" lon="3.18392">
        <ele>42.400001525879</ele>
        <time>2015-05-02T08:12:53Z</time>
      </trkpt>
      <trkpt lat="42.26536" lon="3.18404">
        <ele>42.799999237061</ele>
        <time>2015-05-02T08:12:59Z</time>
      </trkpt>
      <trkpt lat="42.26547" lon="3.18411">
        <ele>42.400001525879</ele>
        <time>2015-05-02T08:13:04Z</time>
      </trkpt>
      <trkpt lat="42.26556" lon="3.18418">
        <ele>42.799999237061</ele>
        <time>2015-05-02T08:13:08Z</time>
      </trkpt>
      <trkpt lat="42.26562" lon="3.18424">
        <ele>42.799999237061</ele>
        <time>2015-05-02T08:13:11Z</time>
      </trkpt>
      <trkpt lat="42.26574" lon="3.1843">
        <ele>42.599998474121</ele>
        <time>2015-05-02T08:13:16Z</time>
      </trkpt>
      <trkpt lat="42.26585" lon="3.18438">
        <ele>42.799999237061</ele>
        <time>2015-05-02T08:13:21Z</time>
      </trkpt>
      <trkpt lat="42.26596" lon="3.18446">
        <ele>43</ele>
        <time>2015-05-02T08:13:26Z</time>
      </trkpt>
      <trkpt lat="42.26606" lon="3.18452">
        <ele>43</ele>
        <time>2015-05-02T08:13:30Z</time>
      </trkpt>
      <trkpt lat="42.26617" lon="3.18459">
        <ele>43</ele>
        <time>2015-05-02T08:13:35Z</time>
      </trkpt>
      <trkpt lat="42.26628" lon="3.18464">
        <ele>43</ele>
        <time>2015-05-02T08:13:39Z</time>
      </trkpt>
      <trkpt lat="42.26637" lon="3.18472">
        <ele>42.599998474121</ele>
        <time>2015-05-02T08:13:43Z</time>
      </trkpt>
      <trkpt lat="42.2665" lon="3.1848">
        <ele>42.799999237061</ele>
        <time>2015-05-02T08:13:48Z</time>
      </trkpt>
      <trkpt lat="42.26661" lon="3.18489">
        <ele>42.799999237061</ele>
        <time>2015-05-02T08:13:53Z</time>
      </trkpt>
      <trkpt lat="42.26674" lon="3.18497">
        <ele>42.799999237061</ele>
        <time>2015-05-02T08:13:59Z</time>
      </trkpt>
      <trkpt lat="42.26686" lon="3.18507">
        <ele>42.799999237061</ele>
        <time>2015-05-02T08:14:05Z</time>
      </trkpt>
      <trkpt lat="42.26698" lon="3.18516">
        <ele>42.799999237061</ele>
        <time>2015-05-02T08:14:11Z</time>
      </trkpt>
      <trkpt lat="42.26712" lon="3.18527">
        <ele>43</ele>
        <time>2015-05-02T08:14:18Z</time>
      </trkpt>
      <trkpt lat="42.26727" lon="3.18536">
        <ele>42.799999237061</ele>
        <time>2015-05-02T08:14:26Z</time>
      </trkpt>
      <trkpt lat="42.26741" lon="3.18539">
        <ele>42.599998474121</ele>
        <time>2015-05-02T08:14:32Z</time>
      </trkpt>
      <trkpt lat="42.26749" lon="3.18547">
        <ele>42.400001525879</ele>
        <time>2015-05-02T08:14:36Z</time>
      </trkpt>
      <trkpt lat="42.26758" lon="3.18561">
        <ele>42.799999237061</ele>
        <time>2015-05-02T08:14:42Z</time>
      </trkpt>
      <trkpt lat="42.26766" lon="3.18575">
        <ele>43.799999237061</ele>
        <time>2015-05-02T08:14:48Z</time>
      </trkpt>
      <trkpt lat="42.26769" lon="3.1858">
        <ele>44</ele>
        <time>2015-05-02T08:14:50Z</time>
      </trkpt>
      <trkpt lat="42.26775" lon="3.18587">
        <ele>44.599998474121</ele>
        <time>2015-05-02T08:14:53Z</time>
      </trkpt>
      <trkpt lat="42.26781" lon="3.18599">
        <ele>45.200000762939</ele>
        <time>2015-05-02T08:14:58Z</time>
      </trkpt>
      <trkpt lat="42.26789" lon="3.18616">
        <ele>46.400001525879</ele>
        <time>2015-05-02T08:15:05Z</time>
      </trkpt>
      <trkpt lat="42.26793" lon="3.18631">
        <ele>46.799999237061</ele>
        <time>2015-05-02T08:15:10Z</time>
      </trkpt>
      <trkpt lat="42.26799" lon="3.18643">
        <ele>47.400001525879</ele>
        <time>2015-05-02T08:15:15Z</time>
      </trkpt>
      <trkpt lat="42.26809" lon="3.18657">
        <ele>48.200000762939</ele>
        <time>2015-05-02T08:15:21Z</time>
      </trkpt>
      <trkpt lat="42.26812" lon="3.18662">
        <ele>48.400001525879</ele>
        <time>2015-05-02T08:15:23Z</time>
      </trkpt>
      <trkpt lat="42.26817" lon="3.18669">
        <ele>48.599998474121</ele>
        <time>2015-05-02T08:15:26Z</time>
      </trkpt>
      <trkpt lat="42.26827" lon="3.18683">
        <ele>49</ele>
        <time>2015-05-02T08:15:32Z</time>
      </trkpt>
      <trkpt lat="42.26833" lon="3.18693">
        <ele>49.400001525879</ele>
        <time>2015-05-02T08:15:36Z</time>
      </trkpt>
      <trkpt lat="42.26835" lon="3.18696">
        <ele>49.400001525879</ele>
        <time>2015-05-02T08:15:37Z</time>
      </trkpt>
      <trkpt lat="42.26845" lon="3.18711">
        <ele>49.200000762939</ele>
        <time>2015-05-02T08:15:43Z</time>
      </trkpt>
      <trkpt lat="42.2685" lon="3.18724">
        <ele>49.200000762939</ele>
        <time>2015-05-02T08:15:48Z</time>
      </trkpt>
      <trkpt lat="42.26855" lon="3.18739">
        <ele>49.200000762939</ele>
        <time>2015-05-02T08:15:53Z</time>
      </trkpt>
      <trkpt lat="42.2686" lon="3.18753">
        <ele>49.400001525879</ele>
        <time>2015-05-02T08:15:58Z</time>
      </trkpt>
      <trkpt lat="42.26864" lon="3.18757">
        <ele>49.400001525879</ele>
        <time>2015-05-02T08:16:00Z</time>
      </trkpt>
      <trkpt lat="42.2687" lon="3.18761">
        <ele>49.599998474121</ele>
        <time>2015-05-02T08:16:03Z</time>
      </trkpt>
      <trkpt lat="42.2688" lon="3.18767">
        <ele>49</ele>
        <time>2015-05-02T08:16:08Z</time>
      </trkpt>
      <trkpt lat="42.2689" lon="3.18776">
        <ele>49</ele>
        <time>2015-05-02T08:16:13Z</time>
      </trkpt>
      <trkpt lat="42.2689" lon="3.18779">
        <ele>49</ele>
        <time>2015-05-02T08:16:14Z</time>
      </trkpt>
      <trkpt lat="42.2689" lon="3.18785">
        <ele>48.799999237061</ele>
        <time>2015-05-02T08:16:16Z</time>
      </trkpt>
      <trkpt lat="42.26894" lon="3.18795">
        <ele>49.200000762939</ele>
        <time>2015-05-02T08:16:20Z</time>
      </trkpt>
      <trkpt lat="42.26893" lon="3.18797">
        <ele>49.400001525879</ele>
        <time>2015-05-02T08:16:21Z</time>
      </trkpt>
      <trkpt lat="42.26897" lon="3.18803">
        <ele>49.599998474121</ele>
        <time>2015-05-02T08:16:23Z</time>
      </trkpt>
      <trkpt lat="42.269" lon="3.1881">
        <ele>49.599998474121</ele>
        <time>2015-05-02T08:16:26Z</time>
      </trkpt>
      <trkpt lat="42.26902" lon="3.18811">
        <ele>49.599998474121</ele>
        <time>2015-05-02T08:16:27Z</time>
      </trkpt>
      <trkpt lat="42.2691" lon="3.18822">
        <ele>49.799999237061</ele>
        <time>2015-05-02T08:16:32Z</time>
      </trkpt>
      <trkpt lat="42.26921" lon="3.18831">
        <ele>49.599998474121</ele>
        <time>2015-05-02T08:16:37Z</time>
      </trkpt>
      <trkpt lat="42.26933" lon="3.18839">
        <ele>49.599998474121</ele>
        <time>2015-05-02T08:16:42Z</time>
      </trkpt>
      <trkpt lat="42.26942" lon="3.18851">
        <ele>49.599998474121</ele>
        <time>2015-05-02T08:16:47Z</time>
      </trkpt>
      <trkpt lat="42.26954" lon="3.18865">
        <ele>49.400001525879</ele>
        <time>2015-05-02T08:16:53Z</time>
      </trkpt>
      <trkpt lat="42.26957" lon="3.18872">
        <ele>49.400001525879</ele>
        <time>2015-05-02T08:16:56Z</time>
      </trkpt>
      <trkpt lat="42.26957" lon="3.18876">
        <ele>49.400001525879</ele>
        <time>2015-05-02T08:16:57Z</time>
      </trkpt>
      <trkpt lat="42.26955" lon="3.18891">
        <ele>49.599998474121</ele>
        <time>2015-05-02T08:17:02Z</time>
      </trkpt>
      <trkpt lat="42.26952" lon="3.18908">
        <ele>49.599998474121</ele>
        <time>2015-05-02T08:17:07Z</time>
      </trkpt>
      <trkpt lat="42.2695" lon="3.18921">
        <ele>50.400001525879</ele>
        <time>2015-05-02T08:17:12Z</time>
      </trkpt>
      <trkpt lat="42.26949" lon="3.18928">
        <ele>50.599998474121</ele>
        <time>2015-05-02T08:17:14Z</time>
      </trkpt>
      <trkpt lat="42.26952" lon="3.18937">
        <ele>51</ele>
        <time>2015-05-02T08:17:17Z</time>
      </trkpt>
      <trkpt lat="42.26951" lon="3.18951">
        <ele>51</ele>
        <time>2015-05-02T08:17:21Z</time>
      </trkpt>
      <trkpt lat="42.26953" lon="3.18967">
        <ele>50.799999237061</ele>
        <time>2015-05-02T08:17:26Z</time>
      </trkpt>
      <trkpt lat="42.26955" lon="3.18971">
        <ele>50.599998474121</ele>
        <time>2015-05-02T08:17:28Z</time>
      </trkpt>
      <trkpt lat="42.26954" lon="3.18977">
        <ele>50.599998474121</ele>
        <time>2015-05-02T08:17:30Z</time>
      </trkpt>
      <trkpt lat="42.26955" lon="3.18981">
        <ele>50.799999237061</ele>
        <time>2015-05-02T08:17:33Z</time>
      </trkpt>
      <trkpt lat="42.26956" lon="3.18981">
        <ele>50.799999237061</ele>
        <time>2015-05-02T08:17:34Z</time>
      </trkpt>
      <trkpt lat="42.2696" lon="3.18982">
        <ele>50.599998474121</ele>
        <time>2015-05-02T08:17:37Z</time>
      </trkpt>
      <trkpt lat="42.26963" lon="3.18983">
        <ele>50.200000762939</ele>
        <time>2015-05-02T08:17:39Z</time>
      </trkpt>
      <trkpt lat="42.26965" lon="3.18988">
        <ele>49.599998474121</ele>
        <time>2015-05-02T08:17:41Z</time>
      </trkpt>
      <trkpt lat="42.26965" lon="3.19003">
        <ele>48.599998474121</ele>
        <time>2015-05-02T08:17:46Z</time>
      </trkpt>
      <trkpt lat="42.26965" lon="3.19006">
        <ele>48.599998474121</ele>
        <time>2015-05-02T08:17:47Z</time>
      </trkpt>
      <trkpt lat="42.26966" lon="3.19012">
        <ele>48.799999237061</ele>
        <time>2015-05-02T08:17:50Z</time>
      </trkpt>
      <trkpt lat="42.26967" lon="3.19017">
        <ele>48.799999237061</ele>
        <time>2015-05-02T08:17:52Z</time>
      </trkpt>
      <trkpt lat="42.2697" lon="3.19028">
        <ele>49</ele>
        <time>2015-05-02T08:17:56Z</time>
      </trkpt>
      <trkpt lat="42.26971" lon="3.19033">
        <ele>49.400001525879</ele>
        <time>2015-05-02T08:17:58Z</time>
      </trkpt>
      <trkpt lat="42.26974" lon="3.1905">
        <ele>49.599998474121</ele>
        <time>2015-05-02T08:18:04Z</time>
      </trkpt>
      <trkpt lat="42.26978" lon="3.19064">
        <ele>50</ele>
        <time>2015-05-02T08:18:09Z</time>
      </trkpt>
      <trkpt lat="42.26984" lon="3.19087">
        <ele>50.200000762939</ele>
        <time>2015-05-02T08:18:17Z</time>
      </trkpt>
      <trkpt lat="42.26987" lon="3.19098">
        <ele>50.599998474121</ele>
        <time>2015-05-02T08:18:21Z</time>
      </trkpt>
      <trkpt lat="42.26989" lon="3.19105">
        <ele>51</ele>
        <time>2015-05-02T08:18:23Z</time>
      </trkpt>
      <trkpt lat="42.26992" lon="3.19123">
        <ele>51.799999237061</ele>
        <time>2015-05-02T08:18:29Z</time>
      </trkpt>
      <trkpt lat="42.26994" lon="3.19133">
        <ele>51.599998474121</ele>
        <time>2015-05-02T08:18:32Z</time>
      </trkpt>
      <trkpt lat="42.27" lon="3.19145">
        <ele>51.200000762939</ele>
        <time>2015-05-02T08:18:36Z</time>
      </trkpt>
      <trkpt lat="42.27003" lon="3.19161">
        <ele>51</ele>
        <time>2015-05-02T08:18:41Z</time>
      </trkpt>
      <trkpt lat="42.27004" lon="3.19168">
        <ele>50.799999237061</ele>
        <time>2015-05-02T08:18:43Z</time>
      </trkpt>
      <trkpt lat="42.27007" lon="3.19181">
        <ele>50.799999237061</ele>
        <time>2015-05-02T08:18:47Z</time>
      </trkpt>
      <trkpt lat="42.27008" lon="3.19195">
        <ele>51</ele>
        <time>2015-05-02T08:18:52Z</time>
      </trkpt>
      <trkpt lat="42.27009" lon="3.19211">
        <ele>51.599998474121</ele>
        <time>2015-05-02T08:18:57Z</time>
      </trkpt>
      <trkpt lat="42.27009" lon="3.19213">
        <ele>51.599998474121</ele>
        <time>2015-05-02T08:18:58Z</time>
      </trkpt>
      <trkpt lat="42.27011" lon="3.19227">
        <ele>51.599998474121</ele>
        <time>2015-05-02T08:19:03Z</time>
      </trkpt>
      <trkpt lat="42.27013" lon="3.19235">
        <ele>51.400001525879</ele>
        <time>2015-05-02T08:19:06Z</time>
      </trkpt>
      <trkpt lat="42.27014" lon="3.19238">
        <ele>51.599998474121</ele>
        <time>2015-05-02T08:19:07Z</time>
      </trkpt>
      <trkpt lat="42.27014" lon="3.19246">
        <ele>52</ele>
        <time>2015-05-02T08:19:10Z</time>
      </trkpt>
      <trkpt lat="42.27016" lon="3.19252">
        <ele>52.200000762939</ele>
        <time>2015-05-02T08:19:12Z</time>
      </trkpt>
      <trkpt lat="42.2702" lon="3.19266">
        <ele>52.400001525879</ele>
        <time>2015-05-02T08:19:17Z</time>
      </trkpt>
      <trkpt lat="42.2702" lon="3.19281">
        <ele>52.799999237061</ele>
        <time>2015-05-02T08:19:22Z</time>
      </trkpt>
      <trkpt lat="42.2702" lon="3.19288">
        <ele>53</ele>
        <time>2015-05-02T08:19:24Z</time>
      </trkpt>
      <trkpt lat="42.2702" lon="3.19297">
        <ele>53.400001525879</ele>
        <time>2015-05-02T08:19:27Z</time>
      </trkpt>
      <trkpt lat="42.27019" lon="3.19313">
        <ele>54.200000762939</ele>
        <time>2015-05-02T08:19:32Z</time>
      </trkpt>
      <trkpt lat="42.27019" lon="3.19316">
        <ele>54.200000762939</ele>
        <time>2015-05-02T08:19:33Z</time>
      </trkpt>
      <trkpt lat="42.27018" lon="3.19333">
        <ele>55.200000762939</ele>
        <time>2015-05-02T08:19:39Z</time>
      </trkpt>
      <trkpt lat="42.27018" lon="3.19335">
        <ele>55.400001525879</ele>
        <time>2015-05-02T08:19:40Z</time>
      </trkpt>
      <trkpt lat="42.27018" lon="3.19353">
        <ele>56</ele>
        <time>2015-05-02T08:19:46Z</time>
      </trkpt>
      <trkpt lat="42.27018" lon="3.19371">
        <ele>56.200000762939</ele>
        <time>2015-05-02T08:19:52Z</time>
      </trkpt>
      <trkpt lat="42.27018" lon="3.19376">
        <ele>56.200000762939</ele>
        <time>2015-05-02T08:19:54Z</time>
      </trkpt>
      <trkpt lat="42.27016" lon="3.19386">
        <ele>56.200000762939</ele>
        <time>2015-05-02T08:19:58Z</time>
      </trkpt>
      <trkpt lat="42.27007" lon="3.19401">
        <ele>56.799999237061</ele>
        <time>2015-05-02T08:20:05Z</time>
      </trkpt>
      <trkpt lat="42.27" lon="3.19414">
        <ele>57.200000762939</ele>
        <time>2015-05-02T08:20:10Z</time>
      </trkpt>
      <trkpt lat="42.26998" lon="3.19419">
        <ele>57.599998474121</ele>
        <time>2015-05-02T08:20:12Z</time>
      </trkpt>
      <trkpt lat="42.26995" lon="3.19422">
        <ele>58</ele>
        <time>2015-05-02T08:20:14Z</time>
      </trkpt>
      <trkpt lat="42.26991" lon="3.1943">
        <ele>58.400001525879</ele>
        <time>2015-05-02T08:20:17Z</time>
      </trkpt>
      <trkpt lat="42.26986" lon="3.1944">
        <ele>58.599998474121</ele>
        <time>2015-05-02T08:20:21Z</time>
      </trkpt>
      <trkpt lat="42.26986" lon="3.19443">
        <ele>58.400001525879</ele>
        <time>2015-05-02T08:20:22Z</time>
      </trkpt>
      <trkpt lat="42.26979" lon="3.19465">
        <ele>59.200000762939</ele>
        <time>2015-05-02T08:20:30Z</time>
      </trkpt>
      <trkpt lat="42.26976" lon="3.19478">
        <ele>59.400001525879</ele>
        <time>2015-05-02T08:20:35Z</time>
      </trkpt>
      <trkpt lat="42.26975" lon="3.19483">
        <ele>59.799999237061</ele>
        <time>2015-05-02T08:20:37Z</time>
      </trkpt>
      <trkpt lat="42.26974" lon="3.19493">
        <ele>60.200000762939</ele>
        <time>2015-05-02T08:20:40Z</time>
      </trkpt>
      <trkpt lat="42.26971" lon="3.19504">
        <ele>60.599998474121</ele>
        <time>2015-05-02T08:20:44Z</time>
      </trkpt>
      <trkpt lat="42.26969" lon="3.19518">
        <ele>60.599998474121</ele>
        <time>2015-05-02T08:20:49Z</time>
      </trkpt>
      <trkpt lat="42.26965" lon="3.19535">
        <ele>60.799999237061</ele>
        <time>2015-05-02T08:20:55Z</time>
      </trkpt>
      <trkpt lat="42.26962" lon="3.19549">
        <ele>61</ele>
        <time>2015-05-02T08:21:00Z</time>
      </trkpt>
      <trkpt lat="42.2696" lon="3.19558">
        <ele>61.599998474121</ele>
        <time>2015-05-02T08:21:03Z</time>
      </trkpt>
      <trkpt lat="42.26959" lon="3.19566">
        <ele>62</ele>
        <time>2015-05-02T08:21:06Z</time>
      </trkpt>
      <trkpt lat="42.26956" lon="3.1958">
        <ele>61.799999237061</ele>
        <time>2015-05-02T08:21:11Z</time>
      </trkpt>
      <trkpt lat="42.26953" lon="3.19591">
        <ele>62.400001525879</ele>
        <time>2015-05-02T08:21:15Z</time>
      </trkpt>
      <trkpt lat="42.26951" lon="3.19597">
        <ele>62.599998474121</ele>
        <time>2015-05-02T08:21:17Z</time>
      </trkpt>
      <trkpt lat="42.26947" lon="3.19613">
        <ele>62.400001525879</ele>
        <time>2015-05-02T08:21:23Z</time>
      </trkpt>
      <trkpt lat="42.26945" lon="3.19621">
        <ele>62.799999237061</ele>
        <time>2015-05-02T08:21:26Z</time>
      </trkpt>
      <trkpt lat="42.26944" lon="3.19632">
        <ele>63.200000762939</ele>
        <time>2015-05-02T08:21:30Z</time>
      </trkpt>
      <trkpt lat="42.26938" lon="3.19652">
        <ele>63.599998474121</ele>
        <time>2015-05-02T08:21:37Z</time>
      </trkpt>
      <trkpt lat="42.26937" lon="3.19662">
        <ele>63.799999237061</ele>
        <time>2015-05-02T08:21:41Z</time>
      </trkpt>
      <trkpt lat="42.26935" lon="3.19667">
        <ele>64</ele>
        <time>2015-05-02T08:21:43Z</time>
      </trkpt>
      <trkpt lat="42.26932" lon="3.19679">
        <ele>65</ele>
        <time>2015-05-02T08:21:48Z</time>
      </trkpt>
      <trkpt lat="42.26931" lon="3.19682">
        <ele>65</ele>
        <time>2015-05-02T08:21:49Z</time>
      </trkpt>
      <trkpt lat="42.26926" lon="3.19701">
        <ele>65.599998474121</ele>
        <time>2015-05-02T08:21:56Z</time>
      </trkpt>
      <trkpt lat="42.26923" lon="3.19711">
        <ele>66</ele>
        <time>2015-05-02T08:22:00Z</time>
      </trkpt>
      <trkpt lat="42.26921" lon="3.19716">
        <ele>66.400001525879</ele>
        <time>2015-05-02T08:22:02Z</time>
      </trkpt>
      <trkpt lat="42.2692" lon="3.19729">
        <ele>67</ele>
        <time>2015-05-02T08:22:07Z</time>
      </trkpt>
      <trkpt lat="42.26919" lon="3.19734">
        <ele>67.199996948242</ele>
        <time>2015-05-02T08:22:09Z</time>
      </trkpt>
      <trkpt lat="42.26918" lon="3.19747">
        <ele>67.800003051758</ele>
        <time>2015-05-02T08:22:14Z</time>
      </trkpt>
      <trkpt lat="42.26917" lon="3.19752">
        <ele>68.199996948242</ele>
        <time>2015-05-02T08:22:16Z</time>
      </trkpt>
      <trkpt lat="42.26915" lon="3.19763">
        <ele>68.599998474121</ele>
        <time>2015-05-02T08:22:20Z</time>
      </trkpt>
      <trkpt lat="42.26913" lon="3.19773">
        <ele>69.199996948242</ele>
        <time>2015-05-02T08:22:24Z</time>
      </trkpt>
      <trkpt lat="42.26912" lon="3.19778">
        <ele>69.800003051758</ele>
        <time>2015-05-02T08:22:26Z</time>
      </trkpt>
      <trkpt lat="42.2691" lon="3.19784">
        <ele>70.400001525879</ele>
        <time>2015-05-02T08:22:28Z</time>
      </trkpt>
      <trkpt lat="42.26909" lon="3.19791">
        <ele>71</ele>
        <time>2015-05-02T08:22:31Z</time>
      </trkpt>
      <trkpt lat="42.26908" lon="3.19796">
        <ele>71.400001525879</ele>
        <time>2015-05-02T08:22:33Z</time>
      </trkpt>
      <trkpt lat="42.26908" lon="3.19808">
        <ele>71.599998474121</ele>
        <time>2015-05-02T08:22:37Z</time>
      </trkpt>
      <trkpt lat="42.26905" lon="3.19819">
        <ele>71.800003051758</ele>
        <time>2015-05-02T08:22:41Z</time>
      </trkpt>
      <trkpt lat="42.26901" lon="3.19822">
        <ele>72</ele>
        <time>2015-05-02T08:22:42Z</time>
      </trkpt>
      <trkpt lat="42.26889" lon="3.19834">
        <ele>72.199996948242</ele>
        <time>2015-05-02T08:22:47Z</time>
      </trkpt>
      <trkpt lat="42.26885" lon="3.19837">
        <ele>72.599998474121</ele>
        <time>2015-05-02T08:22:49Z</time>
      </trkpt>
      <trkpt lat="42.26876" lon="3.19846">
        <ele>73.599998474121</ele>
        <time>2015-05-02T08:22:54Z</time>
      </trkpt>
      <trkpt lat="42.26875" lon="3.19847">
        <ele>73.800003051758</ele>
        <time>2015-05-02T08:22:55Z</time>
      </trkpt>
      <trkpt lat="42.26872" lon="3.19852">
        <ele>74</ele>
        <time>2015-05-02T08:22:58Z</time>
      </trkpt>
      <trkpt lat="42.26871" lon="3.19853">
        <ele>74</ele>
        <time>2015-05-02T08:22:59Z</time>
      </trkpt>
      <trkpt lat="42.26867" lon="3.19858">
        <ele>74</ele>
        <time>2015-05-02T08:23:03Z</time>
      </trkpt>
      <trkpt lat="42.26865" lon="3.19861">
        <ele>74</ele>
        <time>2015-05-02T08:23:05Z</time>
      </trkpt>
      <trkpt lat="42.26863" lon="3.19864">
        <ele>74.199996948242</ele>
        <time>2015-05-02T08:23:06Z</time>
      </trkpt>
      <trkpt lat="42.26862" lon="3.19866">
        <ele>74.599998474121</ele>
        <time>2015-05-02T08:23:07Z</time>
      </trkpt>
      <trkpt lat="42.26859" lon="3.19867">
        <ele>75</ele>
        <time>2015-05-02T08:23:09Z</time>
      </trkpt>
      <trkpt lat="42.26858" lon="3.19869">
        <ele>75.199996948242</ele>
        <time>2015-05-02T08:23:10Z</time>
      </trkpt>
      <trkpt lat="42.26853" lon="3.19873">
        <ele>76.199996948242</ele>
        <time>2015-05-02T08:23:14Z</time>
      </trkpt>
      <trkpt lat="42.26846" lon="3.19877">
        <ele>77</ele>
        <time>2015-05-02T08:23:18Z</time>
      </trkpt>
      <trkpt lat="42.26845" lon="3.19878">
        <ele>77.199996948242</ele>
        <time>2015-05-02T08:23:19Z</time>
      </trkpt>
      <trkpt lat="42.26844" lon="3.19879">
        <ele>77.400001525879</ele>
        <time>2015-05-02T08:23:20Z</time>
      </trkpt>
      <trkpt lat="42.26839" lon="3.19884">
        <ele>78.199996948242</ele>
        <time>2015-05-02T08:23:24Z</time>
      </trkpt>
      <trkpt lat="42.26838" lon="3.19886">
        <ele>78.400001525879</ele>
        <time>2015-05-02T08:23:25Z</time>
      </trkpt>
      <trkpt lat="42.26835" lon="3.19891">
        <ele>79</ele>
        <time>2015-05-02T08:23:28Z</time>
      </trkpt>
      <trkpt lat="42.26834" lon="3.19893">
        <ele>79.199996948242</ele>
        <time>2015-05-02T08:23:29Z</time>
      </trkpt>
      <trkpt lat="42.26833" lon="3.19896">
        <ele>79.599998474121</ele>
        <time>2015-05-02T08:23:31Z</time>
      </trkpt>
      <trkpt lat="42.2683" lon="3.19898">
        <ele>80.599998474121</ele>
        <time>2015-05-02T08:23:34Z</time>
      </trkpt>
      <trkpt lat="42.26829" lon="3.199">
        <ele>81</ele>
        <time>2015-05-02T08:23:35Z</time>
      </trkpt>
      <trkpt lat="42.2683" lon="3.19904">
        <ele>81.599998474121</ele>
        <time>2015-05-02T08:23:37Z</time>
      </trkpt>
      <trkpt lat="42.2683" lon="3.19908">
        <ele>82.599998474121</ele>
        <time>2015-05-02T08:23:40Z</time>
      </trkpt>
      <trkpt lat="42.26829" lon="3.1991">
        <ele>83</ele>
        <time>2015-05-02T08:23:41Z</time>
      </trkpt>
      <trkpt lat="42.26827" lon="3.19915">
        <ele>84</ele>
        <time>2015-05-02T08:23:43Z</time>
      </trkpt>
      <trkpt lat="42.26828" lon="3.19917">
        <ele>84.400001525879</ele>
        <time>2015-05-02T08:23:44Z</time>
      </trkpt>
      <trkpt lat="42.26829" lon="3.19921">
        <ele>85</ele>
        <time>2015-05-02T08:23:46Z</time>
      </trkpt>
      <trkpt lat="42.2683" lon="3.19925">
        <ele>85.599998474121</ele>
        <time>2015-05-02T08:23:48Z</time>
      </trkpt>
      <trkpt lat="42.26832" lon="3.19928">
        <ele>86.199996948242</ele>
        <time>2015-05-02T08:23:50Z</time>
      </trkpt>
      <trkpt lat="42.26832" lon="3.1993">
        <ele>86.400001525879</ele>
        <time>2015-05-02T08:23:51Z</time>
      </trkpt>
      <trkpt lat="42.26833" lon="3.19935">
        <ele>87</ele>
        <time>2015-05-02T08:23:54Z</time>
      </trkpt>
      <trkpt lat="42.26833" lon="3.19937">
        <ele>87.199996948242</ele>
        <time>2015-05-02T08:23:55Z</time>
      </trkpt>
      <trkpt lat="42.26834" lon="3.19945">
        <ele>88.400001525879</ele>
        <time>2015-05-02T08:23:59Z</time>
      </trkpt>
      <trkpt lat="42.26835" lon="3.19948">
        <ele>89.199996948242</ele>
        <time>2015-05-02T08:24:01Z</time>
      </trkpt>
      <trkpt lat="42.26835" lon="3.19949">
        <ele>89.599998474121</ele>
        <time>2015-05-02T08:24:02Z</time>
      </trkpt>
      <trkpt lat="42.26834" lon="3.19953">
        <ele>90.199996948242</ele>
        <time>2015-05-02T08:24:04Z</time>
      </trkpt>
      <trkpt lat="42.26834" lon="3.19957">
        <ele>90.800003051758</ele>
        <time>2015-05-02T08:24:06Z</time>
      </trkpt>
      <trkpt lat="42.26833" lon="3.19962">
        <ele>92</ele>
        <time>2015-05-02T08:24:10Z</time>
      </trkpt>
      <trkpt lat="42.26834" lon="3.19964">
        <ele>92.400001525879</ele>
        <time>2015-05-02T08:24:12Z</time>
      </trkpt>
      <trkpt lat="42.26836" lon="3.19967">
        <ele>93.199996948242</ele>
        <time>2015-05-02T08:24:14Z</time>
      </trkpt>
      <trkpt lat="42.26836" lon="3.1997">
        <ele>93.599998474121</ele>
        <time>2015-05-02T08:24:16Z</time>
      </trkpt>
      <trkpt lat="42.26837" lon="3.19973">
        <ele>94</ele>
        <time>2015-05-02T08:24:17Z</time>
      </trkpt>
      <trkpt lat="42.26838" lon="3.19974">
        <ele>94.199996948242</ele>
        <time>2015-05-02T08:24:18Z</time>
      </trkpt>
      <trkpt lat="42.26839" lon="3.19981">
        <ele>95.199996948242</ele>
        <time>2015-05-02T08:24:22Z</time>
      </trkpt>
      <trkpt lat="42.2684" lon="3.19983">
        <ele>95.400001525879</ele>
        <time>2015-05-02T08:24:23Z</time>
      </trkpt>
      <trkpt lat="42.26842" lon="3.19991">
        <ele>96.400001525879</ele>
        <time>2015-05-02T08:24:27Z</time>
      </trkpt>
      <trkpt lat="42.26842" lon="3.19998">
        <ele>96.800003051758</ele>
        <time>2015-05-02T08:24:30Z</time>
      </trkpt>
      <trkpt lat="42.26844" lon="3.20005">
        <ele>97.400001525879</ele>
        <time>2015-05-02T08:24:33Z</time>
      </trkpt>
      <trkpt lat="42.26844" lon="3.20013">
        <ele>98.199996948242</ele>
        <time>2015-05-02T08:24:37Z</time>
      </trkpt>
      <trkpt lat="42.26845" lon="3.20015">
        <ele>98.599998474121</ele>
        <time>2015-05-02T08:24:38Z</time>
      </trkpt>
      <trkpt lat="42.26846" lon="3.20024">
        <ele>99.599998474121</ele>
        <time>2015-05-02T08:24:42Z</time>
      </trkpt>
      <trkpt lat="42.26847" lon="3.20026">
        <ele>99.800003051758</ele>
        <time>2015-05-02T08:24:43Z</time>
      </trkpt>
      <trkpt lat="42.26847" lon="3.20031">
        <ele>101</ele>
        <time>2015-05-02T08:24:46Z</time>
      </trkpt>
      <trkpt lat="42.26846" lon="3.20036">
        <ele>102.19999694824</ele>
        <time>2015-05-02T08:24:49Z</time>
      </trkpt>
      <trkpt lat="42.26844" lon="3.20042">
        <ele>103.40000152588</ele>
        <time>2015-05-02T08:24:52Z</time>
      </trkpt>
      <trkpt lat="42.26843" lon="3.20046">
        <ele>103.80000305176</ele>
        <time>2015-05-02T08:24:54Z</time>
      </trkpt>
      <trkpt lat="42.26842" lon="3.20051">
        <ele>104.80000305176</ele>
        <time>2015-05-02T08:24:57Z</time>
      </trkpt>
      <trkpt lat="42.26842" lon="3.20057">
        <ele>106</ele>
        <time>2015-05-02T08:25:00Z</time>
      </trkpt>
      <trkpt lat="42.26842" lon="3.20059">
        <ele>106.40000152588</ele>
        <time>2015-05-02T08:25:01Z</time>
      </trkpt>
      <trkpt lat="42.26844" lon="3.20068">
        <ele>108.40000152588</ele>
        <time>2015-05-02T08:25:06Z</time>
      </trkpt>
      <trkpt lat="42.26845" lon="3.20076">
        <ele>109.40000152588</ele>
        <time>2015-05-02T08:25:10Z</time>
      </trkpt>
      <trkpt lat="42.26846" lon="3.20086">
        <ele>110.59999847412</ele>
        <time>2015-05-02T08:25:15Z</time>
      </trkpt>
      <trkpt lat="42.26846" lon="3.2009">
        <ele>111</ele>
        <time>2015-05-02T08:25:17Z</time>
      </trkpt>
      <trkpt lat="42.26846" lon="3.20098">
        <ele>111.59999847412</ele>
        <time>2015-05-02T08:25:21Z</time>
      </trkpt>
      <trkpt lat="42.26846" lon="3.20104">
        <ele>112.59999847412</ele>
        <time>2015-05-02T08:25:24Z</time>
      </trkpt>
      <trkpt lat="42.26846" lon="3.20106">
        <ele>113</ele>
        <time>2015-05-02T08:25:25Z</time>
      </trkpt>
      <trkpt lat="42.26846" lon="3.20107">
        <ele>114</ele>
        <time>2015-05-02T08:25:28Z</time>
      </trkpt>
      <trkpt lat="42.26844" lon="3.20112">
        <ele>114</ele>
        <time>2015-05-02T08:25:31Z</time>
      </trkpt>
      <trkpt lat="42.26844" lon="3.20112">
        <ele>114.19999694824</ele>
        <time>2015-05-02T08:25:33Z</time>
      </trkpt>
      <trkpt lat="42.26845" lon="3.20114">
        <ele>114.40000152588</ele>
        <time>2015-05-02T08:25:37Z</time>
      </trkpt>
      <trkpt lat="42.26842" lon="3.20117">
        <ele>114.40000152588</ele>
        <time>2015-05-02T08:25:39Z</time>
      </trkpt>
      <trkpt lat="42.26843" lon="3.20115">
        <ele>115</ele>
        <time>2015-05-02T08:25:43Z</time>
      </trkpt>
      <trkpt lat="42.26842" lon="3.20119">
        <ele>115.19999694824</ele>
        <time>2015-05-02T08:25:45Z</time>
      </trkpt>
      <trkpt lat="42.26841" lon="3.20126">
        <ele>115.19999694824</ele>
        <time>2015-05-02T08:25:48Z</time>
      </trkpt>
      <trkpt lat="42.26838" lon="3.20135">
        <ele>115.80000305176</ele>
        <time>2015-05-02T08:25:52Z</time>
      </trkpt>
      <trkpt lat="42.26837" lon="3.20138">
        <ele>116.19999694824</ele>
        <time>2015-05-02T08:25:54Z</time>
      </trkpt>
      <trkpt lat="42.2683" lon="3.20153">
        <ele>117</ele>
        <time>2015-05-02T08:26:01Z</time>
      </trkpt>
      <trkpt lat="42.26822" lon="3.20166">
        <ele>117.19999694824</ele>
        <time>2015-05-02T08:26:07Z</time>
      </trkpt>
      <trkpt lat="42.26819" lon="3.20169">
        <ele>117.19999694824</ele>
        <time>2015-05-02T08:26:09Z</time>
      </trkpt>
      <trkpt lat="42.26813" lon="3.20178">
        <ele>117.80000305176</ele>
        <time>2015-05-02T08:26:13Z</time>
      </trkpt>
      <trkpt lat="42.26805" lon="3.20189">
        <ele>118.40000152588</ele>
        <time>2015-05-02T08:26:18Z</time>
      </trkpt>
      <trkpt lat="42.26804" lon="3.20191">
        <ele>118.40000152588</ele>
        <time>2015-05-02T08:26:19Z</time>
      </trkpt>
      <trkpt lat="42.26797" lon="3.20207">
        <ele>118.80000305176</ele>
        <time>2015-05-02T08:26:25Z</time>
      </trkpt>
      <trkpt lat="42.26794" lon="3.20217">
        <ele>119</ele>
        <time>2015-05-02T08:26:28Z</time>
      </trkpt>
      <trkpt lat="42.26794" lon="3.20218">
        <ele>119</ele>
        <time>2015-05-02T08:26:29Z</time>
      </trkpt>
      <trkpt lat="42.26794" lon="3.20218">
        <ele>119</ele>
        <time>2015-05-02T08:26:29Z</time>
      </trkpt>
      <trkpt lat="42.2679" lon="3.20227">
        <ele>119.59999847412</ele>
        <time>2015-05-02T08:26:32Z</time>
      </trkpt>
      <trkpt lat="42.26786" lon="3.20236">
        <ele>120.40000152588</ele>
        <time>2015-05-02T08:26:36Z</time>
      </trkpt>
      <trkpt lat="42.26785" lon="3.20238">
        <ele>120.59999847412</ele>
        <time>2015-05-02T08:26:37Z</time>
      </trkpt>
      <trkpt lat="42.2678" lon="3.2025">
        <ele>121.40000152588</ele>
        <time>2015-05-02T08:26:42Z</time>
      </trkpt>
      <trkpt lat="42.26779" lon="3.20256">
        <ele>121.80000305176</ele>
        <time>2015-05-02T08:26:44Z</time>
      </trkpt>
      <trkpt lat="42.26776" lon="3.2027">
        <ele>121.40000152588</ele>
        <time>2015-05-02T08:26:49Z</time>
      </trkpt>
      <trkpt lat="42.26771" lon="3.20287">
        <ele>121</ele>
        <time>2015-05-02T08:26:55Z</time>
      </trkpt>
      <trkpt lat="42.26769" lon="3.20289">
        <ele>120.80000305176</ele>
        <time>2015-05-02T08:26:56Z</time>
      </trkpt>
      <trkpt lat="42.26768" lon="3.20294">
        <ele>120.80000305176</ele>
        <time>2015-05-02T08:26:58Z</time>
      </trkpt>
      <trkpt lat="42.26767" lon="3.20302">
        <ele>120.40000152588</ele>
        <time>2015-05-02T08:27:01Z</time>
      </trkpt>
      <trkpt lat="42.26762" lon="3.20317">
        <ele>122</ele>
        <time>2015-05-02T08:27:08Z</time>
      </trkpt>
      <trkpt lat="42.2676" lon="3.20326">
        <ele>123</ele>
        <time>2015-05-02T08:27:12Z</time>
      </trkpt>
      <trkpt lat="42.26759" lon="3.20328">
        <ele>123.19999694824</ele>
        <time>2015-05-02T08:27:13Z</time>
      </trkpt>
      <trkpt lat="42.26757" lon="3.20336">
        <ele>124</ele>
        <time>2015-05-02T08:27:17Z</time>
      </trkpt>
      <trkpt lat="42.26756" lon="3.20338">
        <ele>124.19999694824</ele>
        <time>2015-05-02T08:27:18Z</time>
      </trkpt>
      <trkpt lat="42.26754" lon="3.20342">
        <ele>125</ele>
        <time>2015-05-02T08:27:20Z</time>
      </trkpt>
      <trkpt lat="42.26753" lon="3.20344">
        <ele>125.40000152588</ele>
        <time>2015-05-02T08:27:21Z</time>
      </trkpt>
      <trkpt lat="42.26752" lon="3.20348">
        <ele>126.40000152588</ele>
        <time>2015-05-02T08:27:23Z</time>
      </trkpt>
      <trkpt lat="42.26751" lon="3.2035">
        <ele>126.59999847412</ele>
        <time>2015-05-02T08:27:24Z</time>
      </trkpt>
      <trkpt lat="42.26749" lon="3.20356">
        <ele>127.80000305176</ele>
        <time>2015-05-02T08:27:27Z</time>
      </trkpt>
      <trkpt lat="42.26747" lon="3.20361">
        <ele>129</ele>
        <time>2015-05-02T08:27:30Z</time>
      </trkpt>
      <trkpt lat="42.26745" lon="3.20366">
        <ele>130.19999694824</ele>
        <time>2015-05-02T08:27:33Z</time>
      </trkpt>
      <trkpt lat="42.26744" lon="3.20369">
        <ele>130.80000305176</ele>
        <time>2015-05-02T08:27:35Z</time>
      </trkpt>
      <trkpt lat="42.26743" lon="3.2037">
        <ele>131.19999694824</ele>
        <time>2015-05-02T08:27:36Z</time>
      </trkpt>
      <trkpt lat="42.26741" lon="3.20376">
        <ele>132.39999389648</ele>
        <time>2015-05-02T08:27:40Z</time>
      </trkpt>
      <trkpt lat="42.2674" lon="3.20378">
        <ele>133.19999694824</ele>
        <time>2015-05-02T08:27:42Z</time>
      </trkpt>
      <trkpt lat="42.2674" lon="3.2038">
        <ele>133.39999389648</ele>
        <time>2015-05-02T08:27:43Z</time>
      </trkpt>
      <trkpt lat="42.26738" lon="3.20382">
        <ele>133.80000305176</ele>
        <time>2015-05-02T08:27:44Z</time>
      </trkpt>
      <trkpt lat="42.26738" lon="3.20385">
        <ele>135</ele>
        <time>2015-05-02T08:27:46Z</time>
      </trkpt>
      <trkpt lat="42.26738" lon="3.20386">
        <ele>135.39999389648</ele>
        <time>2015-05-02T08:27:47Z</time>
      </trkpt>
      <trkpt lat="42.26736" lon="3.20389">
        <ele>136.19999694824</ele>
        <time>2015-05-02T08:27:49Z</time>
      </trkpt>
      <trkpt lat="42.26736" lon="3.20392">
        <ele>136.80000305176</ele>
        <time>2015-05-02T08:27:51Z</time>
      </trkpt>
      <trkpt lat="42.26735" lon="3.20394">
        <ele>137.39999389648</ele>
        <time>2015-05-02T08:27:53Z</time>
      </trkpt>
      <trkpt lat="42.26734" lon="3.20398">
        <ele>139</ele>
        <time>2015-05-02T08:27:56Z</time>
      </trkpt>
      <trkpt lat="42.26734" lon="3.204">
        <ele>139.19999694824</ele>
        <time>2015-05-02T08:27:57Z</time>
      </trkpt>
      <trkpt lat="42.26733" lon="3.20407">
        <ele>139.80000305176</ele>
        <time>2015-05-02T08:28:00Z</time>
      </trkpt>
      <trkpt lat="42.26732" lon="3.20414">
        <ele>140</ele>
        <time>2015-05-02T08:28:03Z</time>
      </trkpt>
      <trkpt lat="42.26728" lon="3.20427">
        <ele>140</ele>
        <time>2015-05-02T08:28:09Z</time>
      </trkpt>
      <trkpt lat="42.26725" lon="3.20435">
        <ele>140.80000305176</ele>
        <time>2015-05-02T08:28:14Z</time>
      </trkpt>
      <trkpt lat="42.26725" lon="3.20437">
        <ele>141</ele>
        <time>2015-05-02T08:28:15Z</time>
      </trkpt>
      <trkpt lat="42.26721" lon="3.2044">
        <ele>141.80000305176</ele>
        <time>2015-05-02T08:28:18Z</time>
      </trkpt>
      <trkpt lat="42.2672" lon="3.20439">
        <ele>142.39999389648</ele>
        <time>2015-05-02T08:28:19Z</time>
      </trkpt>
      <trkpt lat="42.26718" lon="3.20435">
        <ele>143.60000610352</ele>
        <time>2015-05-02T08:28:22Z</time>
      </trkpt>
      <trkpt lat="42.26714" lon="3.20433">
        <ele>144.39999389648</ele>
        <time>2015-05-02T08:28:25Z</time>
      </trkpt>
      <trkpt lat="42.26713" lon="3.20432">
        <ele>144.60000610352</ele>
        <time>2015-05-02T08:28:26Z</time>
      </trkpt>
      <trkpt lat="42.26712" lon="3.20431">
        <ele>145</ele>
        <time>2015-05-02T08:28:27Z</time>
      </trkpt>
      <trkpt lat="42.26711" lon="3.2043">
        <ele>145.60000610352</ele>
        <time>2015-05-02T08:28:29Z</time>
      </trkpt>
      <trkpt lat="42.26709" lon="3.20427">
        <ele>146.39999389648</ele>
        <time>2015-05-02T08:28:31Z</time>
      </trkpt>
      <trkpt lat="42.26709" lon="3.20426">
        <ele>146.60000610352</ele>
        <time>2015-05-02T08:28:32Z</time>
      </trkpt>
      <trkpt lat="42.26709" lon="3.20425">
        <ele>147</ele>
        <time>2015-05-02T08:28:33Z</time>
      </trkpt>
      <trkpt lat="42.26708" lon="3.2042">
        <ele>147.80000305176</ele>
        <time>2015-05-02T08:28:36Z</time>
      </trkpt>
      <trkpt lat="42.26707" lon="3.20412">
        <ele>148.80000305176</ele>
        <time>2015-05-02T08:28:40Z</time>
      </trkpt>
      <trkpt lat="42.26707" lon="3.20411">
        <ele>149.19999694824</ele>
        <time>2015-05-02T08:28:41Z</time>
      </trkpt>
      <trkpt lat="42.26707" lon="3.20408">
        <ele>149.39999389648</ele>
        <time>2015-05-02T08:28:42Z</time>
      </trkpt>
      <trkpt lat="42.26707" lon="3.20403">
        <ele>149.60000610352</ele>
        <time>2015-05-02T08:28:45Z</time>
      </trkpt>
      <trkpt lat="42.26706" lon="3.20401">
        <ele>149.60000610352</ele>
        <time>2015-05-02T08:28:47Z</time>
      </trkpt>
      <trkpt lat="42.26705" lon="3.204">
        <ele>149.80000305176</ele>
        <time>2015-05-02T08:28:48Z</time>
      </trkpt>
      <trkpt lat="42.26702" lon="3.20396">
        <ele>150.19999694824</ele>
        <time>2015-05-02T08:28:50Z</time>
      </trkpt>
      <trkpt lat="42.26701" lon="3.20394">
        <ele>150.80000305176</ele>
        <time>2015-05-02T08:28:52Z</time>
      </trkpt>
      <trkpt lat="42.26701" lon="3.20392">
        <ele>151.19999694824</ele>
        <time>2015-05-02T08:28:53Z</time>
      </trkpt>
      <trkpt lat="42.267" lon="3.20389">
        <ele>151.80000305176</ele>
        <time>2015-05-02T08:28:55Z</time>
      </trkpt>
      <trkpt lat="42.26699" lon="3.20388">
        <ele>152.19999694824</ele>
        <time>2015-05-02T08:28:56Z</time>
      </trkpt>
      <trkpt lat="42.26696" lon="3.20382">
        <ele>153.39999389648</ele>
        <time>2015-05-02T08:29:00Z</time>
      </trkpt>
      <trkpt lat="42.26695" lon="3.20378">
        <ele>153.80000305176</ele>
        <time>2015-05-02T08:29:02Z</time>
      </trkpt>
      <trkpt lat="42.26693" lon="3.20374">
        <ele>154.39999389648</ele>
        <time>2015-05-02T08:29:05Z</time>
      </trkpt>
      <trkpt lat="42.26692" lon="3.2037">
        <ele>154.80000305176</ele>
        <time>2015-05-02T08:29:07Z</time>
      </trkpt>
      <trkpt lat="42.26692" lon="3.20369">
        <ele>155</ele>
        <time>2015-05-02T08:29:08Z</time>
      </trkpt>
      <trkpt lat="42.26693" lon="3.20365">
        <ele>155.39999389648</ele>
        <time>2015-05-02T08:29:11Z</time>
      </trkpt>
      <trkpt lat="42.26692" lon="3.20362">
        <ele>155.60000610352</ele>
        <time>2015-05-02T08:29:12Z</time>
      </trkpt>
      <trkpt lat="42.26692" lon="3.20361">
        <ele>156</ele>
        <time>2015-05-02T08:29:13Z</time>
      </trkpt>
      <trkpt lat="42.26691" lon="3.20355">
        <ele>156.60000610352</ele>
        <time>2015-05-02T08:29:15Z</time>
      </trkpt>
      <trkpt lat="42.2669" lon="3.20351">
        <ele>157.39999389648</ele>
        <time>2015-05-02T08:29:17Z</time>
      </trkpt>
      <trkpt lat="42.26689" lon="3.20348">
        <ele>157.80000305176</ele>
        <time>2015-05-02T08:29:18Z</time>
      </trkpt>
      <trkpt lat="42.2669" lon="3.20341">
        <ele>158.39999389648</ele>
        <time>2015-05-02T08:29:22Z</time>
      </trkpt>
      <trkpt lat="42.2669" lon="3.2033">
        <ele>158.60000610352</ele>
        <time>2015-05-02T08:29:27Z</time>
      </trkpt>
      <trkpt lat="42.26688" lon="3.20326">
        <ele>158.80000305176</ele>
        <time>2015-05-02T08:29:29Z</time>
      </trkpt>
      <trkpt lat="42.26687" lon="3.2032">
        <ele>159.39999389648</ele>
        <time>2015-05-02T08:29:32Z</time>
      </trkpt>
      <trkpt lat="42.26686" lon="3.20313">
        <ele>160</ele>
        <time>2015-05-02T08:29:35Z</time>
      </trkpt>
      <trkpt lat="42.26686" lon="3.20311">
        <ele>160.39999389648</ele>
        <time>2015-05-02T08:29:36Z</time>
      </trkpt>
      <trkpt lat="42.26685" lon="3.20309">
        <ele>160.80000305176</ele>
        <time>2015-05-02T08:29:37Z</time>
      </trkpt>
      <trkpt lat="42.26685" lon="3.20307">
        <ele>161</ele>
        <time>2015-05-02T08:29:38Z</time>
      </trkpt>
      <trkpt lat="42.26684" lon="3.20305">
        <ele>161.19999694824</ele>
        <time>2015-05-02T08:29:39Z</time>
      </trkpt>
      <trkpt lat="42.26683" lon="3.20301">
        <ele>161.80000305176</ele>
        <time>2015-05-02T08:29:41Z</time>
      </trkpt>
      <trkpt lat="42.26683" lon="3.20298">
        <ele>162.39999389648</ele>
        <time>2015-05-02T08:29:43Z</time>
      </trkpt>
      <trkpt lat="42.26683" lon="3.20293">
        <ele>163.39999389648</ele>
        <time>2015-05-02T08:29:46Z</time>
      </trkpt>
      <trkpt lat="42.26681" lon="3.2029">
        <ele>164.19999694824</ele>
        <time>2015-05-02T08:29:48Z</time>
      </trkpt>
      <trkpt lat="42.2668" lon="3.20288">
        <ele>164.60000610352</ele>
        <time>2015-05-02T08:29:49Z</time>
      </trkpt>
      <trkpt lat="42.26678" lon="3.2028">
        <ele>165.39999389648</ele>
        <time>2015-05-02T08:29:53Z</time>
      </trkpt>
      <trkpt lat="42.26678" lon="3.20279">
        <ele>165.60000610352</ele>
        <time>2015-05-02T08:29:54Z</time>
      </trkpt>
      <trkpt lat="42.26676" lon="3.20273">
        <ele>166.80000305176</ele>
        <time>2015-05-02T08:29:58Z</time>
      </trkpt>
      <trkpt lat="42.26675" lon="3.20273">
        <ele>167.19999694824</ele>
        <time>2015-05-02T08:29:59Z</time>
      </trkpt>
      <trkpt lat="42.26674" lon="3.20275">
        <ele>168</ele>
        <time>2015-05-02T08:30:01Z</time>
      </trkpt>
      <trkpt lat="42.26672" lon="3.20276">
        <ele>168.80000305176</ele>
        <time>2015-05-02T08:30:03Z</time>
      </trkpt>
      <trkpt lat="42.26671" lon="3.20275">
        <ele>169</ele>
        <time>2015-05-02T08:30:04Z</time>
      </trkpt>
      <trkpt lat="42.2667" lon="3.20276">
        <ele>169.39999389648</ele>
        <time>2015-05-02T08:30:05Z</time>
      </trkpt>
      <trkpt lat="42.26669" lon="3.2028">
        <ele>170.60000610352</ele>
        <time>2015-05-02T08:30:08Z</time>
      </trkpt>
      <trkpt lat="42.26669" lon="3.20282">
        <ele>171.60000610352</ele>
        <time>2015-05-02T08:30:10Z</time>
      </trkpt>
      <trkpt lat="42.26668" lon="3.20282">
        <ele>172.19999694824</ele>
        <time>2015-05-02T08:30:11Z</time>
      </trkpt>
      <trkpt lat="42.26665" lon="3.20282">
        <ele>172.60000610352</ele>
        <time>2015-05-02T08:30:13Z</time>
      </trkpt>
      <trkpt lat="42.26663" lon="3.2028">
        <ele>173.19999694824</ele>
        <time>2015-05-02T08:30:16Z</time>
      </trkpt>
      <trkpt lat="42.26662" lon="3.20275">
        <ele>174</ele>
        <time>2015-05-02T08:30:19Z</time>
      </trkpt>
      <trkpt lat="42.26661" lon="3.20272">
        <ele>175</ele>
        <time>2015-05-02T08:30:21Z</time>
      </trkpt>
      <trkpt lat="42.26661" lon="3.2027">
        <ele>175.19999694824</ele>
        <time>2015-05-02T08:30:22Z</time>
      </trkpt>
      <trkpt lat="42.26659" lon="3.20263">
        <ele>176.39999389648</ele>
        <time>2015-05-02T08:30:26Z</time>
      </trkpt>
      <trkpt lat="42.26659" lon="3.20262">
        <ele>176.60000610352</ele>
        <time>2015-05-02T08:30:27Z</time>
      </trkpt>
      <trkpt lat="42.26656" lon="3.20256">
        <ele>177.39999389648</ele>
        <time>2015-05-02T08:30:31Z</time>
      </trkpt>
      <trkpt lat="42.26654" lon="3.20254">
        <ele>178</ele>
        <time>2015-05-02T08:30:33Z</time>
      </trkpt>
      <trkpt lat="42.26653" lon="3.20254">
        <ele>178.39999389648</ele>
        <time>2015-05-02T08:30:34Z</time>
      </trkpt>
      <trkpt lat="42.26653" lon="3.20253">
        <ele>178.60000610352</ele>
        <time>2015-05-02T08:30:35Z</time>
      </trkpt>
      <trkpt lat="42.26649" lon="3.2025">
        <ele>179.19999694824</ele>
        <time>2015-05-02T08:30:38Z</time>
      </trkpt>
      <trkpt lat="42.26648" lon="3.20249">
        <ele>179.60000610352</ele>
        <time>2015-05-02T08:30:39Z</time>
      </trkpt>
      <trkpt lat="42.26645" lon="3.20247">
        <ele>180.80000305176</ele>
        <time>2015-05-02T08:30:42Z</time>
      </trkpt>
      <trkpt lat="42.26645" lon="3.20245">
        <ele>181.39999389648</ele>
        <time>2015-05-02T08:30:43Z</time>
      </trkpt>
      <trkpt lat="42.26643" lon="3.20244">
        <ele>182</ele>
        <time>2015-05-02T08:30:45Z</time>
      </trkpt>
      <trkpt lat="42.26642" lon="3.20243">
        <ele>182.39999389648</ele>
        <time>2015-05-02T08:30:46Z</time>
      </trkpt>
      <trkpt lat="42.2664" lon="3.20241">
        <ele>183.19999694824</ele>
        <time>2015-05-02T08:30:48Z</time>
      </trkpt>
      <trkpt lat="42.26636" lon="3.2024">
        <ele>184.60000610352</ele>
        <time>2015-05-02T08:30:52Z</time>
      </trkpt>
      <trkpt lat="42.26634" lon="3.2024">
        <ele>185.19999694824</ele>
        <time>2015-05-02T08:30:55Z</time>
      </trkpt>
      <trkpt lat="42.26633" lon="3.2024">
        <ele>185.60000610352</ele>
        <time>2015-05-02T08:30:57Z</time>
      </trkpt>
      <trkpt lat="42.26629" lon="3.20241">
        <ele>186.19999694824</ele>
        <time>2015-05-02T08:31:01Z</time>
      </trkpt>
      <trkpt lat="42.26626" lon="3.20242">
        <ele>186.80000305176</ele>
        <time>2015-05-02T08:31:04Z</time>
      </trkpt>
      <trkpt lat="42.26625" lon="3.20242">
        <ele>187.60000610352</ele>
        <time>2015-05-02T08:31:06Z</time>
      </trkpt>
      <trkpt lat="42.26624" lon="3.20241">
        <ele>188</ele>
        <time>2015-05-02T08:31:07Z</time>
      </trkpt>
      <trkpt lat="42.2662" lon="3.20241">
        <ele>189</ele>
        <time>2015-05-02T08:31:11Z</time>
      </trkpt>
      <trkpt lat="42.26618" lon="3.20241">
        <ele>189.60000610352</ele>
        <time>2015-05-02T08:31:14Z</time>
      </trkpt>
      <trkpt lat="42.26616" lon="3.2024">
        <ele>190</ele>
        <time>2015-05-02T08:31:17Z</time>
      </trkpt>
      <trkpt lat="42.26614" lon="3.2024">
        <ele>190.39999389648</ele>
        <time>2015-05-02T08:31:19Z</time>
      </trkpt>
      <trkpt lat="42.2661" lon="3.20241">
        <ele>191.19999694824</ele>
        <time>2015-05-02T08:31:23Z</time>
      </trkpt>
      <trkpt lat="42.26607" lon="3.20241">
        <ele>192.19999694824</ele>
        <time>2015-05-02T08:31:27Z</time>
      </trkpt>
      <trkpt lat="42.26606" lon="3.2024">
        <ele>192.39999389648</ele>
        <time>2015-05-02T08:31:28Z</time>
      </trkpt>
      <trkpt lat="42.26605" lon="3.2024">
        <ele>192.60000610352</ele>
        <time>2015-05-02T08:31:29Z</time>
      </trkpt>
      <trkpt lat="42.26604" lon="3.20239">
        <ele>193.19999694824</ele>
        <time>2015-05-02T08:31:31Z</time>
      </trkpt>
      <trkpt lat="42.26603" lon="3.20239">
        <ele>193.39999389648</ele>
        <time>2015-05-02T08:31:32Z</time>
      </trkpt>
      <trkpt lat="42.266" lon="3.20237">
        <ele>194</ele>
        <time>2015-05-02T08:31:35Z</time>
      </trkpt>
      <trkpt lat="42.26599" lon="3.20236">
        <ele>194.39999389648</ele>
        <time>2015-05-02T08:31:37Z</time>
      </trkpt>
      <trkpt lat="42.26598" lon="3.20235">
        <ele>194.60000610352</ele>
        <time>2015-05-02T08:31:38Z</time>
      </trkpt>
      <trkpt lat="42.26595" lon="3.20234">
        <ele>195.39999389648</ele>
        <time>2015-05-02T08:31:42Z</time>
      </trkpt>
      <trkpt lat="42.26593" lon="3.20234">
        <ele>195.80000305176</ele>
        <time>2015-05-02T08:31:44Z</time>
      </trkpt>
      <trkpt lat="42.2659" lon="3.20233">
        <ele>196.60000610352</ele>
        <time>2015-05-02T08:31:48Z</time>
      </trkpt>
      <trkpt lat="42.26588" lon="3.20233">
        <ele>197</ele>
        <time>2015-05-02T08:31:50Z</time>
      </trkpt>
      <trkpt lat="42.26585" lon="3.20232">
        <ele>197.80000305176</ele>
        <time>2015-05-02T08:31:55Z</time>
      </trkpt>
      <trkpt lat="42.26582" lon="3.20232">
        <ele>198.80000305176</ele>
        <time>2015-05-02T08:31:58Z</time>
      </trkpt>
      <trkpt lat="42.2658" lon="3.20233">
        <ele>200.19999694824</ele>
        <time>2015-05-02T08:32:03Z</time>
      </trkpt>
      <trkpt lat="42.26578" lon="3.20234">
        <ele>200.80000305176</ele>
        <time>2015-05-02T08:32:06Z</time>
      </trkpt>
      <trkpt lat="42.26577" lon="3.20234">
        <ele>201.39999389648</ele>
        <time>2015-05-02T08:32:08Z</time>
      </trkpt>
      <trkpt lat="42.26572" lon="3.20233">
        <ele>202.60000610352</ele>
        <time>2015-05-02T08:32:12Z</time>
      </trkpt>
      <trkpt lat="42.26571" lon="3.20231">
        <ele>203.60000610352</ele>
        <time>2015-05-02T08:32:15Z</time>
      </trkpt>
      <trkpt lat="42.26567" lon="3.20229">
        <ele>204.80000305176</ele>
        <time>2015-05-02T08:32:18Z</time>
      </trkpt>
      <trkpt lat="42.26563" lon="3.20228">
        <ele>205.80000305176</ele>
        <time>2015-05-02T08:32:21Z</time>
      </trkpt>
      <trkpt lat="42.26561" lon="3.20228">
        <ele>206.60000610352</ele>
        <time>2015-05-02T08:32:23Z</time>
      </trkpt>
      <trkpt lat="42.26559" lon="3.20228">
        <ele>207</ele>
        <time>2015-05-02T08:32:25Z</time>
      </trkpt>
      <trkpt lat="42.26554" lon="3.20228">
        <ele>208.19999694824</ele>
        <time>2015-05-02T08:32:29Z</time>
      </trkpt>
      <trkpt lat="42.26552" lon="3.20228">
        <ele>208.60000610352</ele>
        <time>2015-05-02T08:32:30Z</time>
      </trkpt>
      <trkpt lat="42.2655" lon="3.20227">
        <ele>209.39999389648</ele>
        <time>2015-05-02T08:32:32Z</time>
      </trkpt>
      <trkpt lat="42.26546" lon="3.20228">
        <ele>210.60000610352</ele>
        <time>2015-05-02T08:32:35Z</time>
      </trkpt>
      <trkpt lat="42.26546" lon="3.20227">
        <ele>211.19999694824</ele>
        <time>2015-05-02T08:32:36Z</time>
      </trkpt>
      <trkpt lat="42.26544" lon="3.20226">
        <ele>211.80000305176</ele>
        <time>2015-05-02T08:32:38Z</time>
      </trkpt>
      <trkpt lat="42.26543" lon="3.20226">
        <ele>212.19999694824</ele>
        <time>2015-05-02T08:32:40Z</time>
      </trkpt>
      <trkpt lat="42.26541" lon="3.20227">
        <ele>212.80000305176</ele>
        <time>2015-05-02T08:32:42Z</time>
      </trkpt>
      <trkpt lat="42.2654" lon="3.20226">
        <ele>213</ele>
        <time>2015-05-02T08:32:43Z</time>
      </trkpt>
      <trkpt lat="42.26538" lon="3.20226">
        <ele>213.60000610352</ele>
        <time>2015-05-02T08:32:46Z</time>
      </trkpt>
      <trkpt lat="42.26535" lon="3.20224">
        <ele>214</ele>
        <time>2015-05-02T08:32:49Z</time>
      </trkpt>
      <trkpt lat="42.26533" lon="3.20224">
        <ele>214.60000610352</ele>
        <time>2015-05-02T08:32:51Z</time>
      </trkpt>
      <trkpt lat="42.26531" lon="3.20224">
        <ele>215.19999694824</ele>
        <time>2015-05-02T08:32:53Z</time>
      </trkpt>
      <trkpt lat="42.26528" lon="3.20223">
        <ele>216.60000610352</ele>
        <time>2015-05-02T08:32:57Z</time>
      </trkpt>
      <trkpt lat="42.26527" lon="3.20222">
        <ele>217</ele>
        <time>2015-05-02T08:32:59Z</time>
      </trkpt>
      <trkpt lat="42.26524" lon="3.20221">
        <ele>217.60000610352</ele>
        <time>2015-05-02T08:33:02Z</time>
      </trkpt>
      <trkpt lat="42.2652" lon="3.2022">
        <ele>218.39999389648</ele>
        <time>2015-05-02T08:33:08Z</time>
      </trkpt>
      <trkpt lat="42.26518" lon="3.2022">
        <ele>218.80000305176</ele>
        <time>2015-05-02T08:33:10Z</time>
      </trkpt>
      <trkpt lat="42.26516" lon="3.20221">
        <ele>219.19999694824</ele>
        <time>2015-05-02T08:33:12Z</time>
      </trkpt>
      <trkpt lat="42.26516" lon="3.20221">
        <ele>219.39999389648</ele>
        <time>2015-05-02T08:33:13Z</time>
      </trkpt>
      <trkpt lat="42.26514" lon="3.20221">
        <ele>220</ele>
        <time>2015-05-02T08:33:15Z</time>
      </trkpt>
      <trkpt lat="42.26512" lon="3.20221">
        <ele>220.80000305176</ele>
        <time>2015-05-02T08:33:17Z</time>
      </trkpt>
      <trkpt lat="42.26511" lon="3.20221">
        <ele>221.19999694824</ele>
        <time>2015-05-02T08:33:18Z</time>
      </trkpt>
      <trkpt lat="42.26509" lon="3.20221">
        <ele>222.19999694824</ele>
        <time>2015-05-02T08:33:21Z</time>
      </trkpt>
      <trkpt lat="42.26508" lon="3.20221">
        <ele>222.60000610352</ele>
        <time>2015-05-02T08:33:22Z</time>
      </trkpt>
      <trkpt lat="42.26506" lon="3.20221">
        <ele>223</ele>
        <time>2015-05-02T08:33:24Z</time>
      </trkpt>
      <trkpt lat="42.26504" lon="3.2022">
        <ele>223.60000610352</ele>
        <time>2015-05-02T08:33:26Z</time>
      </trkpt>
      <trkpt lat="42.26501" lon="3.20221">
        <ele>224.60000610352</ele>
        <time>2015-05-02T08:33:30Z</time>
      </trkpt>
      <trkpt lat="42.265" lon="3.20221">
        <ele>224.80000305176</ele>
        <time>2015-05-02T08:33:31Z</time>
      </trkpt>
      <trkpt lat="42.26496" lon="3.20221">
        <ele>225.80000305176</ele>
        <time>2015-05-02T08:33:35Z</time>
      </trkpt>
      <trkpt lat="42.26495" lon="3.2022">
        <ele>226.19999694824</ele>
        <time>2015-05-02T08:33:36Z</time>
      </trkpt>
      <trkpt lat="42.26492" lon="3.2022">
        <ele>227</ele>
        <time>2015-05-02T08:33:39Z</time>
      </trkpt>
      <trkpt lat="42.26488" lon="3.20219">
        <ele>228</ele>
        <time>2015-05-02T08:33:43Z</time>
      </trkpt>
      <trkpt lat="42.26488" lon="3.20219">
        <ele>228.19999694824</ele>
        <time>2015-05-02T08:33:44Z</time>
      </trkpt>
      <trkpt lat="42.26484" lon="3.20218">
        <ele>229.19999694824</ele>
        <time>2015-05-02T08:33:48Z</time>
      </trkpt>
      <trkpt lat="42.26482" lon="3.20218">
        <ele>230</ele>
        <time>2015-05-02T08:33:51Z</time>
      </trkpt>
      <trkpt lat="42.26481" lon="3.20218">
        <ele>230.19999694824</ele>
        <time>2015-05-02T08:33:52Z</time>
      </trkpt>
      <trkpt lat="42.26477" lon="3.20215">
        <ele>231.19999694824</ele>
        <time>2015-05-02T08:33:57Z</time>
      </trkpt>
      <trkpt lat="42.26476" lon="3.20215">
        <ele>231.39999389648</ele>
        <time>2015-05-02T08:33:58Z</time>
      </trkpt>
      <trkpt lat="42.26474" lon="3.20214">
        <ele>232.19999694824</ele>
        <time>2015-05-02T08:34:01Z</time>
      </trkpt>
      <trkpt lat="42.26473" lon="3.20214">
        <ele>232.39999389648</ele>
        <time>2015-05-02T08:34:02Z</time>
      </trkpt>
      <trkpt lat="42.26471" lon="3.20214">
        <ele>233.19999694824</ele>
        <time>2015-05-02T08:34:04Z</time>
      </trkpt>
      <trkpt lat="42.2647" lon="3.20215">
        <ele>233.60000610352</ele>
        <time>2015-05-02T08:34:05Z</time>
      </trkpt>
      <trkpt lat="42.26468" lon="3.20216">
        <ele>234</ele>
        <time>2015-05-02T08:34:07Z</time>
      </trkpt>
      <trkpt lat="42.26467" lon="3.20218">
        <ele>234.60000610352</ele>
        <time>2015-05-02T08:34:09Z</time>
      </trkpt>
      <trkpt lat="42.26464" lon="3.20218">
        <ele>235.19999694824</ele>
        <time>2015-05-02T08:34:11Z</time>
      </trkpt>
      <trkpt lat="42.26463" lon="3.20219">
        <ele>235.80000305176</ele>
        <time>2015-05-02T08:34:13Z</time>
      </trkpt>
      <trkpt lat="42.26462" lon="3.20221">
        <ele>236.19999694824</ele>
        <time>2015-05-02T08:34:15Z</time>
      </trkpt>
      <trkpt lat="42.26461" lon="3.20221">
        <ele>236.39999389648</ele>
        <time>2015-05-02T08:34:16Z</time>
      </trkpt>
      <trkpt lat="42.26459" lon="3.2022">
        <ele>236.80000305176</ele>
        <time>2015-05-02T08:34:18Z</time>
      </trkpt>
      <trkpt lat="42.26456" lon="3.20218">
        <ele>237.80000305176</ele>
        <time>2015-05-02T08:34:22Z</time>
      </trkpt>
      <trkpt lat="42.26455" lon="3.20218">
        <ele>237.80000305176</ele>
        <time>2015-05-02T08:34:23Z</time>
      </trkpt>
      <trkpt lat="42.26454" lon="3.20219">
        <ele>238.19999694824</ele>
        <time>2015-05-02T08:34:24Z</time>
      </trkpt>
      <trkpt lat="42.26451" lon="3.2022">
        <ele>239</ele>
        <time>2015-05-02T08:34:27Z</time>
      </trkpt>
      <trkpt lat="42.2645" lon="3.20222">
        <ele>239.60000610352</ele>
        <time>2015-05-02T08:34:29Z</time>
      </trkpt>
      <trkpt lat="42.26449" lon="3.20222">
        <ele>240.19999694824</ele>
        <time>2015-05-02T08:34:31Z</time>
      </trkpt>
      <trkpt lat="42.26446" lon="3.20223">
        <ele>241.39999389648</ele>
        <time>2015-05-02T08:34:34Z</time>
      </trkpt>
      <trkpt lat="42.26443" lon="3.20223">
        <ele>242.39999389648</ele>
        <time>2015-05-02T08:34:38Z</time>
      </trkpt>
      <trkpt lat="42.2644" lon="3.20224">
        <ele>243.39999389648</ele>
        <time>2015-05-02T08:34:41Z</time>
      </trkpt>
      <trkpt lat="42.26439" lon="3.20224">
        <ele>243.60000610352</ele>
        <time>2015-05-02T08:34:42Z</time>
      </trkpt>
      <trkpt lat="42.26437" lon="3.20224">
        <ele>244.19999694824</ele>
        <time>2015-05-02T08:34:45Z</time>
      </trkpt>
      <trkpt lat="42.26436" lon="3.20224">
        <ele>244.39999389648</ele>
        <time>2015-05-02T08:34:46Z</time>
      </trkpt>
      <trkpt lat="42.26435" lon="3.20224">
        <ele>244.80000305176</ele>
        <time>2015-05-02T08:34:47Z</time>
      </trkpt>
      <trkpt lat="42.26434" lon="3.20224">
        <ele>245.39999389648</ele>
        <time>2015-05-02T08:34:49Z</time>
      </trkpt>
      <trkpt lat="42.26433" lon="3.20224">
        <ele>245.80000305176</ele>
        <time>2015-05-02T08:34:50Z</time>
      </trkpt>
      <trkpt lat="42.26429" lon="3.20226">
        <ele>247</ele>
        <time>2015-05-02T08:34:55Z</time>
      </trkpt>
      <trkpt lat="42.26426" lon="3.20227">
        <ele>247.80000305176</ele>
        <time>2015-05-02T08:34:58Z</time>
      </trkpt>
      <trkpt lat="42.26426" lon="3.20227">
        <ele>248</ele>
        <time>2015-05-02T08:34:59Z</time>
      </trkpt>
      <trkpt lat="42.26426" lon="3.20228">
        <ele>248.19999694824</ele>
        <time>2015-05-02T08:35:00Z</time>
      </trkpt>
      <trkpt lat="42.26425" lon="3.20232">
        <ele>249.19999694824</ele>
        <time>2015-05-02T08:35:04Z</time>
      </trkpt>
      <trkpt lat="42.26423" lon="3.20237">
        <ele>250.39999389648</ele>
        <time>2015-05-02T08:35:09Z</time>
      </trkpt>
      <trkpt lat="42.26421" lon="3.20237">
        <ele>251</ele>
        <time>2015-05-02T08:35:11Z</time>
      </trkpt>
      <trkpt lat="42.26419" lon="3.20237">
        <ele>251.39999389648</ele>
        <time>2015-05-02T08:35:13Z</time>
      </trkpt>
      <trkpt lat="42.26418" lon="3.20239">
        <ele>251.60000610352</ele>
        <time>2015-05-02T08:35:15Z</time>
      </trkpt>
      <trkpt lat="42.26415" lon="3.20242">
        <ele>252.60000610352</ele>
        <time>2015-05-02T08:35:19Z</time>
      </trkpt>
      <trkpt lat="42.26414" lon="3.20248">
        <ele>253.60000610352</ele>
        <time>2015-05-02T08:35:24Z</time>
      </trkpt>
      <trkpt lat="42.26413" lon="3.2025">
        <ele>254</ele>
        <time>2015-05-02T08:35:26Z</time>
      </trkpt>
      <trkpt lat="42.2641" lon="3.20253">
        <ele>254.80000305176</ele>
        <time>2015-05-02T08:35:30Z</time>
      </trkpt>
      <trkpt lat="42.26408" lon="3.20256">
        <ele>255.80000305176</ele>
        <time>2015-05-02T08:35:34Z</time>
      </trkpt>
      <trkpt lat="42.26402" lon="3.2026">
        <ele>257.20001220703</ele>
        <time>2015-05-02T08:35:41Z</time>
      </trkpt>
      <trkpt lat="42.26402" lon="3.2026">
        <ele>257.39999389648</ele>
        <time>2015-05-02T08:35:42Z</time>
      </trkpt>
      <trkpt lat="42.264" lon="3.20261">
        <ele>258.39999389648</ele>
        <time>2015-05-02T08:35:44Z</time>
      </trkpt>
      <trkpt lat="42.26394" lon="3.20263">
        <ele>259.39999389648</ele>
        <time>2015-05-02T08:35:50Z</time>
      </trkpt>
      <trkpt lat="42.26391" lon="3.20268">
        <ele>260.60000610352</ele>
        <time>2015-05-02T08:35:56Z</time>
      </trkpt>
      <trkpt lat="42.2639" lon="3.20269">
        <ele>260.79998779297</ele>
        <time>2015-05-02T08:35:57Z</time>
      </trkpt>
      <trkpt lat="42.2639" lon="3.2027">
        <ele>261.20001220703</ele>
        <time>2015-05-02T08:35:58Z</time>
      </trkpt>
      <trkpt lat="42.26389" lon="3.20272">
        <ele>261.79998779297</ele>
        <time>2015-05-02T08:35:59Z</time>
      </trkpt>
      <trkpt lat="42.26387" lon="3.20274">
        <ele>262.79998779297</ele>
        <time>2015-05-02T08:36:02Z</time>
      </trkpt>
      <trkpt lat="42.26386" lon="3.20275">
        <ele>263</ele>
        <time>2015-05-02T08:36:03Z</time>
      </trkpt>
      <trkpt lat="42.26382" lon="3.2028">
        <ele>263.79998779297</ele>
        <time>2015-05-02T08:36:08Z</time>
      </trkpt>
      <trkpt lat="42.2638" lon="3.20281">
        <ele>264.20001220703</ele>
        <time>2015-05-02T08:36:10Z</time>
      </trkpt>
      <trkpt lat="42.26377" lon="3.20281">
        <ele>264.79998779297</ele>
        <time>2015-05-02T08:36:13Z</time>
      </trkpt>
      <trkpt lat="42.26374" lon="3.20281">
        <ele>265.39999389648</ele>
        <time>2015-05-02T08:36:15Z</time>
      </trkpt>
      <trkpt lat="42.26369" lon="3.20283">
        <ele>265.79998779297</ele>
        <time>2015-05-02T08:36:20Z</time>
      </trkpt>
      <trkpt lat="42.26367" lon="3.20284">
        <ele>266.39999389648</ele>
        <time>2015-05-02T08:36:23Z</time>
      </trkpt>
      <trkpt lat="42.26362" lon="3.20285">
        <ele>267.20001220703</ele>
        <time>2015-05-02T08:36:28Z</time>
      </trkpt>
      <trkpt lat="42.26358" lon="3.20286">
        <ele>267.60000610352</ele>
        <time>2015-05-02T08:36:32Z</time>
      </trkpt>
      <trkpt lat="42.26355" lon="3.20286">
        <ele>268.20001220703</ele>
        <time>2015-05-02T08:36:36Z</time>
      </trkpt>
      <trkpt lat="42.26352" lon="3.20287">
        <ele>268.60000610352</ele>
        <time>2015-05-02T08:36:39Z</time>
      </trkpt>
      <trkpt lat="42.2635" lon="3.20288">
        <ele>269</ele>
        <time>2015-05-02T08:36:41Z</time>
      </trkpt>
      <trkpt lat="42.26349" lon="3.20291">
        <ele>269.39999389648</ele>
        <time>2015-05-02T08:36:44Z</time>
      </trkpt>
      <trkpt lat="42.26349" lon="3.20292">
        <ele>269.79998779297</ele>
        <time>2015-05-02T08:36:46Z</time>
      </trkpt>
      <trkpt lat="42.26348" lon="3.20292">
        <ele>270.60000610352</ele>
        <time>2015-05-02T08:36:49Z</time>
      </trkpt>
      <trkpt lat="42.26347" lon="3.20293">
        <ele>270.79998779297</ele>
        <time>2015-05-02T08:36:51Z</time>
      </trkpt>
      <trkpt lat="42.26347" lon="3.20292">
        <ele>270.60000610352</ele>
        <time>2015-05-02T08:36:58Z</time>
      </trkpt>
      <trkpt lat="42.26347" lon="3.20294">
        <ele>270.79998779297</ele>
        <time>2015-05-02T08:37:03Z</time>
      </trkpt>
      <trkpt lat="42.26347" lon="3.20296">
        <ele>270.79998779297</ele>
        <time>2015-05-02T08:37:06Z</time>
      </trkpt>
      <trkpt lat="42.26347" lon="3.203">
        <ele>270.79998779297</ele>
        <time>2015-05-02T08:37:10Z</time>
      </trkpt>
      <trkpt lat="42.26347" lon="3.20301">
        <ele>270.79998779297</ele>
        <time>2015-05-02T08:37:12Z</time>
      </trkpt>
      <trkpt lat="42.26347" lon="3.20301">
        <ele>271</ele>
        <time>2015-05-02T08:37:14Z</time>
      </trkpt>
      <trkpt lat="42.26347" lon="3.20302">
        <ele>271</ele>
        <time>2015-05-02T08:37:17Z</time>
      </trkpt>
      <trkpt lat="42.26346" lon="3.20302">
        <ele>271</ele>
        <time>2015-05-02T08:37:21Z</time>
      </trkpt>
      <trkpt lat="42.26346" lon="3.20302">
        <ele>271.20001220703</ele>
        <time>2015-05-02T08:37:27Z</time>
      </trkpt>
      <trkpt lat="42.26346" lon="3.20302">
        <ele>271.20001220703</ele>
        <time>2015-05-02T08:37:32Z</time>
      </trkpt>
      <trkpt lat="42.26346" lon="3.20302">
        <ele>271.20001220703</ele>
        <time>2015-05-02T08:37:33Z</time>
      </trkpt>
      <trkpt lat="42.26345" lon="3.20302">
        <ele>271.20001220703</ele>
        <time>2015-05-02T08:37:38Z</time>
      </trkpt>
      <trkpt lat="42.26345" lon="3.20302">
        <ele>271.20001220703</ele>
        <time>2015-05-02T08:37:39Z</time>
      </trkpt>
      <trkpt lat="42.26345" lon="3.20302">
        <ele>271</ele>
        <time>2015-05-02T08:37:43Z</time>
      </trkpt>
      <trkpt lat="42.26345" lon="3.20302">
        <ele>270.60000610352</ele>
        <time>2015-05-02T08:37:53Z</time>
      </trkpt>
      <trkpt lat="42.26345" lon="3.20303">
        <ele>271</ele>
        <time>2015-05-02T08:38:03Z</time>
      </trkpt>
      <trkpt lat="42.26345" lon="3.20303">
        <ele>271.20001220703</ele>
        <time>2015-05-02T08:38:10Z</time>
      </trkpt>
      <trkpt lat="42.26345" lon="3.20303">
        <ele>271.20001220703</ele>
        <time>2015-05-02T08:38:13Z</time>
      </trkpt>
      <trkpt lat="42.26345" lon="3.20303">
        <ele>271.39999389648</ele>
        <time>2015-05-02T08:38:24Z</time>
      </trkpt>
      <trkpt lat="42.26344" lon="3.20303">
        <ele>271</ele>
        <time>2015-05-02T08:38:48Z</time>
      </trkpt>
      <trkpt lat="42.26344" lon="3.20303">
        <ele>270.79998779297</ele>
        <time>2015-05-02T08:39:00Z</time>
      </trkpt>
      <trkpt lat="42.26344" lon="3.20303">
        <ele>270.79998779297</ele>
        <time>2015-05-02T08:39:04Z</time>
      </trkpt>
      <trkpt lat="42.26344" lon="3.20304">
        <ele>270.79998779297</ele>
        <time>2015-05-02T08:39:13Z</time>
      </trkpt>
      <trkpt lat="42.26344" lon="3.20305">
        <ele>270.79998779297</ele>
        <time>2015-05-02T08:39:19Z</time>
      </trkpt>
      <trkpt lat="42.26345" lon="3.20305">
        <ele>270.79998779297</ele>
        <time>2015-05-02T08:39:32Z</time>
      </trkpt>
      <trkpt lat="42.26345" lon="3.20305">
        <ele>271</ele>
        <time>2015-05-02T08:39:33Z</time>
      </trkpt>
      <trkpt lat="42.26344" lon="3.20306">
        <ele>271.60000610352</ele>
        <time>2015-05-02T08:39:53Z</time>
      </trkpt>
      <trkpt lat="42.26344" lon="3.20306">
        <ele>271.60000610352</ele>
        <time>2015-05-02T08:39:54Z</time>
      </trkpt>
      <trkpt lat="42.26344" lon="3.20305">
        <ele>271.79998779297</ele>
        <time>2015-05-02T08:40:02Z</time>
      </trkpt>
      <trkpt lat="42.26345" lon="3.20305">
        <ele>271.60000610352</ele>
        <time>2015-05-02T08:40:11Z</time>
      </trkpt>
      <trkpt lat="42.26345" lon="3.20305">
        <ele>271.60000610352</ele>
        <time>2015-05-02T08:40:12Z</time>
      </trkpt>
      <trkpt lat="42.26345" lon="3.20305">
        <ele>271.20001220703</ele>
        <time>2015-05-02T08:40:15Z</time>
      </trkpt>
      <trkpt lat="42.26345" lon="3.20304">
        <ele>271.39999389648</ele>
        <time>2015-05-02T08:40:18Z</time>
      </trkpt>
      <trkpt lat="42.26345" lon="3.20303">
        <ele>271</ele>
        <time>2015-05-02T08:40:29Z</time>
      </trkpt>
      <trkpt lat="42.26347" lon="3.20305">
        <ele>271</ele>
        <time>2015-05-02T08:40:36Z</time>
      </trkpt>
      <trkpt lat="42.26347" lon="3.20306">
        <ele>271</ele>
        <time>2015-05-02T08:40:37Z</time>
      </trkpt>
      <trkpt lat="42.26344" lon="3.20313">
        <ele>271.39999389648</ele>
        <time>2015-05-02T08:40:42Z</time>
      </trkpt>
      <trkpt lat="42.26342" lon="3.20316">
        <ele>271.60000610352</ele>
        <time>2015-05-02T08:40:45Z</time>
      </trkpt>
      <trkpt lat="42.2634" lon="3.20319">
        <ele>271.60000610352</ele>
        <time>2015-05-02T08:40:47Z</time>
      </trkpt>
      <trkpt lat="42.26337" lon="3.20322">
        <ele>272</ele>
        <time>2015-05-02T08:40:49Z</time>
      </trkpt>
      <trkpt lat="42.26334" lon="3.20326">
        <ele>272.20001220703</ele>
        <time>2015-05-02T08:40:52Z</time>
      </trkpt>
      <trkpt lat="42.26332" lon="3.2033">
        <ele>273</ele>
        <time>2015-05-02T08:40:54Z</time>
      </trkpt>
      <trkpt lat="42.26329" lon="3.20335">
        <ele>274</ele>
        <time>2015-05-02T08:40:57Z</time>
      </trkpt>
      <trkpt lat="42.26328" lon="3.20341">
        <ele>274.20001220703</ele>
        <time>2015-05-02T08:41:00Z</time>
      </trkpt>
      <trkpt lat="42.26324" lon="3.2035">
        <ele>274.39999389648</ele>
        <time>2015-05-02T08:41:04Z</time>
      </trkpt>
      <trkpt lat="42.26323" lon="3.20355">
        <ele>274.60000610352</ele>
        <time>2015-05-02T08:41:06Z</time>
      </trkpt>
      <trkpt lat="42.26321" lon="3.20362">
        <ele>274.79998779297</ele>
        <time>2015-05-02T08:41:09Z</time>
      </trkpt>
      <trkpt lat="42.26319" lon="3.20367">
        <ele>275</ele>
        <time>2015-05-02T08:41:11Z</time>
      </trkpt>
      <trkpt lat="42.26317" lon="3.20375">
        <ele>275</ele>
        <time>2015-05-02T08:41:14Z</time>
      </trkpt>
      <trkpt lat="42.26315" lon="3.20387">
        <ele>275.20001220703</ele>
        <time>2015-05-02T08:41:18Z</time>
      </trkpt>
      <trkpt lat="42.26314" lon="3.20393">
        <ele>275.20001220703</ele>
        <time>2015-05-02T08:41:20Z</time>
      </trkpt>
      <trkpt lat="42.2631" lon="3.20411">
        <ele>275</ele>
        <time>2015-05-02T08:41:26Z</time>
      </trkpt>
      <trkpt lat="42.26306" lon="3.20432">
        <ele>274.20001220703</ele>
        <time>2015-05-02T08:41:33Z</time>
      </trkpt>
      <trkpt lat="42.26305" lon="3.20442">
        <ele>273.79998779297</ele>
        <time>2015-05-02T08:41:36Z</time>
      </trkpt>
      <trkpt lat="42.26305" lon="3.2045">
        <ele>274</ele>
        <time>2015-05-02T08:41:39Z</time>
      </trkpt>
      <trkpt lat="42.263" lon="3.20464">
        <ele>273.79998779297</ele>
        <time>2015-05-02T08:41:44Z</time>
      </trkpt>
      <trkpt lat="42.26295" lon="3.20477">
        <ele>272.60000610352</ele>
        <time>2015-05-02T08:41:49Z</time>
      </trkpt>
      <trkpt lat="42.26294" lon="3.20482">
        <ele>272.20001220703</ele>
        <time>2015-05-02T08:41:51Z</time>
      </trkpt>
      <trkpt lat="42.26293" lon="3.20488">
        <ele>271.39999389648</ele>
        <time>2015-05-02T08:41:53Z</time>
      </trkpt>
      <trkpt lat="42.26292" lon="3.20497">
        <ele>270.39999389648</ele>
        <time>2015-05-02T08:41:56Z</time>
      </trkpt>
      <trkpt lat="42.26289" lon="3.20505">
        <ele>270</ele>
        <time>2015-05-02T08:41:59Z</time>
      </trkpt>
      <trkpt lat="42.26287" lon="3.20505">
        <ele>270.20001220703</ele>
        <time>2015-05-02T08:42:00Z</time>
      </trkpt>
      <trkpt lat="42.26284" lon="3.20501">
        <ele>270.20001220703</ele>
        <time>2015-05-02T08:42:02Z</time>
      </trkpt>
      <trkpt lat="42.26279" lon="3.20496">
        <ele>269.79998779297</ele>
        <time>2015-05-02T08:42:05Z</time>
      </trkpt>
      <trkpt lat="42.26274" lon="3.20494">
        <ele>269.39999389648</ele>
        <time>2015-05-02T08:42:08Z</time>
      </trkpt>
      <trkpt lat="42.26274" lon="3.20494">
        <ele>269.39999389648</ele>
        <time>2015-05-02T08:42:08Z</time>
      </trkpt>
      <trkpt lat="42.2627" lon="3.20494">
        <ele>269.39999389648</ele>
        <time>2015-05-02T08:42:10Z</time>
      </trkpt>
      <trkpt lat="42.26265" lon="3.20494">
        <ele>269.20001220703</ele>
        <time>2015-05-02T08:42:13Z</time>
      </trkpt>
      <trkpt lat="42.26252" lon="3.20499">
        <ele>268.60000610352</ele>
        <time>2015-05-02T08:42:19Z</time>
      </trkpt>
      <trkpt lat="42.26248" lon="3.205">
        <ele>268.20001220703</ele>
        <time>2015-05-02T08:42:21Z</time>
      </trkpt>
      <trkpt lat="42.26244" lon="3.20501">
        <ele>268.20001220703</ele>
        <time>2015-05-02T08:42:23Z</time>
      </trkpt>
      <trkpt lat="42.26234" lon="3.20504">
        <ele>267</ele>
        <time>2015-05-02T08:42:28Z</time>
      </trkpt>
      <trkpt lat="42.26232" lon="3.20505">
        <ele>266.60000610352</ele>
        <time>2015-05-02T08:42:29Z</time>
      </trkpt>
      <trkpt lat="42.26226" lon="3.20506">
        <ele>266</ele>
        <time>2015-05-02T08:42:32Z</time>
      </trkpt>
      <trkpt lat="42.26221" lon="3.20506">
        <ele>265.60000610352</ele>
        <time>2015-05-02T08:42:34Z</time>
      </trkpt>
      <trkpt lat="42.26216" lon="3.20505">
        <ele>264.60000610352</ele>
        <time>2015-05-02T08:42:36Z</time>
      </trkpt>
      <trkpt lat="42.2621" lon="3.20504">
        <ele>263.60000610352</ele>
        <time>2015-05-02T08:42:39Z</time>
      </trkpt>
      <trkpt lat="42.26205" lon="3.20503">
        <ele>262.79998779297</ele>
        <time>2015-05-02T08:42:41Z</time>
      </trkpt>
      <trkpt lat="42.26204" lon="3.20502">
        <ele>262.39999389648</ele>
        <time>2015-05-02T08:42:42Z</time>
      </trkpt>
      <trkpt lat="42.26196" lon="3.205">
        <ele>261.20001220703</ele>
        <time>2015-05-02T08:42:46Z</time>
      </trkpt>
      <trkpt lat="42.26194" lon="3.20499">
        <ele>260.60000610352</ele>
        <time>2015-05-02T08:42:47Z</time>
      </trkpt>
      <trkpt lat="42.26192" lon="3.20497">
        <ele>259.79998779297</ele>
        <time>2015-05-02T08:42:48Z</time>
      </trkpt>
      <trkpt lat="42.26188" lon="3.20494">
        <ele>258.60000610352</ele>
        <time>2015-05-02T08:42:50Z</time>
      </trkpt>
      <trkpt lat="42.26182" lon="3.20491">
        <ele>257.39999389648</ele>
        <time>2015-05-02T08:42:53Z</time>
      </trkpt>
      <trkpt lat="42.2618" lon="3.2049">
        <ele>257.20001220703</ele>
        <time>2015-05-02T08:42:54Z</time>
      </trkpt>
      <trkpt lat="42.26175" lon="3.20491">
        <ele>256.39999389648</ele>
        <time>2015-05-02T08:42:56Z</time>
      </trkpt>
      <trkpt lat="42.26173" lon="3.20491">
        <ele>255.80000305176</ele>
        <time>2015-05-02T08:42:57Z</time>
      </trkpt>
      <trkpt lat="42.26171" lon="3.20491">
        <ele>255.19999694824</ele>
        <time>2015-05-02T08:42:58Z</time>
      </trkpt>
      <trkpt lat="42.26167" lon="3.20493">
        <ele>254.39999389648</ele>
        <time>2015-05-02T08:43:00Z</time>
      </trkpt>
      <trkpt lat="42.26162" lon="3.20495">
        <ele>254.19999694824</ele>
        <time>2015-05-02T08:43:02Z</time>
      </trkpt>
      <trkpt lat="42.26153" lon="3.20499">
        <ele>253.80000305176</ele>
        <time>2015-05-02T08:43:06Z</time>
      </trkpt>
      <trkpt lat="42.26149" lon="3.20498">
        <ele>253.60000610352</ele>
        <time>2015-05-02T08:43:08Z</time>
      </trkpt>
      <trkpt lat="42.26147" lon="3.20493">
        <ele>253.60000610352</ele>
        <time>2015-05-02T08:43:10Z</time>
      </trkpt>
      <trkpt lat="42.26146" lon="3.20488">
        <ele>253</ele>
        <time>2015-05-02T08:43:12Z</time>
      </trkpt>
      <trkpt lat="42.26146" lon="3.20478">
        <ele>252.60000610352</ele>
        <time>2015-05-02T08:43:16Z</time>
      </trkpt>
      <trkpt lat="42.26141" lon="3.20466">
        <ele>254.19999694824</ele>
        <time>2015-05-02T08:43:21Z</time>
      </trkpt>
      <trkpt lat="42.26138" lon="3.20455">
        <ele>255</ele>
        <time>2015-05-02T08:43:26Z</time>
      </trkpt>
      <trkpt lat="42.26138" lon="3.20453">
        <ele>255.19999694824</ele>
        <time>2015-05-02T08:43:27Z</time>
      </trkpt>
      <trkpt lat="42.26134" lon="3.20445">
        <ele>255.39999389648</ele>
        <time>2015-05-02T08:43:30Z</time>
      </trkpt>
      <trkpt lat="42.26134" lon="3.20439">
        <ele>255.39999389648</ele>
        <time>2015-05-02T08:43:32Z</time>
      </trkpt>
      <trkpt lat="42.26132" lon="3.20427">
        <ele>253.80000305176</ele>
        <time>2015-05-02T08:43:36Z</time>
      </trkpt>
      <trkpt lat="42.26132" lon="3.20422">
        <ele>253.80000305176</ele>
        <time>2015-05-02T08:43:38Z</time>
      </trkpt>
      <trkpt lat="42.26131" lon="3.20416">
        <ele>253.60000610352</ele>
        <time>2015-05-02T08:43:40Z</time>
      </trkpt>
      <trkpt lat="42.26127" lon="3.20413">
        <ele>253.60000610352</ele>
        <time>2015-05-02T08:43:42Z</time>
      </trkpt>
      <trkpt lat="42.26121" lon="3.20406">
        <ele>252.80000305176</ele>
        <time>2015-05-02T08:43:46Z</time>
      </trkpt>
      <trkpt lat="42.26118" lon="3.20403">
        <ele>252.39999389648</ele>
        <time>2015-05-02T08:43:48Z</time>
      </trkpt>
      <trkpt lat="42.26108" lon="3.20388">
        <ele>252</ele>
        <time>2015-05-02T08:43:55Z</time>
      </trkpt>
      <trkpt lat="42.26107" lon="3.20385">
        <ele>251.60000610352</ele>
        <time>2015-05-02T08:43:56Z</time>
      </trkpt>
      <trkpt lat="42.26104" lon="3.20378">
        <ele>250.39999389648</ele>
        <time>2015-05-02T08:43:59Z</time>
      </trkpt>
      <trkpt lat="42.26102" lon="3.2037">
        <ele>249.39999389648</ele>
        <time>2015-05-02T08:44:02Z</time>
      </trkpt>
      <trkpt lat="42.26097" lon="3.20354">
        <ele>248</ele>
        <time>2015-05-02T08:44:08Z</time>
      </trkpt>
      <trkpt lat="42.26096" lon="3.20352">
        <ele>247.80000305176</ele>
        <time>2015-05-02T08:44:09Z</time>
      </trkpt>
      <trkpt lat="42.26091" lon="3.20347">
        <ele>247.60000610352</ele>
        <time>2015-05-02T08:44:13Z</time>
      </trkpt>
      <trkpt lat="42.26088" lon="3.20341">
        <ele>246.80000305176</ele>
        <time>2015-05-02T08:44:16Z</time>
      </trkpt>
      <trkpt lat="42.26087" lon="3.20337">
        <ele>245.80000305176</ele>
        <time>2015-05-02T08:44:18Z</time>
      </trkpt>
      <trkpt lat="42.26086" lon="3.20335">
        <ele>245.19999694824</ele>
        <time>2015-05-02T08:44:19Z</time>
      </trkpt>
      <trkpt lat="42.26083" lon="3.20333">
        <ele>244.19999694824</ele>
        <time>2015-05-02T08:44:21Z</time>
      </trkpt>
      <trkpt lat="42.26081" lon="3.2033">
        <ele>243</ele>
        <time>2015-05-02T08:44:23Z</time>
      </trkpt>
      <trkpt lat="42.2608" lon="3.20328">
        <ele>242.60000610352</ele>
        <time>2015-05-02T08:44:24Z</time>
      </trkpt>
      <trkpt lat="42.26079" lon="3.20327">
        <ele>242</ele>
        <time>2015-05-02T08:44:25Z</time>
      </trkpt>
      <trkpt lat="42.26076" lon="3.20324">
        <ele>240.80000305176</ele>
        <time>2015-05-02T08:44:27Z</time>
      </trkpt>
      <trkpt lat="42.26073" lon="3.20318">
        <ele>239.60000610352</ele>
        <time>2015-05-02T08:44:30Z</time>
      </trkpt>
      <trkpt lat="42.26072" lon="3.20316">
        <ele>239</ele>
        <time>2015-05-02T08:44:31Z</time>
      </trkpt>
      <trkpt lat="42.26071" lon="3.20314">
        <ele>238.39999389648</ele>
        <time>2015-05-02T08:44:32Z</time>
      </trkpt>
      <trkpt lat="42.2607" lon="3.20313">
        <ele>236.80000305176</ele>
        <time>2015-05-02T08:44:35Z</time>
      </trkpt>
      <trkpt lat="42.26071" lon="3.20313">
        <ele>235.60000610352</ele>
        <time>2015-05-02T08:44:38Z</time>
      </trkpt>
      <trkpt lat="42.2607" lon="3.20313">
        <ele>235.60000610352</ele>
        <time>2015-05-02T08:44:42Z</time>
      </trkpt>
      <trkpt lat="42.2607" lon="3.20313">
        <ele>235.60000610352</ele>
        <time>2015-05-02T08:44:43Z</time>
      </trkpt>
      <trkpt lat="42.26071" lon="3.20312">
        <ele>235.60000610352</ele>
        <time>2015-05-02T08:44:49Z</time>
      </trkpt>
      <trkpt lat="42.26068" lon="3.2031">
        <ele>235.60000610352</ele>
        <time>2015-05-02T08:45:00Z</time>
      </trkpt>
      <trkpt lat="42.26056" lon="3.20304">
        <ele>235</ele>
        <time>2015-05-02T08:45:06Z</time>
      </trkpt>
      <trkpt lat="42.2605" lon="3.20303">
        <ele>234.39999389648</ele>
        <time>2015-05-02T08:45:09Z</time>
      </trkpt>
      <trkpt lat="42.26042" lon="3.203">
        <ele>233.80000305176</ele>
        <time>2015-05-02T08:45:13Z</time>
      </trkpt>
      <trkpt lat="42.26038" lon="3.20298">
        <ele>233.19999694824</ele>
        <time>2015-05-02T08:45:15Z</time>
      </trkpt>
      <trkpt lat="42.26034" lon="3.20297">
        <ele>232.19999694824</ele>
        <time>2015-05-02T08:45:17Z</time>
      </trkpt>
      <trkpt lat="42.2603" lon="3.20295">
        <ele>231.60000610352</ele>
        <time>2015-05-02T08:45:19Z</time>
      </trkpt>
      <trkpt lat="42.26027" lon="3.20294">
        <ele>231.19999694824</ele>
        <time>2015-05-02T08:45:20Z</time>
      </trkpt>
      <trkpt lat="42.26019" lon="3.20291">
        <ele>230</ele>
        <time>2015-05-02T08:45:24Z</time>
      </trkpt>
      <trkpt lat="42.26014" lon="3.20289">
        <ele>228.80000305176</ele>
        <time>2015-05-02T08:45:27Z</time>
      </trkpt>
      <trkpt lat="42.26008" lon="3.20285">
        <ele>227.80000305176</ele>
        <time>2015-05-02T08:45:30Z</time>
      </trkpt>
      <trkpt lat="42.26003" lon="3.20283">
        <ele>226.60000610352</ele>
        <time>2015-05-02T08:45:33Z</time>
      </trkpt>
      <trkpt lat="42.25996" lon="3.20279">
        <ele>225.19999694824</ele>
        <time>2015-05-02T08:45:37Z</time>
      </trkpt>
      <trkpt lat="42.25991" lon="3.20276">
        <ele>223.80000305176</ele>
        <time>2015-05-02T08:45:40Z</time>
      </trkpt>
      <trkpt lat="42.25987" lon="3.20274">
        <ele>222.80000305176</ele>
        <time>2015-05-02T08:45:42Z</time>
      </trkpt>
      <trkpt lat="42.25986" lon="3.20273">
        <ele>222.19999694824</ele>
        <time>2015-05-02T08:45:43Z</time>
      </trkpt>
      <trkpt lat="42.25984" lon="3.20271">
        <ele>221.39999389648</ele>
        <time>2015-05-02T08:45:44Z</time>
      </trkpt>
      <trkpt lat="42.2598" lon="3.20268">
        <ele>220.19999694824</ele>
        <time>2015-05-02T08:45:47Z</time>
      </trkpt>
      <trkpt lat="42.25977" lon="3.20265">
        <ele>219.39999389648</ele>
        <time>2015-05-02T08:45:49Z</time>
      </trkpt>
      <trkpt lat="42.25975" lon="3.20264">
        <ele>219.19999694824</ele>
        <time>2015-05-02T08:45:50Z</time>
      </trkpt>
      <trkpt lat="42.25971" lon="3.20261">
        <ele>218</ele>
        <time>2015-05-02T08:45:53Z</time>
      </trkpt>
      <trkpt lat="42.25969" lon="3.20258">
        <ele>217.19999694824</ele>
        <time>2015-05-02T08:45:55Z</time>
      </trkpt>
      <trkpt lat="42.25968" lon="3.20257">
        <ele>217</ele>
        <time>2015-05-02T08:45:56Z</time>
      </trkpt>
      <trkpt lat="42.25967" lon="3.20256">
        <ele>216.80000305176</ele>
        <time>2015-05-02T08:45:57Z</time>
      </trkpt>
      <trkpt lat="42.25965" lon="3.20253">
        <ele>216.19999694824</ele>
        <time>2015-05-02T08:45:59Z</time>
      </trkpt>
      <trkpt lat="42.25962" lon="3.20251">
        <ele>215.80000305176</ele>
        <time>2015-05-02T08:46:01Z</time>
      </trkpt>
      <trkpt lat="42.25958" lon="3.20249">
        <ele>214.39999389648</ele>
        <time>2015-05-02T08:46:04Z</time>
      </trkpt>
      <trkpt lat="42.25956" lon="3.20248">
        <ele>214</ele>
        <time>2015-05-02T08:46:05Z</time>
      </trkpt>
      <trkpt lat="42.25955" lon="3.20247">
        <ele>213.39999389648</ele>
        <time>2015-05-02T08:46:06Z</time>
      </trkpt>
      <trkpt lat="42.25952" lon="3.20244">
        <ele>212.19999694824</ele>
        <time>2015-05-02T08:46:08Z</time>
      </trkpt>
      <trkpt lat="42.25948" lon="3.20241">
        <ele>210.80000305176</ele>
        <time>2015-05-02T08:46:11Z</time>
      </trkpt>
      <trkpt lat="42.25946" lon="3.20241">
        <ele>210.39999389648</ele>
        <time>2015-05-02T08:46:12Z</time>
      </trkpt>
      <trkpt lat="42.25944" lon="3.20238">
        <ele>209.60000610352</ele>
        <time>2015-05-02T08:46:14Z</time>
      </trkpt>
      <trkpt lat="42.25942" lon="3.20236">
        <ele>208.80000305176</ele>
        <time>2015-05-02T08:46:16Z</time>
      </trkpt>
      <trkpt lat="42.25941" lon="3.20236">
        <ele>208.39999389648</ele>
        <time>2015-05-02T08:46:17Z</time>
      </trkpt>
      <trkpt lat="42.25939" lon="3.20235">
        <ele>207.39999389648</ele>
        <time>2015-05-02T08:46:20Z</time>
      </trkpt>
      <trkpt lat="42.25938" lon="3.20235">
        <ele>206.80000305176</ele>
        <time>2015-05-02T08:46:22Z</time>
      </trkpt>
      <trkpt lat="42.25938" lon="3.20235">
        <ele>206.39999389648</ele>
        <time>2015-05-02T08:46:24Z</time>
      </trkpt>
      <trkpt lat="42.25938" lon="3.20235">
        <ele>206.19999694824</ele>
        <time>2015-05-02T08:46:29Z</time>
      </trkpt>
      <trkpt lat="42.25939" lon="3.20234">
        <ele>206.19999694824</ele>
        <time>2015-05-02T08:46:30Z</time>
      </trkpt>
      <trkpt lat="42.25936" lon="3.20227">
        <ele>205.60000610352</ele>
        <time>2015-05-02T08:46:34Z</time>
      </trkpt>
      <trkpt lat="42.25935" lon="3.20222">
        <ele>205</ele>
        <time>2015-05-02T08:46:37Z</time>
      </trkpt>
      <trkpt lat="42.25933" lon="3.20217">
        <ele>203.80000305176</ele>
        <time>2015-05-02T08:46:40Z</time>
      </trkpt>
      <trkpt lat="42.25933" lon="3.20214">
        <ele>203.19999694824</ele>
        <time>2015-05-02T08:46:42Z</time>
      </trkpt>
      <trkpt lat="42.25932" lon="3.20211">
        <ele>202.39999389648</ele>
        <time>2015-05-02T08:46:44Z</time>
      </trkpt>
      <trkpt lat="42.25932" lon="3.20204">
        <ele>200.80000305176</ele>
        <time>2015-05-02T08:46:47Z</time>
      </trkpt>
      <trkpt lat="42.25932" lon="3.20201">
        <ele>199.60000610352</ele>
        <time>2015-05-02T08:46:49Z</time>
      </trkpt>
      <trkpt lat="42.25932" lon="3.20196">
        <ele>198.39999389648</ele>
        <time>2015-05-02T08:46:52Z</time>
      </trkpt>
      <trkpt lat="42.25932" lon="3.20195">
        <ele>198</ele>
        <time>2015-05-02T08:46:53Z</time>
      </trkpt>
      <trkpt lat="42.25931" lon="3.20193">
        <ele>197.80000305176</ele>
        <time>2015-05-02T08:46:54Z</time>
      </trkpt>
      <trkpt lat="42.2593" lon="3.20191">
        <ele>197.19999694824</ele>
        <time>2015-05-02T08:46:56Z</time>
      </trkpt>
      <trkpt lat="42.2593" lon="3.20189">
        <ele>196.60000610352</ele>
        <time>2015-05-02T08:46:58Z</time>
      </trkpt>
      <trkpt lat="42.2593" lon="3.20188">
        <ele>196.19999694824</ele>
        <time>2015-05-02T08:46:59Z</time>
      </trkpt>
      <trkpt lat="42.2593" lon="3.20184">
        <ele>195.19999694824</ele>
        <time>2015-05-02T08:47:01Z</time>
      </trkpt>
      <trkpt lat="42.25932" lon="3.20182">
        <ele>194.80000305176</ele>
        <time>2015-05-02T08:47:02Z</time>
      </trkpt>
      <trkpt lat="42.25932" lon="3.2018">
        <ele>194.60000610352</ele>
        <time>2015-05-02T08:47:03Z</time>
      </trkpt>
      <trkpt lat="42.2593" lon="3.20176">
        <ele>194</ele>
        <time>2015-05-02T08:47:05Z</time>
      </trkpt>
      <trkpt lat="42.25929" lon="3.20174">
        <ele>194</ele>
        <time>2015-05-02T08:47:06Z</time>
      </trkpt>
      <trkpt lat="42.25919" lon="3.20166">
        <ele>193.19999694824</ele>
        <time>2015-05-02T08:47:11Z</time>
      </trkpt>
      <trkpt lat="42.25916" lon="3.20164">
        <ele>193.19999694824</ele>
        <time>2015-05-02T08:47:13Z</time>
      </trkpt>
      <trkpt lat="42.2591" lon="3.2016">
        <ele>193.60000610352</ele>
        <time>2015-05-02T08:47:16Z</time>
      </trkpt>
      <trkpt lat="42.25902" lon="3.20149">
        <ele>193.60000610352</ele>
        <time>2015-05-02T08:47:22Z</time>
      </trkpt>
      <trkpt lat="42.25895" lon="3.20141">
        <ele>194</ele>
        <time>2015-05-02T08:47:27Z</time>
      </trkpt>
      <trkpt lat="42.25892" lon="3.20128">
        <ele>194</ele>
        <time>2015-05-02T08:47:32Z</time>
      </trkpt>
      <trkpt lat="42.25887" lon="3.20117">
        <ele>192.80000305176</ele>
        <time>2015-05-02T08:47:37Z</time>
      </trkpt>
      <trkpt lat="42.25887" lon="3.20115">
        <ele>192.80000305176</ele>
        <time>2015-05-02T08:47:38Z</time>
      </trkpt>
      <trkpt lat="42.25883" lon="3.20101">
        <ele>191.80000305176</ele>
        <time>2015-05-02T08:47:43Z</time>
      </trkpt>
      <trkpt lat="42.25882" lon="3.20098">
        <ele>191.60000610352</ele>
        <time>2015-05-02T08:47:44Z</time>
      </trkpt>
      <trkpt lat="42.25877" lon="3.2008">
        <ele>192.19999694824</ele>
        <time>2015-05-02T08:47:50Z</time>
      </trkpt>
      <trkpt lat="42.25877" lon="3.2007">
        <ele>192.80000305176</ele>
        <time>2015-05-02T08:47:54Z</time>
      </trkpt>
      <trkpt lat="42.25878" lon="3.20067">
        <ele>193</ele>
        <time>2015-05-02T08:47:55Z</time>
      </trkpt>
      <trkpt lat="42.2588" lon="3.20052">
        <ele>193.80000305176</ele>
        <time>2015-05-02T08:48:00Z</time>
      </trkpt>
      <trkpt lat="42.2588" lon="3.20039">
        <ele>194.19999694824</ele>
        <time>2015-05-02T08:48:03Z</time>
      </trkpt>
      <trkpt lat="42.2588" lon="3.20036">
        <ele>194.19999694824</ele>
        <time>2015-05-02T08:48:04Z</time>
      </trkpt>
      <trkpt lat="42.25874" lon="3.20023">
        <ele>193.80000305176</ele>
        <time>2015-05-02T08:48:09Z</time>
      </trkpt>
      <trkpt lat="42.25869" lon="3.20009">
        <ele>193.39999389648</ele>
        <time>2015-05-02T08:48:14Z</time>
      </trkpt>
      <trkpt lat="42.25867" lon="3.20006">
        <ele>193</ele>
        <time>2015-05-02T08:48:15Z</time>
      </trkpt>
      <trkpt lat="42.25862" lon="3.2">
        <ele>191.80000305176</ele>
        <time>2015-05-02T08:48:18Z</time>
      </trkpt>
      <trkpt lat="42.2586" lon="3.19998">
        <ele>191.80000305176</ele>
        <time>2015-05-02T08:48:19Z</time>
      </trkpt>
      <trkpt lat="42.25854" lon="3.1998">
        <ele>190.80000305176</ele>
        <time>2015-05-02T08:48:25Z</time>
      </trkpt>
      <trkpt lat="42.25853" lon="3.19978">
        <ele>190.60000610352</ele>
        <time>2015-05-02T08:48:26Z</time>
      </trkpt>
      <trkpt lat="42.25852" lon="3.19976">
        <ele>190.39999389648</ele>
        <time>2015-05-02T08:48:27Z</time>
      </trkpt>
      <trkpt lat="42.25848" lon="3.19973">
        <ele>190.39999389648</ele>
        <time>2015-05-02T08:48:29Z</time>
      </trkpt>
      <trkpt lat="42.2584" lon="3.19964">
        <ele>190.60000610352</ele>
        <time>2015-05-02T08:48:34Z</time>
      </trkpt>
      <trkpt lat="42.25835" lon="3.19963">
        <ele>190.80000305176</ele>
        <time>2015-05-02T08:48:37Z</time>
      </trkpt>
      <trkpt lat="42.25833" lon="3.19961">
        <ele>190.80000305176</ele>
        <time>2015-05-02T08:48:38Z</time>
      </trkpt>
      <trkpt lat="42.25831" lon="3.1996">
        <ele>190.80000305176</ele>
        <time>2015-05-02T08:48:39Z</time>
      </trkpt>
      <trkpt lat="42.25822" lon="3.19953">
        <ele>189.60000610352</ele>
        <time>2015-05-02T08:48:44Z</time>
      </trkpt>
      <trkpt lat="42.25819" lon="3.19951">
        <ele>189.19999694824</ele>
        <time>2015-05-02T08:48:46Z</time>
      </trkpt>
      <trkpt lat="42.25813" lon="3.19948">
        <ele>188.39999389648</ele>
        <time>2015-05-02T08:48:49Z</time>
      </trkpt>
      <trkpt lat="42.25809" lon="3.19946">
        <ele>187.60000610352</ele>
        <time>2015-05-02T08:48:51Z</time>
      </trkpt>
      <trkpt lat="42.25808" lon="3.19945">
        <ele>187</ele>
        <time>2015-05-02T08:48:52Z</time>
      </trkpt>
      <trkpt lat="42.258" lon="3.1994">
        <ele>185.80000305176</ele>
        <time>2015-05-02T08:48:56Z</time>
      </trkpt>
      <trkpt lat="42.25798" lon="3.19939">
        <ele>185.60000610352</ele>
        <time>2015-05-02T08:48:57Z</time>
      </trkpt>
      <trkpt lat="42.25794" lon="3.19938">
        <ele>184.80000305176</ele>
        <time>2015-05-02T08:48:59Z</time>
      </trkpt>
      <trkpt lat="42.25788" lon="3.19935">
        <ele>183.39999389648</ele>
        <time>2015-05-02T08:49:02Z</time>
      </trkpt>
      <trkpt lat="42.25786" lon="3.19934">
        <ele>183</ele>
        <time>2015-05-02T08:49:03Z</time>
      </trkpt>
      <trkpt lat="42.25782" lon="3.19931">
        <ele>182.19999694824</ele>
        <time>2015-05-02T08:49:05Z</time>
      </trkpt>
      <trkpt lat="42.25775" lon="3.19928">
        <ele>181.19999694824</ele>
        <time>2015-05-02T08:49:08Z</time>
      </trkpt>
      <trkpt lat="42.25766" lon="3.19922">
        <ele>180.39999389648</ele>
        <time>2015-05-02T08:49:13Z</time>
      </trkpt>
      <trkpt lat="42.25764" lon="3.19921">
        <ele>180.19999694824</ele>
        <time>2015-05-02T08:49:14Z</time>
      </trkpt>
      <trkpt lat="42.25756" lon="3.19916">
        <ele>178.80000305176</ele>
        <time>2015-05-02T08:49:18Z</time>
      </trkpt>
      <trkpt lat="42.25753" lon="3.19916">
        <ele>178.19999694824</ele>
        <time>2015-05-02T08:49:19Z</time>
      </trkpt>
      <trkpt lat="42.25742" lon="3.19908">
        <ele>177.80000305176</ele>
        <time>2015-05-02T08:49:25Z</time>
      </trkpt>
      <trkpt lat="42.25731" lon="3.19903">
        <ele>178.60000610352</ele>
        <time>2015-05-02T08:49:31Z</time>
      </trkpt>
      <trkpt lat="42.2572" lon="3.19899">
        <ele>178.60000610352</ele>
        <time>2015-05-02T08:49:37Z</time>
      </trkpt>
      <trkpt lat="42.25711" lon="3.19894">
        <ele>177.60000610352</ele>
        <time>2015-05-02T08:49:42Z</time>
      </trkpt>
      <trkpt lat="42.25709" lon="3.19893">
        <ele>177.60000610352</ele>
        <time>2015-05-02T08:49:43Z</time>
      </trkpt>
      <trkpt lat="42.25707" lon="3.19894">
        <ele>177.39999389648</ele>
        <time>2015-05-02T08:49:44Z</time>
      </trkpt>
      <trkpt lat="42.257" lon="3.19893">
        <ele>177.19999694824</ele>
        <time>2015-05-02T08:49:48Z</time>
      </trkpt>
      <trkpt lat="42.25694" lon="3.19892">
        <ele>176.60000610352</ele>
        <time>2015-05-02T08:49:51Z</time>
      </trkpt>
      <trkpt lat="42.25688" lon="3.19891">
        <ele>175.39999389648</ele>
        <time>2015-05-02T08:49:54Z</time>
      </trkpt>
      <trkpt lat="42.25686" lon="3.1989">
        <ele>175.39999389648</ele>
        <time>2015-05-02T08:49:55Z</time>
      </trkpt>
      <trkpt lat="42.25681" lon="3.19883">
        <ele>174.60000610352</ele>
        <time>2015-05-02T08:49:59Z</time>
      </trkpt>
      <trkpt lat="42.25681" lon="3.19881">
        <ele>174.19999694824</ele>
        <time>2015-05-02T08:50:00Z</time>
      </trkpt>
      <trkpt lat="42.25675" lon="3.19877">
        <ele>173</ele>
        <time>2015-05-02T08:50:03Z</time>
      </trkpt>
      <trkpt lat="42.25673" lon="3.19877">
        <ele>173</ele>
        <time>2015-05-02T08:50:04Z</time>
      </trkpt>
      <trkpt lat="42.25667" lon="3.19877">
        <ele>172.19999694824</ele>
        <time>2015-05-02T08:50:08Z</time>
      </trkpt>
      <trkpt lat="42.25665" lon="3.19877">
        <ele>172</ele>
        <time>2015-05-02T08:50:09Z</time>
      </trkpt>
      <trkpt lat="42.25664" lon="3.19876">
        <ele>171.39999389648</ele>
        <time>2015-05-02T08:50:10Z</time>
      </trkpt>
      <trkpt lat="42.25661" lon="3.19874">
        <ele>170.80000305176</ele>
        <time>2015-05-02T08:50:12Z</time>
      </trkpt>
      <trkpt lat="42.25657" lon="3.19874">
        <ele>169.60000610352</ele>
        <time>2015-05-02T08:50:15Z</time>
      </trkpt>
      <trkpt lat="42.25655" lon="3.19873">
        <ele>169.39999389648</ele>
        <time>2015-05-02T08:50:16Z</time>
      </trkpt>
      <trkpt lat="42.2565" lon="3.1987">
        <ele>168.80000305176</ele>
        <time>2015-05-02T08:50:19Z</time>
      </trkpt>
      <trkpt lat="42.2565" lon="3.19868">
        <ele>168.19999694824</ele>
        <time>2015-05-02T08:50:20Z</time>
      </trkpt>
      <trkpt lat="42.25649" lon="3.19867">
        <ele>168</ele>
        <time>2015-05-02T08:50:21Z</time>
      </trkpt>
      <trkpt lat="42.25647" lon="3.19866">
        <ele>166.60000610352</ele>
        <time>2015-05-02T08:50:23Z</time>
      </trkpt>
      <trkpt lat="42.25647" lon="3.19866">
        <ele>166.60000610352</ele>
        <time>2015-05-02T08:50:23Z</time>
      </trkpt>
      <trkpt lat="42.25643" lon="3.19865">
        <ele>165.19999694824</ele>
        <time>2015-05-02T08:50:25Z</time>
      </trkpt>
      <trkpt lat="42.25641" lon="3.19863">
        <ele>164</ele>
        <time>2015-05-02T08:50:27Z</time>
      </trkpt>
      <trkpt lat="42.25637" lon="3.1986">
        <ele>162.80000305176</ele>
        <time>2015-05-02T08:50:30Z</time>
      </trkpt>
      <trkpt lat="42.25636" lon="3.19858">
        <ele>162.60000610352</ele>
        <time>2015-05-02T08:50:31Z</time>
      </trkpt>
      <trkpt lat="42.25635" lon="3.19855">
        <ele>161.60000610352</ele>
        <time>2015-05-02T08:50:33Z</time>
      </trkpt>
      <trkpt lat="42.25632" lon="3.1985">
        <ele>160</ele>
        <time>2015-05-02T08:50:36Z</time>
      </trkpt>
      <trkpt lat="42.2563" lon="3.19846">
        <ele>158.80000305176</ele>
        <time>2015-05-02T08:50:39Z</time>
      </trkpt>
      <trkpt lat="42.25629" lon="3.19846">
        <ele>158.39999389648</ele>
        <time>2015-05-02T08:50:40Z</time>
      </trkpt>
      <trkpt lat="42.25626" lon="3.19844">
        <ele>157.60000610352</ele>
        <time>2015-05-02T08:50:42Z</time>
      </trkpt>
      <trkpt lat="42.25622" lon="3.19841">
        <ele>156.19999694824</ele>
        <time>2015-05-02T08:50:45Z</time>
      </trkpt>
      <trkpt lat="42.25619" lon="3.1984">
        <ele>155</ele>
        <time>2015-05-02T08:50:47Z</time>
      </trkpt>
      <trkpt lat="42.25615" lon="3.19838">
        <ele>153.80000305176</ele>
        <time>2015-05-02T08:50:50Z</time>
      </trkpt>
      <trkpt lat="42.25612" lon="3.19838">
        <ele>152.60000610352</ele>
        <time>2015-05-02T08:50:53Z</time>
      </trkpt>
      <trkpt lat="42.25611" lon="3.19835">
        <ele>151.80000305176</ele>
        <time>2015-05-02T08:50:55Z</time>
      </trkpt>
      <trkpt lat="42.2561" lon="3.19834">
        <ele>151.39999389648</ele>
        <time>2015-05-02T08:50:56Z</time>
      </trkpt>
      <trkpt lat="42.25609" lon="3.19835">
        <ele>151.19999694824</ele>
        <time>2015-05-02T08:50:57Z</time>
      </trkpt>
      <trkpt lat="42.25608" lon="3.19833">
        <ele>150.60000610352</ele>
        <time>2015-05-02T08:50:59Z</time>
      </trkpt>
      <trkpt lat="42.25607" lon="3.19832">
        <ele>150.39999389648</ele>
        <time>2015-05-02T08:51:00Z</time>
      </trkpt>
      <trkpt lat="42.25605" lon="3.19829">
        <ele>149.39999389648</ele>
        <time>2015-05-02T08:51:02Z</time>
      </trkpt>
      <trkpt lat="42.25603" lon="3.19824">
        <ele>148.19999694824</ele>
        <time>2015-05-02T08:51:04Z</time>
      </trkpt>
      <trkpt lat="42.25605" lon="3.19816">
        <ele>147.19999694824</ele>
        <time>2015-05-02T08:51:07Z</time>
      </trkpt>
      <trkpt lat="42.25605" lon="3.19813">
        <ele>146.80000305176</ele>
        <time>2015-05-02T08:51:08Z</time>
      </trkpt>
      <trkpt lat="42.25606" lon="3.19808">
        <ele>146</ele>
        <time>2015-05-02T08:51:10Z</time>
      </trkpt>
      <trkpt lat="42.25604" lon="3.19797">
        <ele>145.60000610352</ele>
        <time>2015-05-02T08:51:14Z</time>
      </trkpt>
      <trkpt lat="42.25603" lon="3.19793">
        <ele>145.60000610352</ele>
        <time>2015-05-02T08:51:16Z</time>
      </trkpt>
      <trkpt lat="42.25599" lon="3.19788">
        <ele>145.39999389648</ele>
        <time>2015-05-02T08:51:20Z</time>
      </trkpt>
      <trkpt lat="42.25599" lon="3.19787">
        <ele>145.39999389648</ele>
        <time>2015-05-02T08:51:21Z</time>
      </trkpt>
      <trkpt lat="42.25599" lon="3.19787">
        <ele>145.80000305176</ele>
        <time>2015-05-02T08:51:25Z</time>
      </trkpt>
      <trkpt lat="42.25594" lon="3.19782">
        <ele>146</ele>
        <time>2015-05-02T08:51:36Z</time>
      </trkpt>
      <trkpt lat="42.25589" lon="3.19775">
        <ele>146.39999389648</ele>
        <time>2015-05-02T08:51:39Z</time>
      </trkpt>
      <trkpt lat="42.25584" lon="3.19765">
        <ele>147.19999694824</ele>
        <time>2015-05-02T08:51:43Z</time>
      </trkpt>
      <trkpt lat="42.25581" lon="3.19755">
        <ele>147.80000305176</ele>
        <time>2015-05-02T08:51:47Z</time>
      </trkpt>
      <trkpt lat="42.25578" lon="3.19749">
        <ele>147.80000305176</ele>
        <time>2015-05-02T08:51:50Z</time>
      </trkpt>
      <trkpt lat="42.25575" lon="3.1974">
        <ele>148.19999694824</ele>
        <time>2015-05-02T08:51:54Z</time>
      </trkpt>
      <trkpt lat="42.25571" lon="3.19733">
        <ele>148.60000610352</ele>
        <time>2015-05-02T08:51:57Z</time>
      </trkpt>
      <trkpt lat="42.25567" lon="3.19721">
        <ele>148.80000305176</ele>
        <time>2015-05-02T08:52:02Z</time>
      </trkpt>
      <trkpt lat="42.25564" lon="3.19709">
        <ele>149</ele>
        <time>2015-05-02T08:52:07Z</time>
      </trkpt>
      <trkpt lat="42.25565" lon="3.19707">
        <ele>149.19999694824</ele>
        <time>2015-05-02T08:52:08Z</time>
      </trkpt>
      <trkpt lat="42.25569" lon="3.19705">
        <ele>149.19999694824</ele>
        <time>2015-05-02T08:52:10Z</time>
      </trkpt>
      <trkpt lat="42.25573" lon="3.19707">
        <ele>149.60000610352</ele>
        <time>2015-05-02T08:52:12Z</time>
      </trkpt>
      <trkpt lat="42.25576" lon="3.19707">
        <ele>149.80000305176</ele>
        <time>2015-05-02T08:52:14Z</time>
      </trkpt>
      <trkpt lat="42.25579" lon="3.19707">
        <ele>150</ele>
        <time>2015-05-02T08:52:16Z</time>
      </trkpt>
      <trkpt lat="42.25582" lon="3.19708">
        <ele>150.39999389648</ele>
        <time>2015-05-02T08:52:18Z</time>
      </trkpt>
      <trkpt lat="42.25587" lon="3.19709">
        <ele>151.19999694824</ele>
        <time>2015-05-02T08:52:21Z</time>
      </trkpt>
      <trkpt lat="42.2559" lon="3.1971">
        <ele>151.60000610352</ele>
        <time>2015-05-02T08:52:23Z</time>
      </trkpt>
      <trkpt lat="42.25595" lon="3.19714">
        <ele>152.39999389648</ele>
        <time>2015-05-02T08:52:26Z</time>
      </trkpt>
      <trkpt lat="42.25595" lon="3.19715">
        <ele>152.80000305176</ele>
        <time>2015-05-02T08:52:27Z</time>
      </trkpt>
      <trkpt lat="42.25597" lon="3.19722">
        <ele>154</ele>
        <time>2015-05-02T08:52:30Z</time>
      </trkpt>
      <trkpt lat="42.25599" lon="3.19726">
        <ele>154.60000610352</ele>
        <time>2015-05-02T08:52:32Z</time>
      </trkpt>
      <trkpt lat="42.25601" lon="3.1973">
        <ele>155.19999694824</ele>
        <time>2015-05-02T08:52:34Z</time>
      </trkpt>
      <trkpt lat="42.25605" lon="3.1974">
        <ele>156.39999389648</ele>
        <time>2015-05-02T08:52:39Z</time>
      </trkpt>
      <trkpt lat="42.25607" lon="3.19741">
        <ele>156.80000305176</ele>
        <time>2015-05-02T08:52:40Z</time>
      </trkpt>
      <trkpt lat="42.25608" lon="3.19742">
        <ele>157</ele>
        <time>2015-05-02T08:52:41Z</time>
      </trkpt>
      <trkpt lat="42.25611" lon="3.19743">
        <ele>157.60000610352</ele>
        <time>2015-05-02T08:52:43Z</time>
      </trkpt>
      <trkpt lat="42.25619" lon="3.19745">
        <ele>158.19999694824</ele>
        <time>2015-05-02T08:52:47Z</time>
      </trkpt>
      <trkpt lat="42.25623" lon="3.19745">
        <ele>158.60000610352</ele>
        <time>2015-05-02T08:52:49Z</time>
      </trkpt>
      <trkpt lat="42.25625" lon="3.19744">
        <ele>158.80000305176</ele>
        <time>2015-05-02T08:52:50Z</time>
      </trkpt>
      <trkpt lat="42.25628" lon="3.19745">
        <ele>159.19999694824</ele>
        <time>2015-05-02T08:52:52Z</time>
      </trkpt>
      <trkpt lat="42.25631" lon="3.19744">
        <ele>159.39999389648</ele>
        <time>2015-05-02T08:52:54Z</time>
      </trkpt>
      <trkpt lat="42.25633" lon="3.19745">
        <ele>159.60000610352</ele>
        <time>2015-05-02T08:52:55Z</time>
      </trkpt>
      <trkpt lat="42.25635" lon="3.19745">
        <ele>159.80000305176</ele>
        <time>2015-05-02T08:52:56Z</time>
      </trkpt>
      <trkpt lat="42.25642" lon="3.19745">
        <ele>160.80000305176</ele>
        <time>2015-05-02T08:53:00Z</time>
      </trkpt>
      <trkpt lat="42.25645" lon="3.19745">
        <ele>161.19999694824</ele>
        <time>2015-05-02T08:53:02Z</time>
      </trkpt>
      <trkpt lat="42.25648" lon="3.19743">
        <ele>162</ele>
        <time>2015-05-02T08:53:05Z</time>
      </trkpt>
      <trkpt lat="42.25648" lon="3.19742">
        <ele>162.39999389648</ele>
        <time>2015-05-02T08:53:06Z</time>
      </trkpt>
      <trkpt lat="42.25648" lon="3.19736">
        <ele>163.60000610352</ele>
        <time>2015-05-02T08:53:10Z</time>
      </trkpt>
      <trkpt lat="42.25648" lon="3.19734">
        <ele>163.80000305176</ele>
        <time>2015-05-02T08:53:11Z</time>
      </trkpt>
      <trkpt lat="42.25652" lon="3.19732">
        <ele>164.60000610352</ele>
        <time>2015-05-02T08:53:14Z</time>
      </trkpt>
      <trkpt lat="42.25653" lon="3.19732">
        <ele>164.80000305176</ele>
        <time>2015-05-02T08:53:15Z</time>
      </trkpt>
      <trkpt lat="42.25657" lon="3.19736">
        <ele>165.80000305176</ele>
        <time>2015-05-02T08:53:18Z</time>
      </trkpt>
      <trkpt lat="42.25659" lon="3.19736">
        <ele>166.19999694824</ele>
        <time>2015-05-02T08:53:19Z</time>
      </trkpt>
      <trkpt lat="42.25662" lon="3.19738">
        <ele>166.80000305176</ele>
        <time>2015-05-02T08:53:21Z</time>
      </trkpt>
      <trkpt lat="42.25663" lon="3.19738">
        <ele>167</ele>
        <time>2015-05-02T08:53:22Z</time>
      </trkpt>
      <trkpt lat="42.25667" lon="3.19738">
        <ele>167.39999389648</ele>
        <time>2015-05-02T08:53:24Z</time>
      </trkpt>
      <trkpt lat="42.25669" lon="3.19739">
        <ele>167.60000610352</ele>
        <time>2015-05-02T08:53:25Z</time>
      </trkpt>
      <trkpt lat="42.25671" lon="3.19739">
        <ele>168</ele>
        <time>2015-05-02T08:53:26Z</time>
      </trkpt>
      <trkpt lat="42.25672" lon="3.19739">
        <ele>168.19999694824</ele>
        <time>2015-05-02T08:53:27Z</time>
      </trkpt>
      <trkpt lat="42.25675" lon="3.19739">
        <ele>168.80000305176</ele>
        <time>2015-05-02T08:53:29Z</time>
      </trkpt>
      <trkpt lat="42.25679" lon="3.19739">
        <ele>169.60000610352</ele>
        <time>2015-05-02T08:53:31Z</time>
      </trkpt>
      <trkpt lat="42.2568" lon="3.19739">
        <ele>170</ele>
        <time>2015-05-02T08:53:32Z</time>
      </trkpt>
      <trkpt lat="42.25685" lon="3.19737">
        <ele>170.60000610352</ele>
        <time>2015-05-02T08:53:35Z</time>
      </trkpt>
      <trkpt lat="42.25687" lon="3.19734">
        <ele>171</ele>
        <time>2015-05-02T08:53:37Z</time>
      </trkpt>
      <trkpt lat="42.25684" lon="3.19727">
        <ele>171.80000305176</ele>
        <time>2015-05-02T08:53:41Z</time>
      </trkpt>
      <trkpt lat="42.25684" lon="3.19726">
        <ele>172.19999694824</ele>
        <time>2015-05-02T08:53:42Z</time>
      </trkpt>
      <trkpt lat="42.25683" lon="3.19724">
        <ele>172.39999389648</ele>
        <time>2015-05-02T08:53:43Z</time>
      </trkpt>
      <trkpt lat="42.25684" lon="3.19718">
        <ele>173.19999694824</ele>
        <time>2015-05-02T08:53:46Z</time>
      </trkpt>
      <trkpt lat="42.25685" lon="3.19717">
        <ele>173.39999389648</ele>
        <time>2015-05-02T08:53:47Z</time>
      </trkpt>
      <trkpt lat="42.25688" lon="3.19712">
        <ele>174</ele>
        <time>2015-05-02T08:53:52Z</time>
      </trkpt>
      <trkpt lat="42.25689" lon="3.19711">
        <ele>174</ele>
        <time>2015-05-02T08:53:53Z</time>
      </trkpt>
      <trkpt lat="42.2569" lon="3.19711">
        <ele>174</ele>
        <time>2015-05-02T08:53:54Z</time>
      </trkpt>
      <trkpt lat="42.25694" lon="3.19711">
        <ele>174.19999694824</ele>
        <time>2015-05-02T08:53:58Z</time>
      </trkpt>
      <trkpt lat="42.25694" lon="3.19711">
        <ele>174.19999694824</ele>
        <time>2015-05-02T08:53:59Z</time>
      </trkpt>
      <trkpt lat="42.25694" lon="3.19712">
        <ele>174.60000610352</ele>
        <time>2015-05-02T08:54:05Z</time>
      </trkpt>
      <trkpt lat="42.25694" lon="3.19712">
        <ele>174.80000305176</ele>
        <time>2015-05-02T08:54:06Z</time>
      </trkpt>
      <trkpt lat="42.25695" lon="3.19709">
        <ele>174.80000305176</ele>
        <time>2015-05-02T08:54:13Z</time>
      </trkpt>
      <trkpt lat="42.25698" lon="3.19705">
        <ele>174.60000610352</ele>
        <time>2015-05-02T08:54:18Z</time>
      </trkpt>
      <trkpt lat="42.25706" lon="3.19692">
        <ele>174.80000305176</ele>
        <time>2015-05-02T08:54:24Z</time>
      </trkpt>
      <trkpt lat="42.25708" lon="3.19692">
        <ele>174.80000305176</ele>
        <time>2015-05-02T08:54:25Z</time>
      </trkpt>
      <trkpt lat="42.25715" lon="3.19692">
        <ele>175</ele>
        <time>2015-05-02T08:54:29Z</time>
      </trkpt>
      <trkpt lat="42.25718" lon="3.19691">
        <ele>175.19999694824</ele>
        <time>2015-05-02T08:54:31Z</time>
      </trkpt>
      <trkpt lat="42.25725" lon="3.19691">
        <ele>176</ele>
        <time>2015-05-02T08:54:35Z</time>
      </trkpt>
      <trkpt lat="42.25727" lon="3.19691">
        <ele>176</ele>
        <time>2015-05-02T08:54:36Z</time>
      </trkpt>
      <trkpt lat="42.25728" lon="3.19691">
        <ele>176.19999694824</ele>
        <time>2015-05-02T08:54:37Z</time>
      </trkpt>
      <trkpt lat="42.25739" lon="3.19692">
        <ele>177.19999694824</ele>
        <time>2015-05-02T08:54:42Z</time>
      </trkpt>
      <trkpt lat="42.2574" lon="3.19692">
        <ele>177.60000610352</ele>
        <time>2015-05-02T08:54:43Z</time>
      </trkpt>
      <trkpt lat="42.25752" lon="3.19691">
        <ele>178.39999389648</ele>
        <time>2015-05-02T08:54:49Z</time>
      </trkpt>
      <trkpt lat="42.25754" lon="3.19691">
        <ele>178.60000610352</ele>
        <time>2015-05-02T08:54:50Z</time>
      </trkpt>
      <trkpt lat="42.25763" lon="3.19693">
        <ele>178.80000305176</ele>
        <time>2015-05-02T08:54:54Z</time>
      </trkpt>
      <trkpt lat="42.25773" lon="3.19694">
        <ele>179.60000610352</ele>
        <time>2015-05-02T08:54:59Z</time>
      </trkpt>
      <trkpt lat="42.25775" lon="3.19693">
        <ele>179.60000610352</ele>
        <time>2015-05-02T08:55:00Z</time>
      </trkpt>
      <trkpt lat="42.25783" lon="3.19692">
        <ele>180.60000610352</ele>
        <time>2015-05-02T08:55:05Z</time>
      </trkpt>
      <trkpt lat="42.25787" lon="3.19692">
        <ele>181.19999694824</ele>
        <time>2015-05-02T08:55:07Z</time>
      </trkpt>
      <trkpt lat="42.25788" lon="3.19692">
        <ele>181.80000305176</ele>
        <time>2015-05-02T08:55:08Z</time>
      </trkpt>
      <trkpt lat="42.25793" lon="3.19693">
        <ele>182.80000305176</ele>
        <time>2015-05-02T08:55:11Z</time>
      </trkpt>
      <trkpt lat="42.25798" lon="3.1969">
        <ele>183.39999389648</ele>
        <time>2015-05-02T08:55:14Z</time>
      </trkpt>
      <trkpt lat="42.25801" lon="3.19685">
        <ele>183.80000305176</ele>
        <time>2015-05-02T08:55:17Z</time>
      </trkpt>
      <trkpt lat="42.25803" lon="3.19686">
        <ele>183.80000305176</ele>
        <time>2015-05-02T08:55:18Z</time>
      </trkpt>
      <trkpt lat="42.25808" lon="3.19691">
        <ele>184.80000305176</ele>
        <time>2015-05-02T08:55:22Z</time>
      </trkpt>
      <trkpt lat="42.25817" lon="3.19693">
        <ele>185.39999389648</ele>
        <time>2015-05-02T08:55:27Z</time>
      </trkpt>
      <trkpt lat="42.25819" lon="3.19693">
        <ele>185.60000610352</ele>
        <time>2015-05-02T08:55:28Z</time>
      </trkpt>
      <trkpt lat="42.2583" lon="3.19697">
        <ele>185.80000305176</ele>
        <time>2015-05-02T08:55:33Z</time>
      </trkpt>
      <trkpt lat="42.25832" lon="3.19698">
        <ele>185.80000305176</ele>
        <time>2015-05-02T08:55:34Z</time>
      </trkpt>
      <trkpt lat="42.25834" lon="3.19699">
        <ele>185.80000305176</ele>
        <time>2015-05-02T08:55:35Z</time>
      </trkpt>
      <trkpt lat="42.25842" lon="3.19699">
        <ele>185.60000610352</ele>
        <time>2015-05-02T08:55:39Z</time>
      </trkpt>
      <trkpt lat="42.25844" lon="3.19699">
        <ele>185.39999389648</ele>
        <time>2015-05-02T08:55:40Z</time>
      </trkpt>
      <trkpt lat="42.25854" lon="3.19701">
        <ele>185.60000610352</ele>
        <time>2015-05-02T08:55:45Z</time>
      </trkpt>
      <trkpt lat="42.25864" lon="3.19703">
        <ele>185.80000305176</ele>
        <time>2015-05-02T08:55:50Z</time>
      </trkpt>
      <trkpt lat="42.25881" lon="3.19705">
        <ele>185.39999389648</ele>
        <time>2015-05-02T08:55:58Z</time>
      </trkpt>
      <trkpt lat="42.25883" lon="3.19705">
        <ele>185.60000610352</ele>
        <time>2015-05-02T08:55:59Z</time>
      </trkpt>
      <trkpt lat="42.25888" lon="3.197">
        <ele>185.39999389648</ele>
        <time>2015-05-02T08:56:02Z</time>
      </trkpt>
      <trkpt lat="42.25896" lon="3.19687">
        <ele>185.39999389648</ele>
        <time>2015-05-02T08:56:08Z</time>
      </trkpt>
      <trkpt lat="42.259" lon="3.19679">
        <ele>185.39999389648</ele>
        <time>2015-05-02T08:56:11Z</time>
      </trkpt>
      <trkpt lat="42.25904" lon="3.19678">
        <ele>185.39999389648</ele>
        <time>2015-05-02T08:56:13Z</time>
      </trkpt>
      <trkpt lat="42.25908" lon="3.19678">
        <ele>185.19999694824</ele>
        <time>2015-05-02T08:56:15Z</time>
      </trkpt>
      <trkpt lat="42.25915" lon="3.19679">
        <ele>185.19999694824</ele>
        <time>2015-05-02T08:56:18Z</time>
      </trkpt>
      <trkpt lat="42.25925" lon="3.19681">
        <ele>185.39999389648</ele>
        <time>2015-05-02T08:56:23Z</time>
      </trkpt>
      <trkpt lat="42.25931" lon="3.1968">
        <ele>185.60000610352</ele>
        <time>2015-05-02T08:56:26Z</time>
      </trkpt>
      <trkpt lat="42.25935" lon="3.19676">
        <ele>185.60000610352</ele>
        <time>2015-05-02T08:56:28Z</time>
      </trkpt>
      <trkpt lat="42.25942" lon="3.19667">
        <ele>186.39999389648</ele>
        <time>2015-05-02T08:56:33Z</time>
      </trkpt>
      <trkpt lat="42.25945" lon="3.19663">
        <ele>187</ele>
        <time>2015-05-02T08:56:35Z</time>
      </trkpt>
      <trkpt lat="42.2595" lon="3.19656">
        <ele>187.19999694824</ele>
        <time>2015-05-02T08:56:39Z</time>
      </trkpt>
      <trkpt lat="42.25953" lon="3.19643">
        <ele>187.80000305176</ele>
        <time>2015-05-02T08:56:44Z</time>
      </trkpt>
      <trkpt lat="42.25955" lon="3.19638">
        <ele>188.19999694824</ele>
        <time>2015-05-02T08:56:46Z</time>
      </trkpt>
      <trkpt lat="42.25961" lon="3.1963">
        <ele>188.80000305176</ele>
        <time>2015-05-02T08:56:50Z</time>
      </trkpt>
      <trkpt lat="42.25966" lon="3.19621">
        <ele>189.19999694824</ele>
        <time>2015-05-02T08:56:54Z</time>
      </trkpt>
      <trkpt lat="42.25968" lon="3.1962">
        <ele>189.19999694824</ele>
        <time>2015-05-02T08:56:55Z</time>
      </trkpt>
      <trkpt lat="42.2597" lon="3.19619">
        <ele>189.39999389648</ele>
        <time>2015-05-02T08:56:56Z</time>
      </trkpt>
      <trkpt lat="42.2598" lon="3.19619">
        <ele>190.19999694824</ele>
        <time>2015-05-02T08:57:01Z</time>
      </trkpt>
      <trkpt lat="42.25981" lon="3.19619">
        <ele>190.39999389648</ele>
        <time>2015-05-02T08:57:02Z</time>
      </trkpt>
      <trkpt lat="42.25987" lon="3.1962">
        <ele>191</ele>
        <time>2015-05-02T08:57:05Z</time>
      </trkpt>
      <trkpt lat="42.25992" lon="3.19621">
        <ele>191.39999389648</ele>
        <time>2015-05-02T08:57:08Z</time>
      </trkpt>
      <trkpt lat="42.25996" lon="3.19621">
        <ele>191.80000305176</ele>
        <time>2015-05-02T08:57:10Z</time>
      </trkpt>
      <trkpt lat="42.26002" lon="3.19623">
        <ele>192.19999694824</ele>
        <time>2015-05-02T08:57:13Z</time>
      </trkpt>
      <trkpt lat="42.26005" lon="3.19623">
        <ele>192.60000610352</ele>
        <time>2015-05-02T08:57:15Z</time>
      </trkpt>
      <trkpt lat="42.26007" lon="3.19623">
        <ele>192.60000610352</ele>
        <time>2015-05-02T08:57:16Z</time>
      </trkpt>
      <trkpt lat="42.26017" lon="3.19619">
        <ele>193.19999694824</ele>
        <time>2015-05-02T08:57:21Z</time>
      </trkpt>
      <trkpt lat="42.26019" lon="3.19618">
        <ele>193.19999694824</ele>
        <time>2015-05-02T08:57:22Z</time>
      </trkpt>
      <trkpt lat="42.26026" lon="3.19613">
        <ele>193.39999389648</ele>
        <time>2015-05-02T08:57:26Z</time>
      </trkpt>
      <trkpt lat="42.26033" lon="3.19607">
        <ele>193.60000610352</ele>
        <time>2015-05-02T08:57:30Z</time>
      </trkpt>
      <trkpt lat="42.26035" lon="3.19605">
        <ele>193.60000610352</ele>
        <time>2015-05-02T08:57:31Z</time>
      </trkpt>
      <trkpt lat="42.2604" lon="3.19597">
        <ele>194.19999694824</ele>
        <time>2015-05-02T08:57:36Z</time>
      </trkpt>
      <trkpt lat="42.26041" lon="3.19596">
        <ele>194.19999694824</ele>
        <time>2015-05-02T08:57:38Z</time>
      </trkpt>
      <trkpt lat="42.26041" lon="3.19596">
        <ele>194</ele>
        <time>2015-05-02T08:57:42Z</time>
      </trkpt>
      <trkpt lat="42.26041" lon="3.19595">
        <ele>194.19999694824</ele>
        <time>2015-05-02T08:57:50Z</time>
      </trkpt>
      <trkpt lat="42.26043" lon="3.19589">
        <ele>194</ele>
        <time>2015-05-02T08:57:56Z</time>
      </trkpt>
      <trkpt lat="42.26045" lon="3.19585">
        <ele>194</ele>
        <time>2015-05-02T08:57:58Z</time>
      </trkpt>
      <trkpt lat="42.2605" lon="3.19577">
        <ele>194.19999694824</ele>
        <time>2015-05-02T08:58:02Z</time>
      </trkpt>
      <trkpt lat="42.2605" lon="3.19575">
        <ele>194.39999389648</ele>
        <time>2015-05-02T08:58:03Z</time>
      </trkpt>
      <trkpt lat="42.26048" lon="3.19566">
        <ele>194.39999389648</ele>
        <time>2015-05-02T08:58:06Z</time>
      </trkpt>
      <trkpt lat="42.26045" lon="3.19556">
        <ele>194.60000610352</ele>
        <time>2015-05-02T08:58:10Z</time>
      </trkpt>
      <trkpt lat="42.26044" lon="3.19551">
        <ele>195</ele>
        <time>2015-05-02T08:58:12Z</time>
      </trkpt>
      <trkpt lat="42.26037" lon="3.19539">
        <ele>195.19999694824</ele>
        <time>2015-05-02T08:58:18Z</time>
      </trkpt>
      <trkpt lat="42.26033" lon="3.19526">
        <ele>195.80000305176</ele>
        <time>2015-05-02T08:58:24Z</time>
      </trkpt>
      <trkpt lat="42.26033" lon="3.19523">
        <ele>196</ele>
        <time>2015-05-02T08:58:25Z</time>
      </trkpt>
      <trkpt lat="42.26031" lon="3.19517">
        <ele>196.19999694824</ele>
        <time>2015-05-02T08:58:28Z</time>
      </trkpt>
      <trkpt lat="42.26031" lon="3.19514">
        <ele>196.19999694824</ele>
        <time>2015-05-02T08:58:29Z</time>
      </trkpt>
      <trkpt lat="42.2603" lon="3.19502">
        <ele>197.19999694824</ele>
        <time>2015-05-02T08:58:34Z</time>
      </trkpt>
      <trkpt lat="42.26032" lon="3.19498">
        <ele>197.60000610352</ele>
        <time>2015-05-02T08:58:36Z</time>
      </trkpt>
      <trkpt lat="42.26038" lon="3.19488">
        <ele>198.19999694824</ele>
        <time>2015-05-02T08:58:41Z</time>
      </trkpt>
      <trkpt lat="42.2604" lon="3.19487">
        <ele>198.19999694824</ele>
        <time>2015-05-02T08:58:42Z</time>
      </trkpt>
      <trkpt lat="42.26049" lon="3.19485">
        <ele>199</ele>
        <time>2015-05-02T08:58:47Z</time>
      </trkpt>
      <trkpt lat="42.26051" lon="3.1948">
        <ele>199.39999389648</ele>
        <time>2015-05-02T08:58:49Z</time>
      </trkpt>
      <trkpt lat="42.26054" lon="3.19475">
        <ele>199.80000305176</ele>
        <time>2015-05-02T08:58:51Z</time>
      </trkpt>
      <trkpt lat="42.2606" lon="3.19469">
        <ele>200.39999389648</ele>
        <time>2015-05-02T08:58:55Z</time>
      </trkpt>
      <trkpt lat="42.26061" lon="3.19466">
        <ele>200</ele>
        <time>2015-05-02T08:58:56Z</time>
      </trkpt>
      <trkpt lat="42.26063" lon="3.19465">
        <ele>200</ele>
        <time>2015-05-02T08:58:57Z</time>
      </trkpt>
      <trkpt lat="42.2607" lon="3.19458">
        <ele>199.39999389648</ele>
        <time>2015-05-02T08:59:01Z</time>
      </trkpt>
      <trkpt lat="42.26072" lon="3.19455">
        <ele>199.19999694824</ele>
        <time>2015-05-02T08:59:02Z</time>
      </trkpt>
      <trkpt lat="42.26076" lon="3.19452">
        <ele>198.60000610352</ele>
        <time>2015-05-02T08:59:04Z</time>
      </trkpt>
      <trkpt lat="42.26078" lon="3.19451">
        <ele>198.19999694824</ele>
        <time>2015-05-02T08:59:05Z</time>
      </trkpt>
      <trkpt lat="42.26088" lon="3.19445">
        <ele>197.60000610352</ele>
        <time>2015-05-02T08:59:10Z</time>
      </trkpt>
      <trkpt lat="42.2609" lon="3.19443">
        <ele>197.60000610352</ele>
        <time>2015-05-02T08:59:11Z</time>
      </trkpt>
      <trkpt lat="42.26093" lon="3.19438">
        <ele>197.19999694824</ele>
        <time>2015-05-02T08:59:13Z</time>
      </trkpt>
      <trkpt lat="42.26094" lon="3.19435">
        <ele>197</ele>
        <time>2015-05-02T08:59:14Z</time>
      </trkpt>
      <trkpt lat="42.26099" lon="3.1943">
        <ele>196.60000610352</ele>
        <time>2015-05-02T08:59:17Z</time>
      </trkpt>
      <trkpt lat="42.26099" lon="3.1943">
        <ele>196.60000610352</ele>
        <time>2015-05-02T08:59:17Z</time>
      </trkpt>
      <trkpt lat="42.26101" lon="3.19428">
        <ele>196.60000610352</ele>
        <time>2015-05-02T08:59:18Z</time>
      </trkpt>
      <trkpt lat="42.26107" lon="3.19418">
        <ele>196.60000610352</ele>
        <time>2015-05-02T08:59:22Z</time>
      </trkpt>
      <trkpt lat="42.26108" lon="3.19415">
        <ele>196.60000610352</ele>
        <time>2015-05-02T08:59:23Z</time>
      </trkpt>
      <trkpt lat="42.26109" lon="3.19412">
        <ele>196.60000610352</ele>
        <time>2015-05-02T08:59:24Z</time>
      </trkpt>
      <trkpt lat="42.2611" lon="3.19405">
        <ele>196.60000610352</ele>
        <time>2015-05-02T08:59:26Z</time>
      </trkpt>
      <trkpt lat="42.26112" lon="3.19391">
        <ele>196.60000610352</ele>
        <time>2015-05-02T08:59:30Z</time>
      </trkpt>
      <trkpt lat="42.26112" lon="3.19387">
        <ele>196.39999389648</ele>
        <time>2015-05-02T08:59:31Z</time>
      </trkpt>
      <trkpt lat="42.2611" lon="3.19372">
        <ele>196</ele>
        <time>2015-05-02T08:59:35Z</time>
      </trkpt>
      <trkpt lat="42.2611" lon="3.19364">
        <ele>195.80000305176</ele>
        <time>2015-05-02T08:59:37Z</time>
      </trkpt>
      <trkpt lat="42.26105" lon="3.19352">
        <ele>195</ele>
        <time>2015-05-02T08:59:41Z</time>
      </trkpt>
      <trkpt lat="42.26102" lon="3.19346">
        <ele>195</ele>
        <time>2015-05-02T08:59:43Z</time>
      </trkpt>
      <trkpt lat="42.26099" lon="3.19333">
        <ele>194.80000305176</ele>
        <time>2015-05-02T08:59:47Z</time>
      </trkpt>
      <trkpt lat="42.26096" lon="3.19307">
        <ele>195</ele>
        <time>2015-05-02T08:59:55Z</time>
      </trkpt>
      <trkpt lat="42.26098" lon="3.19295">
        <ele>195.39999389648</ele>
        <time>2015-05-02T08:59:59Z</time>
      </trkpt>
      <trkpt lat="42.26098" lon="3.19292">
        <ele>195.60000610352</ele>
        <time>2015-05-02T09:00:00Z</time>
      </trkpt>
      <trkpt lat="42.261" lon="3.19279">
        <ele>195.60000610352</ele>
        <time>2015-05-02T09:00:05Z</time>
      </trkpt>
      <trkpt lat="42.26104" lon="3.1927">
        <ele>195.19999694824</ele>
        <time>2015-05-02T09:00:10Z</time>
      </trkpt>
      <trkpt lat="42.26105" lon="3.19268">
        <ele>195</ele>
        <time>2015-05-02T09:00:11Z</time>
      </trkpt>
      <trkpt lat="42.26106" lon="3.19266">
        <ele>194.80000305176</ele>
        <time>2015-05-02T09:00:12Z</time>
      </trkpt>
      <trkpt lat="42.26109" lon="3.19261">
        <ele>194</ele>
        <time>2015-05-02T09:00:15Z</time>
      </trkpt>
      <trkpt lat="42.26111" lon="3.1926">
        <ele>193.80000305176</ele>
        <time>2015-05-02T09:00:16Z</time>
      </trkpt>
      <trkpt lat="42.26113" lon="3.19254">
        <ele>192.39999389648</ele>
        <time>2015-05-02T09:00:19Z</time>
      </trkpt>
      <trkpt lat="42.26114" lon="3.19253">
        <ele>192.19999694824</ele>
        <time>2015-05-02T09:00:20Z</time>
      </trkpt>
      <trkpt lat="42.26116" lon="3.19251">
        <ele>191.60000610352</ele>
        <time>2015-05-02T09:00:21Z</time>
      </trkpt>
      <trkpt lat="42.26117" lon="3.1925">
        <ele>191.19999694824</ele>
        <time>2015-05-02T09:00:22Z</time>
      </trkpt>
      <trkpt lat="42.26118" lon="3.19249">
        <ele>190.80000305176</ele>
        <time>2015-05-02T09:00:23Z</time>
      </trkpt>
      <trkpt lat="42.2612" lon="3.19247">
        <ele>190.60000610352</ele>
        <time>2015-05-02T09:00:24Z</time>
      </trkpt>
      <trkpt lat="42.26121" lon="3.19245">
        <ele>190.19999694824</ele>
        <time>2015-05-02T09:00:25Z</time>
      </trkpt>
      <trkpt lat="42.26127" lon="3.19237">
        <ele>189.39999389648</ele>
        <time>2015-05-02T09:00:30Z</time>
      </trkpt>
      <trkpt lat="42.26129" lon="3.19232">
        <ele>189</ele>
        <time>2015-05-02T09:00:32Z</time>
      </trkpt>
      <trkpt lat="42.2613" lon="3.19231">
        <ele>188.80000305176</ele>
        <time>2015-05-02T09:00:33Z</time>
      </trkpt>
      <trkpt lat="42.26132" lon="3.19227">
        <ele>187.80000305176</ele>
        <time>2015-05-02T09:00:35Z</time>
      </trkpt>
      <trkpt lat="42.26137" lon="3.19219">
        <ele>186.60000610352</ele>
        <time>2015-05-02T09:00:39Z</time>
      </trkpt>
      <trkpt lat="42.26138" lon="3.19217">
        <ele>186.39999389648</ele>
        <time>2015-05-02T09:00:40Z</time>
      </trkpt>
      <trkpt lat="42.26143" lon="3.19208">
        <ele>185.60000610352</ele>
        <time>2015-05-02T09:00:44Z</time>
      </trkpt>
      <trkpt lat="42.26145" lon="3.19206">
        <ele>185.39999389648</ele>
        <time>2015-05-02T09:00:45Z</time>
      </trkpt>
      <trkpt lat="42.26154" lon="3.19201">
        <ele>184.19999694824</ele>
        <time>2015-05-02T09:00:49Z</time>
      </trkpt>
      <trkpt lat="42.26155" lon="3.19199">
        <ele>184</ele>
        <time>2015-05-02T09:00:50Z</time>
      </trkpt>
      <trkpt lat="42.2616" lon="3.19194">
        <ele>183.19999694824</ele>
        <time>2015-05-02T09:00:53Z</time>
      </trkpt>
      <trkpt lat="42.26165" lon="3.1919">
        <ele>182.80000305176</ele>
        <time>2015-05-02T09:00:55Z</time>
      </trkpt>
      <trkpt lat="42.26175" lon="3.19178">
        <ele>182.19999694824</ele>
        <time>2015-05-02T09:01:00Z</time>
      </trkpt>
      <trkpt lat="42.26178" lon="3.19176">
        <ele>182.19999694824</ele>
        <time>2015-05-02T09:01:01Z</time>
      </trkpt>
      <trkpt lat="42.2618" lon="3.19174">
        <ele>182</ele>
        <time>2015-05-02T09:01:02Z</time>
      </trkpt>
      <trkpt lat="42.26181" lon="3.19172">
        <ele>182</ele>
        <time>2015-05-02T09:01:03Z</time>
      </trkpt>
      <trkpt lat="42.26185" lon="3.19168">
        <ele>182</ele>
        <time>2015-05-02T09:01:05Z</time>
      </trkpt>
      <trkpt lat="42.26187" lon="3.19165">
        <ele>181.80000305176</ele>
        <time>2015-05-02T09:01:06Z</time>
      </trkpt>
      <trkpt lat="42.2619" lon="3.19161">
        <ele>181.39999389648</ele>
        <time>2015-05-02T09:01:08Z</time>
      </trkpt>
      <trkpt lat="42.26192" lon="3.19156">
        <ele>181</ele>
        <time>2015-05-02T09:01:10Z</time>
      </trkpt>
      <trkpt lat="42.26197" lon="3.1915">
        <ele>180.19999694824</ele>
        <time>2015-05-02T09:01:13Z</time>
      </trkpt>
      <trkpt lat="42.26198" lon="3.19147">
        <ele>180</ele>
        <time>2015-05-02T09:01:14Z</time>
      </trkpt>
      <trkpt lat="42.262" lon="3.19145">
        <ele>179.80000305176</ele>
        <time>2015-05-02T09:01:15Z</time>
      </trkpt>
      <trkpt lat="42.26202" lon="3.19141">
        <ele>179</ele>
        <time>2015-05-02T09:01:17Z</time>
      </trkpt>
      <trkpt lat="42.26204" lon="3.19139">
        <ele>178.39999389648</ele>
        <time>2015-05-02T09:01:18Z</time>
      </trkpt>
      <trkpt lat="42.26205" lon="3.19137">
        <ele>178.19999694824</ele>
        <time>2015-05-02T09:01:19Z</time>
      </trkpt>
      <trkpt lat="42.26208" lon="3.19133">
        <ele>177.39999389648</ele>
        <time>2015-05-02T09:01:21Z</time>
      </trkpt>
      <trkpt lat="42.26208" lon="3.19132">
        <ele>177.19999694824</ele>
        <time>2015-05-02T09:01:22Z</time>
      </trkpt>
      <trkpt lat="42.26213" lon="3.19122">
        <ele>176</ele>
        <time>2015-05-02T09:01:26Z</time>
      </trkpt>
      <trkpt lat="42.26214" lon="3.1912">
        <ele>175.60000610352</ele>
        <time>2015-05-02T09:01:27Z</time>
      </trkpt>
      <trkpt lat="42.26217" lon="3.19116">
        <ele>175</ele>
        <time>2015-05-02T09:01:29Z</time>
      </trkpt>
      <trkpt lat="42.26222" lon="3.19112">
        <ele>174.19999694824</ele>
        <time>2015-05-02T09:01:32Z</time>
      </trkpt>
      <trkpt lat="42.26224" lon="3.19112">
        <ele>173.80000305176</ele>
        <time>2015-05-02T09:01:33Z</time>
      </trkpt>
      <trkpt lat="42.26229" lon="3.19107">
        <ele>173.19999694824</ele>
        <time>2015-05-02T09:01:36Z</time>
      </trkpt>
      <trkpt lat="42.26232" lon="3.19104">
        <ele>172.60000610352</ele>
        <time>2015-05-02T09:01:38Z</time>
      </trkpt>
      <trkpt lat="42.26239" lon="3.19098">
        <ele>171.19999694824</ele>
        <time>2015-05-02T09:01:41Z</time>
      </trkpt>
      <trkpt lat="42.26241" lon="3.19097">
        <ele>170.60000610352</ele>
        <time>2015-05-02T09:01:42Z</time>
      </trkpt>
      <trkpt lat="42.26246" lon="3.19092">
        <ele>169.80000305176</ele>
        <time>2015-05-02T09:01:44Z</time>
      </trkpt>
      <trkpt lat="42.2625" lon="3.19089">
        <ele>168.80000305176</ele>
        <time>2015-05-02T09:01:46Z</time>
      </trkpt>
      <trkpt lat="42.26252" lon="3.19086">
        <ele>168.19999694824</ele>
        <time>2015-05-02T09:01:47Z</time>
      </trkpt>
      <trkpt lat="42.26257" lon="3.1908">
        <ele>167.19999694824</ele>
        <time>2015-05-02T09:01:50Z</time>
      </trkpt>
      <trkpt lat="42.26262" lon="3.19077">
        <ele>166</ele>
        <time>2015-05-02T09:01:52Z</time>
      </trkpt>
      <trkpt lat="42.26265" lon="3.19072">
        <ele>165</ele>
        <time>2015-05-02T09:01:54Z</time>
      </trkpt>
      <trkpt lat="42.26266" lon="3.1907">
        <ele>164.19999694824</ele>
        <time>2015-05-02T09:01:55Z</time>
      </trkpt>
      <trkpt lat="42.26268" lon="3.19068">
        <ele>163.80000305176</ele>
        <time>2015-05-02T09:01:56Z</time>
      </trkpt>
      <trkpt lat="42.26268" lon="3.19065">
        <ele>163.39999389648</ele>
        <time>2015-05-02T09:01:57Z</time>
      </trkpt>
      <trkpt lat="42.26269" lon="3.19062">
        <ele>162.60000610352</ele>
        <time>2015-05-02T09:01:59Z</time>
      </trkpt>
      <trkpt lat="42.2627" lon="3.19058">
        <ele>161.60000610352</ele>
        <time>2015-05-02T09:02:01Z</time>
      </trkpt>
      <trkpt lat="42.26272" lon="3.19055">
        <ele>160.80000305176</ele>
        <time>2015-05-02T09:02:03Z</time>
      </trkpt>
      <trkpt lat="42.26273" lon="3.19053">
        <ele>160.39999389648</ele>
        <time>2015-05-02T09:02:04Z</time>
      </trkpt>
      <trkpt lat="42.26276" lon="3.19048">
        <ele>159.39999389648</ele>
        <time>2015-05-02T09:02:07Z</time>
      </trkpt>
      <trkpt lat="42.26278" lon="3.19046">
        <ele>159</ele>
        <time>2015-05-02T09:02:08Z</time>
      </trkpt>
      <trkpt lat="42.2628" lon="3.19043">
        <ele>158</ele>
        <time>2015-05-02T09:02:10Z</time>
      </trkpt>
      <trkpt lat="42.26285" lon="3.1904">
        <ele>157</ele>
        <time>2015-05-02T09:02:13Z</time>
      </trkpt>
      <trkpt lat="42.26285" lon="3.19038">
        <ele>156.80000305176</ele>
        <time>2015-05-02T09:02:14Z</time>
      </trkpt>
      <trkpt lat="42.26289" lon="3.19034">
        <ele>156</ele>
        <time>2015-05-02T09:02:17Z</time>
      </trkpt>
      <trkpt lat="42.2629" lon="3.19034">
        <ele>155.80000305176</ele>
        <time>2015-05-02T09:02:18Z</time>
      </trkpt>
      <trkpt lat="42.26293" lon="3.19032">
        <ele>155</ele>
        <time>2015-05-02T09:02:22Z</time>
      </trkpt>
      <trkpt lat="42.26294" lon="3.19032">
        <ele>155</ele>
        <time>2015-05-02T09:02:23Z</time>
      </trkpt>
      <trkpt lat="42.26296" lon="3.1903">
        <ele>154.39999389648</ele>
        <time>2015-05-02T09:02:25Z</time>
      </trkpt>
      <trkpt lat="42.263" lon="3.19027">
        <ele>153.39999389648</ele>
        <time>2015-05-02T09:02:28Z</time>
      </trkpt>
      <trkpt lat="42.26304" lon="3.19024">
        <ele>152.39999389648</ele>
        <time>2015-05-02T09:02:31Z</time>
      </trkpt>
      <trkpt lat="42.26305" lon="3.19022">
        <ele>152.19999694824</ele>
        <time>2015-05-02T09:02:32Z</time>
      </trkpt>
      <trkpt lat="42.26306" lon="3.19024">
        <ele>151.80000305176</ele>
        <time>2015-05-02T09:02:33Z</time>
      </trkpt>
      <trkpt lat="42.26308" lon="3.19026">
        <ele>151.19999694824</ele>
        <time>2015-05-02T09:02:35Z</time>
      </trkpt>
      <trkpt lat="42.2631" lon="3.19025">
        <ele>151</ele>
        <time>2015-05-02T09:02:36Z</time>
      </trkpt>
      <trkpt lat="42.2631" lon="3.19024">
        <ele>150.80000305176</ele>
        <time>2015-05-02T09:02:37Z</time>
      </trkpt>
      <trkpt lat="42.26313" lon="3.19016">
        <ele>149.80000305176</ele>
        <time>2015-05-02T09:02:41Z</time>
      </trkpt>
      <trkpt lat="42.26313" lon="3.19005">
        <ele>149.60000610352</ele>
        <time>2015-05-02T09:02:46Z</time>
      </trkpt>
      <trkpt lat="42.26312" lon="3.18994">
        <ele>150.60000610352</ele>
        <time>2015-05-02T09:02:51Z</time>
      </trkpt>
      <trkpt lat="42.26309" lon="3.18985">
        <ele>151</ele>
        <time>2015-05-02T09:02:55Z</time>
      </trkpt>
      <trkpt lat="42.26309" lon="3.18982">
        <ele>151.19999694824</ele>
        <time>2015-05-02T09:02:56Z</time>
      </trkpt>
      <trkpt lat="42.26308" lon="3.18981">
        <ele>151.19999694824</ele>
        <time>2015-05-02T09:02:57Z</time>
      </trkpt>
      <trkpt lat="42.26307" lon="3.18978">
        <ele>151.60000610352</ele>
        <time>2015-05-02T09:03:00Z</time>
      </trkpt>
      <trkpt lat="42.26299" lon="3.18969">
        <ele>151.19999694824</ele>
        <time>2015-05-02T09:03:05Z</time>
      </trkpt>
      <trkpt lat="42.26287" lon="3.1896">
        <ele>150.60000610352</ele>
        <time>2015-05-02T09:03:11Z</time>
      </trkpt>
      <trkpt lat="42.26281" lon="3.1895">
        <ele>150</ele>
        <time>2015-05-02T09:03:16Z</time>
      </trkpt>
      <trkpt lat="42.2628" lon="3.18948">
        <ele>150</ele>
        <time>2015-05-02T09:03:17Z</time>
      </trkpt>
      <trkpt lat="42.26275" lon="3.18937">
        <ele>149</ele>
        <time>2015-05-02T09:03:22Z</time>
      </trkpt>
      <trkpt lat="42.26275" lon="3.18934">
        <ele>148.80000305176</ele>
        <time>2015-05-02T09:03:23Z</time>
      </trkpt>
      <trkpt lat="42.26275" lon="3.18928">
        <ele>147.80000305176</ele>
        <time>2015-05-02T09:03:25Z</time>
      </trkpt>
      <trkpt lat="42.26275" lon="3.18925">
        <ele>147.60000610352</ele>
        <time>2015-05-02T09:03:26Z</time>
      </trkpt>
      <trkpt lat="42.26275" lon="3.18921">
        <ele>146.80000305176</ele>
        <time>2015-05-02T09:03:28Z</time>
      </trkpt>
      <trkpt lat="42.26275" lon="3.18918">
        <ele>146.60000610352</ele>
        <time>2015-05-02T09:03:29Z</time>
      </trkpt>
      <trkpt lat="42.26274" lon="3.18915">
        <ele>146</ele>
        <time>2015-05-02T09:03:30Z</time>
      </trkpt>
      <trkpt lat="42.26274" lon="3.1891">
        <ele>145.39999389648</ele>
        <time>2015-05-02T09:03:32Z</time>
      </trkpt>
      <trkpt lat="42.26274" lon="3.18908">
        <ele>144.80000305176</ele>
        <time>2015-05-02T09:03:33Z</time>
      </trkpt>
      <trkpt lat="42.26273" lon="3.18905">
        <ele>144.39999389648</ele>
        <time>2015-05-02T09:03:34Z</time>
      </trkpt>
      <trkpt lat="42.26273" lon="3.189">
        <ele>143.19999694824</ele>
        <time>2015-05-02T09:03:36Z</time>
      </trkpt>
      <trkpt lat="42.26274" lon="3.18898">
        <ele>142.80000305176</ele>
        <time>2015-05-02T09:03:37Z</time>
      </trkpt>
      <trkpt lat="42.26274" lon="3.18896">
        <ele>142.39999389648</ele>
        <time>2015-05-02T09:03:38Z</time>
      </trkpt>
      <trkpt lat="42.26274" lon="3.18894">
        <ele>141.80000305176</ele>
        <time>2015-05-02T09:03:39Z</time>
      </trkpt>
      <trkpt lat="42.26275" lon="3.18888">
        <ele>140.80000305176</ele>
        <time>2015-05-02T09:03:41Z</time>
      </trkpt>
      <trkpt lat="42.26276" lon="3.18884">
        <ele>140</ele>
        <time>2015-05-02T09:03:43Z</time>
      </trkpt>
      <trkpt lat="42.26276" lon="3.18881">
        <ele>139.80000305176</ele>
        <time>2015-05-02T09:03:44Z</time>
      </trkpt>
      <trkpt lat="42.26274" lon="3.18874">
        <ele>139.19999694824</ele>
        <time>2015-05-02T09:03:47Z</time>
      </trkpt>
      <trkpt lat="42.26274" lon="3.18871">
        <ele>138.80000305176</ele>
        <time>2015-05-02T09:03:48Z</time>
      </trkpt>
      <trkpt lat="42.26275" lon="3.18868">
        <ele>138.60000610352</ele>
        <time>2015-05-02T09:03:49Z</time>
      </trkpt>
      <trkpt lat="42.26277" lon="3.18863">
        <ele>137.39999389648</ele>
        <time>2015-05-02T09:03:51Z</time>
      </trkpt>
      <trkpt lat="42.26278" lon="3.18859">
        <ele>136.60000610352</ele>
        <time>2015-05-02T09:03:53Z</time>
      </trkpt>
      <trkpt lat="42.26278" lon="3.18858">
        <ele>136.19999694824</ele>
        <time>2015-05-02T09:03:54Z</time>
      </trkpt>
      <trkpt lat="42.26279" lon="3.18851">
        <ele>135</ele>
        <time>2015-05-02T09:03:58Z</time>
      </trkpt>
      <trkpt lat="42.26279" lon="3.18849">
        <ele>134.60000610352</ele>
        <time>2015-05-02T09:03:59Z</time>
      </trkpt>
      <trkpt lat="42.26279" lon="3.18848">
        <ele>134</ele>
        <time>2015-05-02T09:04:00Z</time>
      </trkpt>
      <trkpt lat="42.26279" lon="3.18846">
        <ele>133.39999389648</ele>
        <time>2015-05-02T09:04:01Z</time>
      </trkpt>
      <trkpt lat="42.26279" lon="3.18842">
        <ele>132.19999694824</ele>
        <time>2015-05-02T09:04:04Z</time>
      </trkpt>
      <trkpt lat="42.26279" lon="3.18841">
        <ele>131.80000305176</ele>
        <time>2015-05-02T09:04:05Z</time>
      </trkpt>
      <trkpt lat="42.26278" lon="3.1884">
        <ele>131.39999389648</ele>
        <time>2015-05-02T09:04:06Z</time>
      </trkpt>
      <trkpt lat="42.26278" lon="3.18839">
        <ele>131</ele>
        <time>2015-05-02T09:04:07Z</time>
      </trkpt>
      <trkpt lat="42.26277" lon="3.18837">
        <ele>130.60000610352</ele>
        <time>2015-05-02T09:04:09Z</time>
      </trkpt>
      <trkpt lat="42.26278" lon="3.18836">
        <ele>130.39999389648</ele>
        <time>2015-05-02T09:04:10Z</time>
      </trkpt>
      <trkpt lat="42.26279" lon="3.18834">
        <ele>130</ele>
        <time>2015-05-02T09:04:12Z</time>
      </trkpt>
      <trkpt lat="42.26279" lon="3.18833">
        <ele>129.80000305176</ele>
        <time>2015-05-02T09:04:13Z</time>
      </trkpt>
      <trkpt lat="42.26281" lon="3.1883">
        <ele>129</ele>
        <time>2015-05-02T09:04:15Z</time>
      </trkpt>
      <trkpt lat="42.26281" lon="3.18829">
        <ele>128.60000610352</ele>
        <time>2015-05-02T09:04:16Z</time>
      </trkpt>
      <trkpt lat="42.26282" lon="3.18827">
        <ele>128.39999389648</ele>
        <time>2015-05-02T09:04:17Z</time>
      </trkpt>
      <trkpt lat="42.26285" lon="3.18823">
        <ele>128</ele>
        <time>2015-05-02T09:04:20Z</time>
      </trkpt>
      <trkpt lat="42.26286" lon="3.18821">
        <ele>127.80000305176</ele>
        <time>2015-05-02T09:04:22Z</time>
      </trkpt>
      <trkpt lat="42.26286" lon="3.1882">
        <ele>127.59999847412</ele>
        <time>2015-05-02T09:04:23Z</time>
      </trkpt>
      <trkpt lat="42.26288" lon="3.18819">
        <ele>127.59999847412</ele>
        <time>2015-05-02T09:04:26Z</time>
      </trkpt>
      <trkpt lat="42.26289" lon="3.18818">
        <ele>128.39999389648</ele>
        <time>2015-05-02T09:04:30Z</time>
      </trkpt>
      <trkpt lat="42.26289" lon="3.18817">
        <ele>128.60000610352</ele>
        <time>2015-05-02T09:04:32Z</time>
      </trkpt>
      <trkpt lat="42.26291" lon="3.18815">
        <ele>129</ele>
        <time>2015-05-02T09:04:38Z</time>
      </trkpt>
      <trkpt lat="42.26291" lon="3.18815">
        <ele>129</ele>
        <time>2015-05-02T09:04:39Z</time>
      </trkpt>
      <trkpt lat="42.26292" lon="3.18815">
        <ele>129.19999694824</ele>
        <time>2015-05-02T09:04:44Z</time>
      </trkpt>
      <trkpt lat="42.26292" lon="3.18814">
        <ele>129.19999694824</ele>
        <time>2015-05-02T09:04:55Z</time>
      </trkpt>
      <trkpt lat="42.26292" lon="3.18813">
        <ele>129</ele>
        <time>2015-05-02T09:05:05Z</time>
      </trkpt>
      <trkpt lat="42.26295" lon="3.18808">
        <ele>128.80000305176</ele>
        <time>2015-05-02T09:05:10Z</time>
      </trkpt>
      <trkpt lat="42.26305" lon="3.18796">
        <ele>128.39999389648</ele>
        <time>2015-05-02T09:05:17Z</time>
      </trkpt>
      <trkpt lat="42.26311" lon="3.1879">
        <ele>128</ele>
        <time>2015-05-02T09:05:20Z</time>
      </trkpt>
      <trkpt lat="42.26316" lon="3.18784">
        <ele>127.40000152588</ele>
        <time>2015-05-02T09:05:23Z</time>
      </trkpt>
      <trkpt lat="42.26322" lon="3.18774">
        <ele>126.40000152588</ele>
        <time>2015-05-02T09:05:28Z</time>
      </trkpt>
      <trkpt lat="42.26325" lon="3.18769">
        <ele>126</ele>
        <time>2015-05-02T09:05:30Z</time>
      </trkpt>
      <trkpt lat="42.26329" lon="3.18764">
        <ele>125.19999694824</ele>
        <time>2015-05-02T09:05:33Z</time>
      </trkpt>
      <trkpt lat="42.26332" lon="3.1876">
        <ele>124.59999847412</ele>
        <time>2015-05-02T09:05:35Z</time>
      </trkpt>
      <trkpt lat="42.26334" lon="3.18758">
        <ele>124.40000152588</ele>
        <time>2015-05-02T09:05:36Z</time>
      </trkpt>
      <trkpt lat="42.26335" lon="3.18757">
        <ele>124</ele>
        <time>2015-05-02T09:05:37Z</time>
      </trkpt>
      <trkpt lat="42.26337" lon="3.18755">
        <ele>123.80000305176</ele>
        <time>2015-05-02T09:05:38Z</time>
      </trkpt>
      <trkpt lat="42.26342" lon="3.18747">
        <ele>122.80000305176</ele>
        <time>2015-05-02T09:05:42Z</time>
      </trkpt>
      <trkpt lat="42.26347" lon="3.18742">
        <ele>121.80000305176</ele>
        <time>2015-05-02T09:05:45Z</time>
      </trkpt>
      <trkpt lat="42.26351" lon="3.18737">
        <ele>120.40000152588</ele>
        <time>2015-05-02T09:05:48Z</time>
      </trkpt>
      <trkpt lat="42.26356" lon="3.18733">
        <ele>119.40000152588</ele>
        <time>2015-05-02T09:05:51Z</time>
      </trkpt>
      <trkpt lat="42.26361" lon="3.18728">
        <ele>118</ele>
        <time>2015-05-02T09:05:54Z</time>
      </trkpt>
      <trkpt lat="42.26366" lon="3.18723">
        <ele>117</ele>
        <time>2015-05-02T09:05:57Z</time>
      </trkpt>
      <trkpt lat="42.26371" lon="3.18718">
        <ele>115.80000305176</ele>
        <time>2015-05-02T09:06:00Z</time>
      </trkpt>
      <trkpt lat="42.26373" lon="3.18715">
        <ele>115.59999847412</ele>
        <time>2015-05-02T09:06:01Z</time>
      </trkpt>
      <trkpt lat="42.26376" lon="3.18711">
        <ele>114.59999847412</ele>
        <time>2015-05-02T09:06:03Z</time>
      </trkpt>
      <trkpt lat="42.26379" lon="3.18706">
        <ele>113.40000152588</ele>
        <time>2015-05-02T09:06:05Z</time>
      </trkpt>
      <trkpt lat="42.26382" lon="3.18701">
        <ele>112.40000152588</ele>
        <time>2015-05-02T09:06:07Z</time>
      </trkpt>
      <trkpt lat="42.26385" lon="3.18696">
        <ele>111.40000152588</ele>
        <time>2015-05-02T09:06:09Z</time>
      </trkpt>
      <trkpt lat="42.26388" lon="3.18688">
        <ele>110</ele>
        <time>2015-05-02T09:06:12Z</time>
      </trkpt>
      <trkpt lat="42.2639" lon="3.18679">
        <ele>109.19999694824</ele>
        <time>2015-05-02T09:06:15Z</time>
      </trkpt>
      <trkpt lat="42.26392" lon="3.18676">
        <ele>108.80000305176</ele>
        <time>2015-05-02T09:06:16Z</time>
      </trkpt>
      <trkpt lat="42.26393" lon="3.1867">
        <ele>108</ele>
        <time>2015-05-02T09:06:18Z</time>
      </trkpt>
      <trkpt lat="42.26394" lon="3.18667">
        <ele>107.59999847412</ele>
        <time>2015-05-02T09:06:19Z</time>
      </trkpt>
      <trkpt lat="42.26395" lon="3.18659">
        <ele>106.59999847412</ele>
        <time>2015-05-02T09:06:22Z</time>
      </trkpt>
      <trkpt lat="42.26396" lon="3.18656">
        <ele>106.40000152588</ele>
        <time>2015-05-02T09:06:23Z</time>
      </trkpt>
      <trkpt lat="42.26398" lon="3.18651">
        <ele>105.80000305176</ele>
        <time>2015-05-02T09:06:25Z</time>
      </trkpt>
      <trkpt lat="42.264" lon="3.18649">
        <ele>105.40000152588</ele>
        <time>2015-05-02T09:06:26Z</time>
      </trkpt>
      <trkpt lat="42.26402" lon="3.18645">
        <ele>104.59999847412</ele>
        <time>2015-05-02T09:06:28Z</time>
      </trkpt>
      <trkpt lat="42.26404" lon="3.18642">
        <ele>104.19999694824</ele>
        <time>2015-05-02T09:06:29Z</time>
      </trkpt>
      <trkpt lat="42.26406" lon="3.18638">
        <ele>103</ele>
        <time>2015-05-02T09:06:32Z</time>
      </trkpt>
      <trkpt lat="42.26406" lon="3.18637">
        <ele>102.59999847412</ele>
        <time>2015-05-02T09:06:33Z</time>
      </trkpt>
      <trkpt lat="42.26406" lon="3.18635">
        <ele>101.80000305176</ele>
        <time>2015-05-02T09:06:35Z</time>
      </trkpt>
      <trkpt lat="42.26408" lon="3.18635">
        <ele>101.59999847412</ele>
        <time>2015-05-02T09:06:38Z</time>
      </trkpt>
      <trkpt lat="42.26408" lon="3.18635">
        <ele>101.40000152588</ele>
        <time>2015-05-02T09:06:39Z</time>
      </trkpt>
      <trkpt lat="42.26408" lon="3.18634">
        <ele>101.40000152588</ele>
        <time>2015-05-02T09:06:40Z</time>
      </trkpt>
      <trkpt lat="42.2641" lon="3.18635">
        <ele>101.19999694824</ele>
        <time>2015-05-02T09:06:41Z</time>
      </trkpt>
      <trkpt lat="42.26413" lon="3.18634">
        <ele>101</ele>
        <time>2015-05-02T09:06:43Z</time>
      </trkpt>
      <trkpt lat="42.26414" lon="3.18633">
        <ele>100.80000305176</ele>
        <time>2015-05-02T09:06:44Z</time>
      </trkpt>
      <trkpt lat="42.26424" lon="3.18627">
        <ele>100.40000152588</ele>
        <time>2015-05-02T09:06:51Z</time>
      </trkpt>
      <trkpt lat="42.2643" lon="3.18621">
        <ele>99.599998474121</ele>
        <time>2015-05-02T09:06:55Z</time>
      </trkpt>
      <trkpt lat="42.26435" lon="3.18618">
        <ele>98.599998474121</ele>
        <time>2015-05-02T09:06:58Z</time>
      </trkpt>
      <trkpt lat="42.26437" lon="3.18617">
        <ele>98.400001525879</ele>
        <time>2015-05-02T09:06:59Z</time>
      </trkpt>
      <trkpt lat="42.26441" lon="3.18613">
        <ele>97.800003051758</ele>
        <time>2015-05-02T09:07:01Z</time>
      </trkpt>
      <trkpt lat="42.26442" lon="3.18612">
        <ele>97.400001525879</ele>
        <time>2015-05-02T09:07:02Z</time>
      </trkpt>
      <trkpt lat="42.26444" lon="3.1861">
        <ele>97.199996948242</ele>
        <time>2015-05-02T09:07:03Z</time>
      </trkpt>
      <trkpt lat="42.26447" lon="3.18607">
        <ele>96.800003051758</ele>
        <time>2015-05-02T09:07:05Z</time>
      </trkpt>
      <trkpt lat="42.26451" lon="3.18605">
        <ele>96.400001525879</ele>
        <time>2015-05-02T09:07:07Z</time>
      </trkpt>
      <trkpt lat="42.26453" lon="3.18603">
        <ele>96.199996948242</ele>
        <time>2015-05-02T09:07:08Z</time>
      </trkpt>
      <trkpt lat="42.26455" lon="3.18602">
        <ele>96</ele>
        <time>2015-05-02T09:07:09Z</time>
      </trkpt>
      <trkpt lat="42.26461" lon="3.18598">
        <ele>94.800003051758</ele>
        <time>2015-05-02T09:07:12Z</time>
      </trkpt>
      <trkpt lat="42.26463" lon="3.18596">
        <ele>94.599998474121</ele>
        <time>2015-05-02T09:07:13Z</time>
      </trkpt>
      <trkpt lat="42.26467" lon="3.18594">
        <ele>94.199996948242</ele>
        <time>2015-05-02T09:07:15Z</time>
      </trkpt>
      <trkpt lat="42.26472" lon="3.18593">
        <ele>93.800003051758</ele>
        <time>2015-05-02T09:07:17Z</time>
      </trkpt>
      <trkpt lat="42.26478" lon="3.1859">
        <ele>92.599998474121</ele>
        <time>2015-05-02T09:07:20Z</time>
      </trkpt>
      <trkpt lat="42.26487" lon="3.1859">
        <ele>91.599998474121</ele>
        <time>2015-05-02T09:07:24Z</time>
      </trkpt>
      <trkpt lat="42.26488" lon="3.1859">
        <ele>91.199996948242</ele>
        <time>2015-05-02T09:07:25Z</time>
      </trkpt>
      <trkpt lat="42.26495" lon="3.1859">
        <ele>90.199996948242</ele>
        <time>2015-05-02T09:07:28Z</time>
      </trkpt>
      <trkpt lat="42.26497" lon="3.1859">
        <ele>90</ele>
        <time>2015-05-02T09:07:29Z</time>
      </trkpt>
      <trkpt lat="42.26501" lon="3.18588">
        <ele>89.199996948242</ele>
        <time>2015-05-02T09:07:31Z</time>
      </trkpt>
      <trkpt lat="42.26503" lon="3.18587">
        <ele>88.800003051758</ele>
        <time>2015-05-02T09:07:32Z</time>
      </trkpt>
      <trkpt lat="42.26505" lon="3.18583">
        <ele>88</ele>
        <time>2015-05-02T09:07:34Z</time>
      </trkpt>
      <trkpt lat="42.26505" lon="3.18581">
        <ele>87.800003051758</ele>
        <time>2015-05-02T09:07:35Z</time>
      </trkpt>
      <trkpt lat="42.26505" lon="3.18578">
        <ele>87.400001525879</ele>
        <time>2015-05-02T09:07:36Z</time>
      </trkpt>
      <trkpt lat="42.26503" lon="3.18573">
        <ele>86.599998474121</ele>
        <time>2015-05-02T09:07:38Z</time>
      </trkpt>
      <trkpt lat="42.26498" lon="3.18567">
        <ele>85.199996948242</ele>
        <time>2015-05-02T09:07:41Z</time>
      </trkpt>
      <trkpt lat="42.26492" lon="3.18561">
        <ele>84</ele>
        <time>2015-05-02T09:07:45Z</time>
      </trkpt>
      <trkpt lat="42.2649" lon="3.1856">
        <ele>83.800003051758</ele>
        <time>2015-05-02T09:07:46Z</time>
      </trkpt>
      <trkpt lat="42.26488" lon="3.18559">
        <ele>83.800003051758</ele>
        <time>2015-05-02T09:07:47Z</time>
      </trkpt>
      <trkpt lat="42.26479" lon="3.18555">
        <ele>83</ele>
        <time>2015-05-02T09:07:52Z</time>
      </trkpt>
      <trkpt lat="42.26477" lon="3.18555">
        <ele>82.599998474121</ele>
        <time>2015-05-02T09:07:53Z</time>
      </trkpt>
      <trkpt lat="42.26472" lon="3.18554">
        <ele>82.199996948242</ele>
        <time>2015-05-02T09:07:55Z</time>
      </trkpt>
      <trkpt lat="42.2647" lon="3.18553">
        <ele>81.599998474121</ele>
        <time>2015-05-02T09:07:56Z</time>
      </trkpt>
      <trkpt lat="42.26468" lon="3.18553">
        <ele>81.599998474121</ele>
        <time>2015-05-02T09:07:57Z</time>
      </trkpt>
      <trkpt lat="42.26463" lon="3.18552">
        <ele>80.599998474121</ele>
        <time>2015-05-02T09:08:00Z</time>
      </trkpt>
      <trkpt lat="42.26458" lon="3.18552">
        <ele>79.400001525879</ele>
        <time>2015-05-02T09:08:02Z</time>
      </trkpt>
      <trkpt lat="42.2645" lon="3.18551">
        <ele>78.400001525879</ele>
        <time>2015-05-02T09:08:06Z</time>
      </trkpt>
      <trkpt lat="42.26445" lon="3.18551">
        <ele>77.400001525879</ele>
        <time>2015-05-02T09:08:08Z</time>
      </trkpt>
      <trkpt lat="42.26443" lon="3.1855">
        <ele>77</ele>
        <time>2015-05-02T09:08:09Z</time>
      </trkpt>
      <trkpt lat="42.26437" lon="3.18545">
        <ele>76</ele>
        <time>2015-05-02T09:08:13Z</time>
      </trkpt>
      <trkpt lat="42.26435" lon="3.18544">
        <ele>75.800003051758</ele>
        <time>2015-05-02T09:08:14Z</time>
      </trkpt>
      <trkpt lat="42.26432" lon="3.1854">
        <ele>75</ele>
        <time>2015-05-02T09:08:16Z</time>
      </trkpt>
      <trkpt lat="42.26428" lon="3.18533">
        <ele>73.800003051758</ele>
        <time>2015-05-02T09:08:19Z</time>
      </trkpt>
      <trkpt lat="42.26426" lon="3.18528">
        <ele>73</ele>
        <time>2015-05-02T09:08:21Z</time>
      </trkpt>
      <trkpt lat="42.26424" lon="3.18526">
        <ele>72.800003051758</ele>
        <time>2015-05-02T09:08:22Z</time>
      </trkpt>
      <trkpt lat="42.26421" lon="3.18516">
        <ele>71.800003051758</ele>
        <time>2015-05-02T09:08:26Z</time>
      </trkpt>
      <trkpt lat="42.26421" lon="3.18514">
        <ele>71.400001525879</ele>
        <time>2015-05-02T09:08:27Z</time>
      </trkpt>
      <trkpt lat="42.26424" lon="3.18506">
        <ele>70.800003051758</ele>
        <time>2015-05-02T09:08:30Z</time>
      </trkpt>
      <trkpt lat="42.26428" lon="3.18504">
        <ele>70.400001525879</ele>
        <time>2015-05-02T09:08:32Z</time>
      </trkpt>
      <trkpt lat="42.26432" lon="3.18504">
        <ele>69.800003051758</ele>
        <time>2015-05-02T09:08:34Z</time>
      </trkpt>
      <trkpt lat="42.26435" lon="3.18505">
        <ele>69.400001525879</ele>
        <time>2015-05-02T09:08:35Z</time>
      </trkpt>
      <trkpt lat="42.26439" lon="3.18505">
        <ele>68.599998474121</ele>
        <time>2015-05-02T09:08:37Z</time>
      </trkpt>
      <trkpt lat="42.26442" lon="3.18505">
        <ele>68.199996948242</ele>
        <time>2015-05-02T09:08:38Z</time>
      </trkpt>
      <trkpt lat="42.26451" lon="3.18503">
        <ele>66.800003051758</ele>
        <time>2015-05-02T09:08:43Z</time>
      </trkpt>
      <trkpt lat="42.26452" lon="3.18501">
        <ele>66.599998474121</ele>
        <time>2015-05-02T09:08:44Z</time>
      </trkpt>
      <trkpt lat="42.26453" lon="3.18498">
        <ele>66.400001525879</ele>
        <time>2015-05-02T09:08:45Z</time>
      </trkpt>
      <trkpt lat="42.26454" lon="3.18496">
        <ele>66.199996948242</ele>
        <time>2015-05-02T09:08:46Z</time>
      </trkpt>
      <trkpt lat="42.26455" lon="3.18493">
        <ele>65.800003051758</ele>
        <time>2015-05-02T09:08:47Z</time>
      </trkpt>
      <trkpt lat="42.26455" lon="3.1849">
        <ele>65.599998474121</ele>
        <time>2015-05-02T09:08:48Z</time>
      </trkpt>
      <trkpt lat="42.26455" lon="3.18488">
        <ele>65.400001525879</ele>
        <time>2015-05-02T09:08:49Z</time>
      </trkpt>
      <trkpt lat="42.26452" lon="3.18485">
        <ele>64.800003051758</ele>
        <time>2015-05-02T09:08:51Z</time>
      </trkpt>
      <trkpt lat="42.2645" lon="3.18482">
        <ele>64.800003051758</ele>
        <time>2015-05-02T09:08:52Z</time>
      </trkpt>
      <trkpt lat="42.26445" lon="3.18476">
        <ele>64.199996948242</ele>
        <time>2015-05-02T09:08:55Z</time>
      </trkpt>
      <trkpt lat="42.2644" lon="3.18471">
        <ele>63.799999237061</ele>
        <time>2015-05-02T09:08:58Z</time>
      </trkpt>
      <trkpt lat="42.26439" lon="3.1847">
        <ele>63.400001525879</ele>
        <time>2015-05-02T09:08:59Z</time>
      </trkpt>
      <trkpt lat="42.26432" lon="3.18462">
        <ele>62.599998474121</ele>
        <time>2015-05-02T09:09:03Z</time>
      </trkpt>
      <trkpt lat="42.2643" lon="3.18461">
        <ele>62.599998474121</ele>
        <time>2015-05-02T09:09:04Z</time>
      </trkpt>
      <trkpt lat="42.26429" lon="3.1846">
        <ele>62.400001525879</ele>
        <time>2015-05-02T09:09:05Z</time>
      </trkpt>
      <trkpt lat="42.26423" lon="3.18455">
        <ele>61.799999237061</ele>
        <time>2015-05-02T09:09:08Z</time>
      </trkpt>
      <trkpt lat="42.26422" lon="3.18454">
        <ele>61.799999237061</ele>
        <time>2015-05-02T09:09:09Z</time>
      </trkpt>
      <trkpt lat="42.26415" lon="3.18445">
        <ele>62</ele>
        <time>2015-05-02T09:09:13Z</time>
      </trkpt>
      <trkpt lat="42.26408" lon="3.18439">
        <ele>61.599998474121</ele>
        <time>2015-05-02T09:09:17Z</time>
      </trkpt>
      <trkpt lat="42.26406" lon="3.18437">
        <ele>61.599998474121</ele>
        <time>2015-05-02T09:09:18Z</time>
      </trkpt>
      <trkpt lat="42.26405" lon="3.18436">
        <ele>61.400001525879</ele>
        <time>2015-05-02T09:09:19Z</time>
      </trkpt>
      <trkpt lat="42.26403" lon="3.18433">
        <ele>61.400001525879</ele>
        <time>2015-05-02T09:09:20Z</time>
      </trkpt>
      <trkpt lat="42.26403" lon="3.18428">
        <ele>61</ele>
        <time>2015-05-02T09:09:22Z</time>
      </trkpt>
      <trkpt lat="42.26402" lon="3.18425">
        <ele>61</ele>
        <time>2015-05-02T09:09:23Z</time>
      </trkpt>
      <trkpt lat="42.26402" lon="3.18422">
        <ele>60.799999237061</ele>
        <time>2015-05-02T09:09:24Z</time>
      </trkpt>
      <trkpt lat="42.26403" lon="3.18419">
        <ele>60.599998474121</ele>
        <time>2015-05-02T09:09:25Z</time>
      </trkpt>
      <trkpt lat="42.26403" lon="3.18406">
        <ele>59.200000762939</ele>
        <time>2015-05-02T09:09:29Z</time>
      </trkpt>
      <trkpt lat="42.26403" lon="3.18403">
        <ele>59</ele>
        <time>2015-05-02T09:09:30Z</time>
      </trkpt>
      <trkpt lat="42.26404" lon="3.18397">
        <ele>58.400001525879</ele>
        <time>2015-05-02T09:09:32Z</time>
      </trkpt>
      <trkpt lat="42.26405" lon="3.18394">
        <ele>58</ele>
        <time>2015-05-02T09:09:33Z</time>
      </trkpt>
      <trkpt lat="42.26406" lon="3.18385">
        <ele>57.400001525879</ele>
        <time>2015-05-02T09:09:36Z</time>
      </trkpt>
      <trkpt lat="42.26407" lon="3.18382">
        <ele>57</ele>
        <time>2015-05-02T09:09:37Z</time>
      </trkpt>
      <trkpt lat="42.26408" lon="3.1838">
        <ele>56.799999237061</ele>
        <time>2015-05-02T09:09:38Z</time>
      </trkpt>
      <trkpt lat="42.26413" lon="3.18369">
        <ele>56</ele>
        <time>2015-05-02T09:09:42Z</time>
      </trkpt>
      <trkpt lat="42.26416" lon="3.1836">
        <ele>54.799999237061</ele>
        <time>2015-05-02T09:09:45Z</time>
      </trkpt>
      <trkpt lat="42.26417" lon="3.18358">
        <ele>54.599998474121</ele>
        <time>2015-05-02T09:09:46Z</time>
      </trkpt>
      <trkpt lat="42.26418" lon="3.18355">
        <ele>54.200000762939</ele>
        <time>2015-05-02T09:09:47Z</time>
      </trkpt>
      <trkpt lat="42.26419" lon="3.18353">
        <ele>53.599998474121</ele>
        <time>2015-05-02T09:09:48Z</time>
      </trkpt>
      <trkpt lat="42.26425" lon="3.18343">
        <ele>52.799999237061</ele>
        <time>2015-05-02T09:09:52Z</time>
      </trkpt>
    </trkseg>
  </trk>
</gpx>